MOUNT RAINIER
GEOLOGY & WEATHER
Hello guest! [ Log In ]
csv data for White River at White River Bridge

White River at White River Bridge

Date Range to view:
 
[ Graphical View | Weather History ]

GMT Datetime,Local Datetime,Stage (ft),Rainfall (in),Turbidity (ntu),Air Temperature (°C),Water Temperature (°C),Enclosure Temperature (°C),Dissolved Oxygen Temperature (°C),Turbidity Temperature (°C),10-hour Fuel Temperature (°C),,Water Conductivity (μS/cm),Dissolved Oxygen Level (mg/l),Snow Depth (m),Air Level (psi),Water Level (psi),Battery (V),Solar Panel (V),Slave Radio Battery Voltage (v),Slave Radio Solar Voltage (v),Master Radio Signal Strength (%),Slave Radio Signal Strength (%)
2023-11-29 08:00:00,2023-11-29 00:00:00,-999.0000,9.50,-999.00,-2.9730,-999.0000,-4.8,-999.0000,-999,-3.8,,-999.0000,-999.0000,0.047,12.7240,-999.0000,12.9,0.1,12.7100,0.0000,9.0000,6.0000
2023-11-29 08:15:00,2023-11-29 00:15:00,-999.0000,9.50,-999.00,-2.9840,-999.0000,-4.8,-999.0000,-999,-4.0,,-999.0000,-999.0000,0.048,12.7240,-999.0000,12.9,0.1,12.7100,0.0000,3.0000,13.0000
2023-11-29 08:30:00,2023-11-29 00:30:00,-999.0000,9.50,-999.00,-3.0370,-999.0000,-4.7,-999.0000,-999,-4.1,,-999.0000,-999.0000,0.048,12.7230,-999.0000,12.9,0.1,12.7100,0.0000,3.0000,8.0000
2023-11-29 08:45:00,2023-11-29 00:45:00,-999.0000,9.50,-999.00,-3.1080,-999.0000,-4.8,-999.0000,-999,-4.2,,-999.0000,-999.0000,0.046,12.7210,-999.0000,12.9,0.1,12.7100,0.0000,6.0000,7.0000
2023-11-29 09:00:00,2023-11-29 01:00:00,-999.0000,9.50,-999.00,-3.2310,-999.0000,-4.8,-999.0000,-999,-4.3,,-999.0000,-999.0000,0.046,12.7210,-999.0000,12.9,0.1,12.7100,0.0000,5.0000,5.0000
2023-11-29 09:15:00,2023-11-29 01:15:00,-999.0000,9.50,-999.00,-3.3230,-999.0000,-4.8,-999.0000,-999,-4.3,,-999.0000,-999.0000,0.047,12.7200,-999.0000,13.0,0.1,12.7100,0.0000,7.0000,3.0000
2023-11-29 09:30:00,2023-11-29 01:30:00,-999.0000,9.50,-999.00,-3.3670,-999.0000,-4.8,-999.0000,-999,-4.3,,-999.0000,-999.0000,0.048,12.7200,-999.0000,12.9,0.1,12.7100,0.0000,1.0000,2.0000
2023-11-29 09:45:00,2023-11-29 01:45:00,-999.0000,9.50,-999.00,-3.3720,-999.0000,-5.0,-999.0000,-999,-4.3,,-999.0000,-999.0000,0.050,12.7200,-999.0000,12.9,0.1,12.6900,0.0000,1.0000,6.0000
2023-11-29 10:00:00,2023-11-29 02:00:00,-999.0000,9.50,-999.00,-3.3850,-999.0000,-5.0,-999.0000,-999,-4.3,,-999.0000,-999.0000,0.049,12.7190,-999.0000,12.9,0.1,12.7100,0.0000,8.0000,7.0000
2023-11-29 10:15:00,2023-11-29 02:15:00,-999.0000,9.50,-999.00,-3.4050,-999.0000,-5.0,-999.0000,-999,-4.3,,-999.0000,-999.0000,0.048,12.7180,-999.0000,12.9,0.1,12.6900,0.0000,8.0000,3.0000
2023-11-29 10:30:00,2023-11-29 02:30:00,-999.0000,9.50,-999.00,-3.4370,-999.0000,-5.0,-999.0000,-999,-4.4,,-999.0000,-999.0000,0.049,12.7180,-999.0000,12.9,0.1,12.7100,0.0000,6.0000,6.0000
2023-11-29 10:45:00,2023-11-29 02:45:00,-999.0000,9.50,-999.00,-3.4370,-999.0000,-5.0,-999.0000,-999,-4.3,,-999.0000,-999.0000,0.050,12.7170,-999.0000,12.9,0.1,12.6900,0.0000,10.0000,6.0000
2023-11-29 11:00:00,2023-11-29 03:00:00,-999.0000,9.50,-999.00,-3.4850,-999.0000,-5.2,-999.0000,-999,-4.4,,-999.0000,-999.0000,0.050,12.7160,-999.0000,12.9,0.1,12.6900,0.0000,6.0000,5.0000
2023-11-29 11:15:00,2023-11-29 03:15:00,-999.0000,9.50,-999.00,-3.5860,-999.0000,-5.2,-999.0000,-999,-4.6,,-999.0000,-999.0000,0.047,12.7150,-999.0000,12.9,0.1,12.6900,0.0000,5.0000,12.0000
2023-11-29 11:30:00,2023-11-29 03:30:00,-999.0000,9.50,-999.00,-3.6460,-999.0000,-5.2,-999.0000,-999,-4.6,,-999.0000,-999.0000,0.051,12.7120,-999.0000,12.9,0.1,12.6900,0.0000,5.0000,9.0000
2023-11-29 11:45:00,2023-11-29 03:45:00,-999.0000,9.50,-999.00,-3.7090,-999.0000,-5.2,-999.0000,-999,-4.7,,-999.0000,-999.0000,0.049,12.7120,-999.0000,12.9,0.1,12.7100,0.0000,3.0000,3.0000
2023-11-29 12:00:00,2023-11-29 04:00:00,-999.0000,9.50,-999.00,-3.7900,-999.0000,-5.4,-999.0000,-999,-4.8,,-999.0000,-999.0000,0.050,12.7110,-999.0000,12.9,0.1,12.6800,0.0000,3.0000,8.0000
2023-11-29 12:15:00,2023-11-29 04:15:00,-999.0000,9.50,-999.00,-3.8490,-999.0000,-5.4,-999.0000,-999,-4.8,,-999.0000,-999.0000,0.050,12.7100,-999.0000,12.9,0.1,12.6900,0.0000,4.0000,8.0000
2023-11-29 12:30:00,2023-11-29 04:30:00,-999.0000,9.50,-999.00,-3.9230,-999.0000,-5.4,-999.0000,-999,-4.9,,-999.0000,-999.0000,0.051,12.7090,-999.0000,12.9,0.0,12.6900,0.0000,8.0000,5.0000
2023-11-29 12:45:00,2023-11-29 04:45:00,-999.0000,9.50,-999.00,-3.9490,-999.0000,-5.5,-999.0000,-999,-4.9,,-999.0000,-999.0000,0.050,12.7070,-999.0000,12.9,0.1,12.6900,0.0000,8.0000,5.0000
2023-11-29 13:00:00,2023-11-29 05:00:00,-999.0000,9.50,-999.00,-3.9870,-999.0000,-5.5,-999.0000,-999,-4.9,,-999.0000,-999.0000,0.050,12.7060,-999.0000,12.9,0.0,12.6900,0.0000,4.0000,11.0000
2023-11-29 13:15:00,2023-11-29 05:15:00,-999.0000,9.50,-999.00,-4.0290,-999.0000,-5.5,-999.0000,-999,-5.0,,-999.0000,-999.0000,0.050,12.7040,-999.0000,12.9,0.0,12.6800,0.0000,4.0000,6.0000
2023-11-29 13:30:00,2023-11-29 05:30:00,-999.0000,9.50,-999.00,-4.0390,-999.0000,-5.7,-999.0000,-999,-5.0,,-999.0000,-999.0000,0.051,12.7030,-999.0000,12.9,0.0,12.6800,0.0000,6.0000,11.0000
2023-11-29 13:45:00,2023-11-29 05:45:00,-999.0000,9.50,-999.00,-4.0490,-999.0000,-5.7,-999.0000,-999,-5.0,,-999.0000,-999.0000,0.049,12.7030,-999.0000,12.9,0.0,12.6900,0.0000,9.0000,7.0000
2023-11-29 14:00:00,2023-11-29 06:00:00,-999.0000,9.50,-999.00,-4.0970,-999.0000,-5.9,-999.0000,-999,-5.0,,-999.0000,-999.0000,0.051,12.7020,-999.0000,12.9,0.0,12.6800,0.0000,3.0000,1.0000
2023-11-29 14:15:00,2023-11-29 06:15:00,-999.0000,9.50,-999.00,-4.1520,-999.0000,-5.7,-999.0000,-999,-5.1,,-999.0000,-999.0000,0.049,12.7010,-999.0000,12.9,0.0,12.6800,0.0000,5.0000,9.0000
2023-11-29 14:30:00,2023-11-29 06:30:00,-999.0000,9.50,-999.00,-4.1600,-999.0000,-5.7,-999.0000,-999,-5.1,,-999.0000,-999.0000,0.052,12.7020,-999.0000,12.9,0.0,12.6800,0.0000,7.0000,8.0000
2023-11-29 14:45:00,2023-11-29 06:45:00,-999.0000,9.50,-999.00,-4.1670,-999.0000,-5.9,-999.0000,-999,-5.1,,-999.0000,-999.0000,0.051,12.7010,-999.0000,12.9,0.2,12.6700,0.0000,6.0000,5.0000
2023-11-29 15:00:00,2023-11-29 07:00:00,-999.0000,9.50,-999.00,-4.1680,-999.0000,-5.9,-999.0000,-999,-5.1,,-999.0000,-999.0000,0.051,12.7030,-999.0000,12.9,2.6,12.6900,0.0000,4.0000,5.0000
2023-11-29 15:15:00,2023-11-29 07:15:00,-999.0000,9.50,-999.00,-4.1670,-999.0000,-5.9,-999.0000,-999,-5.1,,-999.0000,-999.0000,0.051,12.7030,-999.0000,12.9,11.5,12.6900,0.0000,5.0000,8.0000
2023-11-29 15:30:00,2023-11-29 07:30:00,-999.0000,9.50,-999.00,-4.1080,-999.0000,-5.9,-999.0000,-999,-5.1,,-999.0000,-999.0000,0.053,12.7040,-999.0000,12.9,12.9,12.6800,10.9200,9.0000,7.0000
2023-11-29 15:45:00,2023-11-29 07:45:00,-999.0000,9.50,-999.00,-4.0960,-999.0000,-5.9,-999.0000,-999,-5.0,,-999.0000,-999.0000,0.052,12.7040,-999.0000,12.9,13.0,12.6800,12.0700,9.0000,3.0000
2023-11-29 16:00:00,2023-11-29 08:00:00,-999.0000,9.50,-999.00,-4.0620,-999.0000,-5.9,-999.0000,-999,-5.0,,-999.0000,-999.0000,0.051,12.7040,-999.0000,12.9,13.0,12.6800,12.7200,3.0000,12.0000
2023-11-29 16:15:00,2023-11-29 08:15:00,-999.0000,9.50,-999.00,-3.9780,-999.0000,-5.9,-999.0000,-999,-4.9,,-999.0000,-999.0000,0.051,12.7050,-999.0000,12.9,13.0,12.6900,12.7400,4.0000,7.0000
2023-11-29 16:30:00,2023-11-29 08:30:00,-999.0000,9.50,-999.00,-3.9250,-999.0000,-5.7,-999.0000,-999,-4.8,,-999.0000,-999.0000,0.049,12.7050,-999.0000,13.0,13.0,12.6900,12.7400,11.0000,4.0000
2023-11-29 16:45:00,2023-11-29 08:45:00,-999.0000,9.50,-999.00,-3.8680,-999.0000,-5.7,-999.0000,-999,-4.7,,-999.0000,-999.0000,0.052,12.7060,-999.0000,13.0,13.0,12.7000,12.7400,7.0000,13.0000
2023-11-29 17:00:00,2023-11-29 09:00:00,-999.0000,9.50,-999.00,-3.7930,-999.0000,-5.7,-999.0000,-999,-4.7,,-999.0000,-999.0000,0.049,12.7060,-999.0000,13.0,13.0,12.7100,12.7400,7.0000,7.0000
2023-11-29 17:15:00,2023-11-29 09:15:00,-999.0000,9.50,-999.00,-3.7240,-999.0000,-5.5,-999.0000,-999,-4.7,,-999.0000,-999.0000,0.050,12.7070,-999.0000,13.0,13.0,12.7100,12.7700,7.0000,8.0000
2023-11-29 17:30:00,2023-11-29 09:30:00,-999.0000,9.50,-999.00,-3.4950,-999.0000,-5.5,-999.0000,-999,-4.5,,-999.0000,-999.0000,0.050,12.7090,-999.0000,13.0,13.1,12.7200,12.7900,8.0000,10.0000
2023-11-29 17:45:00,2023-11-29 09:45:00,-999.0000,9.50,-999.00,-3.2320,-999.0000,-5.4,-999.0000,-999,-4.1,,-999.0000,-999.0000,0.051,12.7100,-999.0000,13.1,13.2,12.7600,12.8500,3.0000,5.0000
2023-11-29 18:00:00,2023-11-29 10:00:00,-999.0000,9.50,-999.00,-3.0320,-999.0000,-5.2,-999.0000,-999,-3.7,,-999.0000,-999.0000,0.050,12.7120,-999.0000,13.2,13.2,12.7900,12.8700,3.0000,5.0000
2023-11-29 18:15:00,2023-11-29 10:15:00,-999.0000,9.50,-999.00,-2.8780,-999.0000,-4.8,-999.0000,-999,-3.4,,-999.0000,-999.0000,0.050,12.7120,-999.0000,13.2,13.2,12.7900,12.8500,2.0000,6.0000
2023-11-29 18:30:00,2023-11-29 10:30:00,-999.0000,9.50,-999.00,-2.8160,-999.0000,-4.5,-999.0000,-999,-3.5,,-999.0000,-999.0000,0.049,12.7110,-999.0000,13.2,13.2,12.7900,12.8500,5.0000,6.0000
2023-11-29 18:45:00,2023-11-29 10:45:00,-999.0000,9.50,-999.00,-2.7350,-999.0000,-4.5,-999.0000,-999,-3.4,,-999.0000,-999.0000,0.050,12.7090,-999.0000,13.3,13.3,12.8200,12.9200,8.0000,10.0000
2023-11-29 19:00:00,2023-11-29 11:00:00,-999.0000,9.50,-999.00,-2.4540,-999.0000,-4.3,-999.0000,-999,-2.5,,-999.0000,-999.0000,0.047,12.7090,-999.0000,13.5,13.6,12.8800,12.9800,5.0000,7.0000
2023-11-29 19:15:00,2023-11-29 11:15:00,-999.0000,9.50,-999.00,-1.8780,-999.0000,-3.8,-999.0000,-999,-1.4,,-999.0000,-999.0000,0.049,12.7100,-999.0000,13.6,13.7,12.9100,13.0100,9.0000,10.0000
2023-11-29 19:30:00,2023-11-29 11:30:00,-999.0000,9.50,-999.00,-1.3450,-999.0000,-3.1,-999.0000,-999,-0.8,,-999.0000,-999.0000,0.048,12.7110,-999.0000,13.6,13.7,12.9100,12.9800,2.0000,4.0000
2023-11-29 19:45:00,2023-11-29 11:45:00,-999.0000,9.50,-999.00,-0.8810,-999.0000,-2.7,-999.0000,-999,-0.4,,-999.0000,-999.0000,0.049,12.7120,-999.0000,13.6,13.7,12.9100,13.0000,7.0000,3.0000
2023-11-29 20:00:00,2023-11-29 12:00:00,-999.0000,9.50,-999.00,-0.4710,-999.0000,-2.1,-999.0000,-999,-0.1,,-999.0000,-999.0000,0.047,12.7110,-999.0000,13.6,13.7,12.9200,13.0000,6.0000,5.0000
2023-11-29 20:15:00,2023-11-29 12:15:00,-999.0000,9.50,-999.00,-0.1090,-999.0000,-1.5,-999.0000,-999,0.0,,-999.0000,-999.0000,0.043,12.7100,-999.0000,13.6,13.7,12.9300,13.0000,6.0000,7.0000
2023-11-29 20:30:00,2023-11-29 12:30:00,-999.0000,9.50,-999.00,0.2410,-999.0000,-1.0,-999.0000,-999,0.0,,-999.0000,-999.0000,0.043,12.7110,-999.0000,13.7,13.7,12.9100,13.0000,8.0000,10.0000
2023-11-29 20:45:00,2023-11-29 12:45:00,-999.0000,9.50,-999.00,0.4980,-999.0000,-0.7,-999.0000,-999,0.1,,-999.0000,-999.0000,0.041,12.7100,-999.0000,13.7,13.7,12.9200,13.0000,6.0000,7.0000
2023-11-29 21:00:00,2023-11-29 13:00:00,-999.0000,9.50,-999.00,0.7100,-999.0000,-0.5,-999.0000,-999,0.1,,-999.0000,-999.0000,0.039,12.7100,-999.0000,13.7,13.7,12.9300,13.0300,7.0000,3.0000
2023-11-29 21:15:00,2023-11-29 13:15:00,-999.0000,9.50,-999.00,0.8660,-999.0000,-0.1,-999.0000,-999,0.1,,-999.0000,-999.0000,0.039,12.7090,-999.0000,13.7,13.7,12.9300,13.0300,1.0000,3.0000
2023-11-29 21:30:00,2023-11-29 13:30:00,-999.0000,9.50,-999.00,0.9610,-999.0000,0.2,-999.0000,-999,0.0,,-999.0000,-999.0000,0.041,12.7090,-999.0000,13.7,13.7,12.9400,13.0000,7.0000,8.0000
2023-11-29 21:45:00,2023-11-29 13:45:00,-999.0000,9.50,-999.00,0.9850,-999.0000,0.2,-999.0000,-999,0.0,,-999.0000,-999.0000,0.045,12.7080,-999.0000,13.7,13.7,12.9300,13.0000,7.0000,8.0000
2023-11-29 22:00:00,2023-11-29 14:00:00,-999.0000,9.50,-999.00,0.9840,-999.0000,0.4,-999.0000,-999,0.0,,-999.0000,-999.0000,0.040,12.7080,-999.0000,13.6,13.7,12.9300,13.0000,6.0000,3.0000
2023-11-29 22:15:00,2023-11-29 14:15:00,-999.0000,9.50,-999.00,0.9170,-999.0000,0.6,-999.0000,-999,0.0,,-999.0000,-999.0000,0.036,12.7080,-999.0000,13.6,13.6,12.9100,12.9800,3.0000,4.0000
2023-11-29 22:30:00,2023-11-29 14:30:00,-999.0000,9.50,-999.00,0.8080,-999.0000,0.6,-999.0000,-999,0.0,,-999.0000,-999.0000,0.037,12.7060,-999.0000,13.6,13.6,12.9100,12.9600,3.0000,5.0000
2023-11-29 22:45:00,2023-11-29 14:45:00,-999.0000,9.50,-999.00,0.6580,-999.0000,0.6,-999.0000,-999,0.0,,-999.0000,-999.0000,0.040,12.7060,-999.0000,13.5,13.6,12.9000,12.9500,1.0000,6.0000
2023-11-29 23:00:00,2023-11-29 15:00:00,-999.0000,9.50,-999.00,0.5780,-999.0000,0.4,-999.0000,-999,-0.1,,-999.0000,-999.0000,0.038,12.7040,-999.0000,13.5,13.5,12.8800,12.9400,6.0000,4.0000
2023-11-29 23:15:00,2023-11-29 15:15:00,-999.0000,9.50,-999.00,0.4890,-999.0000,0.4,-999.0000,-999,-0.2,,-999.0000,-999.0000,0.038,12.7040,-999.0000,13.5,13.5,12.8600,12.9200,7.0000,3.0000
2023-11-29 23:30:00,2023-11-29 15:30:00,-999.0000,9.50,-999.00,0.3850,-999.0000,0.4,-999.0000,-999,-0.2,,-999.0000,-999.0000,0.038,12.7030,-999.0000,13.4,13.5,12.8600,12.4800,5.0000,5.0000
2023-11-29 23:45:00,2023-11-29 15:45:00,-999.0000,9.50,-999.00,0.2270,-999.0000,0.2,-999.0000,-999,-0.3,,-999.0000,-999.0000,0.038,12.7020,-999.0000,13.4,13.4,12.8400,11.8900,5.0000,3.0000
2023-11-30 00:00:00,2023-11-29 16:00:00,-999.0000,9.50,-999.00,0.0700,-999.0000,-0.1,-999.0000,-999,-0.4,,-999.0000,-999.0000,0.038,12.7000,-999.0000,13.4,13.4,12.8300,10.0500,3.0000,6.0000
2023-11-30 00:15:00,2023-11-29 16:15:00,-999.0000,9.50,-999.00,-0.0940,-999.0000,-0.3,-999.0000,-999,-0.4,,-999.0000,-999.0000,0.038,12.6990,-999.0000,13.3,12.7,12.8200,0.0000,7.0000,5.0000
2023-11-30 00:30:00,2023-11-29 16:30:00,-999.0000,9.50,-999.00,-0.2220,-999.0000,-0.3,-999.0000,-999,-0.5,,-999.0000,-999.0000,0.036,12.6970,-999.0000,13.3,9.4,12.8300,0.0000,1.0000,6.0000
2023-11-30 00:45:00,2023-11-29 16:45:00,-999.0000,9.50,-999.00,-0.3390,-999.0000,-0.7,-999.0000,-999,-0.5,,-999.0000,-999.0000,0.037,12.6940,-999.0000,13.3,2.2,12.8000,0.0000,3.0000,3.0000
2023-11-30 01:00:00,2023-11-29 17:00:00,-999.0000,9.50,-999.00,-0.4230,-999.0000,-0.8,-999.0000,-999,-0.6,,-999.0000,-999.0000,0.038,12.6910,-999.0000,13.3,0.2,12.8000,0.0000,3.0000,6.0000
2023-11-30 01:15:00,2023-11-29 17:15:00,-999.0000,9.50,-999.00,-0.4960,-999.0000,-0.8,-999.0000,-999,-0.7,,-999.0000,-999.0000,0.038,12.6910,-999.0000,13.2,0.0,12.7900,0.0000,2.0000,4.0000
2023-11-30 01:30:00,2023-11-29 17:30:00,-999.0000,9.50,-999.00,-0.5360,-999.0000,-0.8,-999.0000,-999,-1.0,,-999.0000,-999.0000,0.038,12.6900,-999.0000,13.2,0.0,12.7900,0.0000,2.0000,4.0000
2023-11-30 01:45:00,2023-11-29 17:45:00,-999.0000,9.50,-999.00,-0.5750,-999.0000,-1.2,-999.0000,-999,-1.2,,-999.0000,-999.0000,0.039,12.6900,-999.0000,13.2,0.0,12.7800,0.0000,7.0000,4.0000
2023-11-30 02:00:00,2023-11-29 18:00:00,-999.0000,9.50,-999.00,-0.6140,-999.0000,-1.4,-999.0000,-999,-1.3,,-999.0000,-999.0000,0.039,12.6890,-999.0000,13.2,0.0,12.7800,0.0000,1.0000,8.0000
2023-11-30 02:15:00,2023-11-29 18:15:00,-999.0000,9.50,-999.00,-0.6410,-999.0000,-1.4,-999.0000,-999,-1.3,,-999.0000,-999.0000,0.039,12.6860,-999.0000,13.2,0.0,12.7800,0.0000,1.0000,4.0000
2023-11-30 02:30:00,2023-11-29 18:30:00,-999.0000,9.50,-999.00,-0.6550,-999.0000,-1.4,-999.0000,-999,-1.3,,-999.0000,-999.0000,0.038,12.6870,-999.0000,13.2,0.0,12.7600,0.0000,5.0000,3.0000
2023-11-30 02:45:00,2023-11-29 18:45:00,-999.0000,9.50,-999.00,-0.8010,-999.0000,-1.5,-999.0000,-999,-1.5,,-999.0000,-999.0000,0.039,12.6870,-999.0000,13.2,0.0,12.7800,0.0000,8.0000,4.0000
2023-11-30 03:00:00,2023-11-29 19:00:00,-999.0000,9.50,-999.00,-0.9670,-999.0000,-1.7,-999.0000,-999,-1.7,,-999.0000,-999.0000,0.040,12.6870,-999.0000,13.3,0.0,12.7600,0.0000,2.0000,7.0000
2023-11-30 03:15:00,2023-11-29 19:15:00,-999.0000,9.50,-999.00,-1.1420,-999.0000,-1.7,-999.0000,-999,-1.8,,-999.0000,-999.0000,0.040,12.6860,-999.0000,13.1,0.0,12.7400,0.0000,7.0000,6.0000
2023-11-30 03:30:00,2023-11-29 19:30:00,-999.0000,9.50,-999.00,-1.2360,-999.0000,-1.7,-999.0000,-999,-1.9,,-999.0000,-999.0000,0.041,12.6830,-999.0000,13.1,0.0,12.7500,0.0000,1.0000,12.0000
2023-11-30 03:45:00,2023-11-29 19:45:00,-999.0000,9.50,-999.00,-1.3000,-999.0000,-1.9,-999.0000,-999,-2.0,,-999.0000,-999.0000,0.041,12.6810,-999.0000,13.1,0.0,12.7500,0.0000,7.0000,5.0000
2023-11-30 04:00:00,2023-11-29 20:00:00,-999.0000,9.50,-999.00,-1.3410,-999.0000,-2.1,-999.0000,-999,-2.0,,-999.0000,-999.0000,0.042,12.6810,-999.0000,13.1,0.0,12.7500,0.0000,3.0000,5.0000
2023-11-30 04:15:00,2023-11-29 20:15:00,-999.0000,9.50,-999.00,-1.3350,-999.0000,-2.1,-999.0000,-999,-2.0,,-999.0000,-999.0000,0.041,12.6800,-999.0000,13.1,0.0,12.7300,0.0000,8.0000,12.0000
2023-11-30 04:30:00,2023-11-29 20:30:00,-999.0000,9.50,-999.00,-1.3180,-999.0000,-2.2,-999.0000,-999,-1.9,,-999.0000,-999.0000,0.043,12.6790,-999.0000,13.1,0.0,12.7500,0.0000,9.0000,4.0000
2023-11-30 04:45:00,2023-11-29 20:45:00,-999.0000,9.50,-999.00,-1.3370,-999.0000,-2.2,-999.0000,-999,-2.0,,-999.0000,-999.0000,0.042,12.6790,-999.0000,13.1,0.0,12.7300,0.0000,7.0000,4.0000
2023-11-30 05:00:00,2023-11-29 21:00:00,-999.0000,9.50,-999.00,-1.3650,-999.0000,-2.4,-999.0000,-999,-2.0,,-999.0000,-999.0000,0.042,12.6770,-999.0000,13.1,0.0,12.7300,0.0000,1.0000,6.0000
2023-11-30 05:15:00,2023-11-29 21:15:00,-999.0000,9.50,-999.00,-1.3950,-999.0000,-2.4,-999.0000,-999,-2.0,,-999.0000,-999.0000,0.043,12.6760,-999.0000,13.1,0.0,12.7300,0.0000,7.0000,6.0000
2023-11-30 05:30:00,2023-11-29 21:30:00,-999.0000,9.50,-999.00,-1.4270,-999.0000,-2.2,-999.0000,-999,-2.1,,-999.0000,-999.0000,0.043,12.6750,-999.0000,13.1,0.0,12.7300,0.0000,7.0000,10.0000
2023-11-30 05:45:00,2023-11-29 21:45:00,-999.0000,9.50,-999.00,-1.4420,-999.0000,-2.2,-999.0000,-999,-2.1,,-999.0000,-999.0000,0.043,12.6750,-999.0000,13.1,0.1,12.7200,0.0000,5.0000,5.0000
2023-11-30 06:00:00,2023-11-29 22:00:00,-999.0000,9.50,-999.00,-1.4530,-999.0000,-2.6,-999.0000,-999,-2.1,,-999.0000,-999.0000,0.042,12.6750,-999.0000,13.1,0.0,12.7200,0.0000,9.0000,6.0000
2023-11-30 06:15:00,2023-11-29 22:15:00,-999.0000,9.50,-999.00,-1.5060,-999.0000,-2.6,-999.0000,-999,-2.2,,-999.0000,-999.0000,0.041,12.6750,-999.0000,13.0,0.0,12.7300,0.0000,9.0000,6.0000
2023-11-30 06:30:00,2023-11-29 22:30:00,-999.0000,9.50,-999.00,-1.5740,-999.0000,-2.4,-999.0000,-999,-2.2,,-999.0000,-999.0000,0.042,12.6760,-999.0000,13.0,0.0,12.7300,0.0000,9.0000,4.0000
2023-11-30 06:45:00,2023-11-29 22:45:00,-999.0000,9.50,-999.00,-1.6100,-999.0000,-2.6,-999.0000,-999,-2.3,,-999.0000,-999.0000,0.042,12.6730,-999.0000,13.0,0.1,12.7100,0.0000,5.0000,6.0000
2023-11-30 07:00:00,2023-11-29 23:00:00,-999.0000,9.50,-999.00,-1.6910,-999.0000,-2.7,-999.0000,-999,-2.4,,-999.0000,-999.0000,0.041,12.6720,-999.0000,13.0,0.1,12.7100,0.0000,3.0000,7.0000
2023-11-30 07:15:00,2023-11-29 23:15:00,-999.0000,9.50,-999.00,-1.7470,-999.0000,-2.6,-999.0000,-999,-2.4,,-999.0000,-999.0000,0.042,12.6710,-999.0000,13.0,0.1,12.7100,0.0000,3.0000,3.0000
2023-11-30 07:30:00,2023-11-29 23:30:00,-999.0000,9.50,-999.00,-1.7570,-999.0000,-2.7,-999.0000,-999,-2.4,,-999.0000,-999.0000,0.041,12.6690,-999.0000,13.0,0.1,12.7200,0.0000,7.0000,11.0000
2023-11-30 07:45:00,2023-11-29 23:45:00,-999.0000,9.50,-999.00,-1.7590,-999.0000,-2.9,-999.0000,-999,-2.4,,-999.0000,-999.0000,0.043,12.6660,-999.0000,13.0,0.1,12.7200,0.0000,7.0000,7.0000
2023-11-30 08:00:00,2023-11-30 00:00:00,-999.0000,9.50,-999.00,-1.7910,-999.0000,-2.9,-999.0000,-999,-2.5,,-999.0000,-999.0000,0.042,12.6660,-999.0000,13.0,0.1,12.7200,0.0000,10.0000,6.0000
2023-11-30 08:15:00,2023-11-30 00:15:00,-999.0000,9.50,-999.00,-1.8040,-999.0000,-2.9,-999.0000,-999,-2.4,,-999.0000,-999.0000,0.042,12.6630,-999.0000,13.0,0.1,12.7100,0.0000,9.0000,12.0000
2023-11-30 08:30:00,2023-11-30 00:30:00,-999.0000,9.50,-999.00,-1.8250,-999.0000,-2.9,-999.0000,-999,-2.5,,-999.0000,-999.0000,0.042,12.6620,-999.0000,13.0,0.1,12.7100,0.0000,3.0000,5.0000
2023-11-30 08:45:00,2023-11-30 00:45:00,-999.0000,9.50,-999.00,-1.8250,-999.0000,-3.1,-999.0000,-999,-2.4,,-999.0000,-999.0000,0.042,12.6610,-999.0000,13.0,0.1,12.7100,0.0000,3.0000,4.0000
2023-11-30 09:00:00,2023-11-30 01:00:00,-999.0000,9.50,-999.00,-1.7870,-999.0000,-3.1,-999.0000,-999,-2.3,,-999.0000,-999.0000,0.041,12.6590,-999.0000,13.0,0.0,12.7000,0.0000,2.0000,4.0000
2023-11-30 09:15:00,2023-11-30 01:15:00,-999.0000,9.50,-999.00,-1.7820,-999.0000,-2.9,-999.0000,-999,-2.4,,-999.0000,-999.0000,0.040,12.6570,-999.0000,13.0,0.0,12.6900,0.0000,3.0000,11.0000
2023-11-30 09:30:00,2023-11-30 01:30:00,-999.0000,9.50,-999.00,-1.7840,-999.0000,-2.9,-999.0000,-999,-2.4,,-999.0000,-999.0000,0.041,12.6560,-999.0000,13.0,0.1,12.7100,0.0000,8.0000,7.0000
2023-11-30 09:45:00,2023-11-30 01:45:00,-999.0000,9.50,-999.00,-1.7460,-999.0000,-2.9,-999.0000,-999,-2.4,,-999.0000,-999.0000,0.043,12.6560,-999.0000,13.0,0.1,12.7100,0.0000,8.0000,5.0000
2023-11-30 10:00:00,2023-11-30 02:00:00,-999.0000,9.50,-999.00,-1.7100,-999.0000,-2.9,-999.0000,-999,-2.3,,-999.0000,-999.0000,0.041,12.6540,-999.0000,13.0,0.1,12.7100,0.0000,8.0000,12.0000
2023-11-30 10:15:00,2023-11-30 02:15:00,-999.0000,9.50,-999.00,-1.7180,-999.0000,-2.9,-999.0000,-999,-2.3,,-999.0000,-999.0000,0.042,12.6550,-999.0000,12.9,0.1,12.7100,0.0000,6.0000,7.0000
2023-11-30 10:30:00,2023-11-30 02:30:00,-999.0000,9.50,-999.00,-1.6850,-999.0000,-2.9,-999.0000,-999,-2.2,,-999.0000,-999.0000,0.041,12.6570,-999.0000,13.0,0.0,12.7100,0.0000,6.0000,10.0000
2023-11-30 10:45:00,2023-11-30 02:45:00,-999.0000,9.50,-999.00,-1.6350,-999.0000,-2.9,-999.0000,-999,-2.1,,-999.0000,-999.0000,0.040,12.6540,-999.0000,13.0,0.1,12.7100,0.0000,6.0000,7.0000
2023-11-30 11:00:00,2023-11-30 03:00:00,-999.0000,9.50,-999.00,-1.6500,-999.0000,-2.9,-999.0000,-999,-2.1,,-999.0000,-999.0000,0.039,12.6520,-999.0000,13.0,0.1,12.7000,0.0000,2.0000,8.0000
2023-11-30 11:15:00,2023-11-30 03:15:00,-999.0000,9.50,-999.00,-1.6870,-999.0000,-2.9,-999.0000,-999,-2.2,,-999.0000,-999.0000,0.039,12.6510,-999.0000,12.9,0.1,12.6900,0.0000,6.0000,9.0000
2023-11-30 11:30:00,2023-11-30 03:30:00,-999.0000,9.50,-999.00,-1.6970,-999.0000,-2.9,-999.0000,-999,-2.2,,-999.0000,-999.0000,0.040,12.6480,-999.0000,13.0,0.1,12.6900,0.0000,3.0000,11.0000
2023-11-30 11:45:00,2023-11-30 03:45:00,-999.0000,9.50,-999.00,-1.7030,-999.0000,-2.9,-999.0000,-999,-2.2,,-999.0000,-999.0000,0.040,12.6480,-999.0000,13.0,0.1,12.7100,0.0000,4.0000,7.0000
2023-11-30 12:00:00,2023-11-30 04:00:00,-999.0000,9.50,-999.00,-1.7200,-999.0000,-3.1,-999.0000,-999,-2.3,,-999.0000,-999.0000,0.040,12.6470,-999.0000,13.0,0.1,12.6900,0.0000,8.0000,5.0000
2023-11-30 12:15:00,2023-11-30 04:15:00,-999.0000,9.50,-999.00,-1.7500,-999.0000,-2.9,-999.0000,-999,-2.4,,-999.0000,-999.0000,0.040,12.6440,-999.0000,12.9,0.1,12.6900,0.0000,3.0000,7.0000
2023-11-30 12:30:00,2023-11-30 04:30:00,-999.0000,9.50,-999.00,-1.8140,-999.0000,-3.1,-999.0000,-999,-2.5,,-999.0000,-999.0000,0.041,12.6420,-999.0000,13.0,0.1,12.6900,0.0000,3.0000,6.0000
2023-11-30 12:45:00,2023-11-30 04:45:00,-999.0000,9.50,-999.00,-1.8700,-999.0000,-2.9,-999.0000,-999,-2.6,,-999.0000,-999.0000,0.040,12.6410,-999.0000,13.0,0.1,12.6900,0.0000,10.0000,4.0000
2023-11-30 13:00:00,2023-11-30 05:00:00,-999.0000,9.50,-999.00,-1.9310,-999.0000,-3.3,-999.0000,-999,-2.6,,-999.0000,-999.0000,0.041,12.6400,-999.0000,13.0,0.1,12.6900,0.0000,8.0000,8.0000
2023-11-30 13:15:00,2023-11-30 05:15:00,-999.0000,9.50,-999.00,-1.9710,-999.0000,-3.1,-999.0000,-999,-2.6,,-999.0000,-999.0000,0.042,12.6390,-999.0000,12.9,0.1,12.6900,0.0000,5.0000,7.0000
2023-11-30 13:30:00,2023-11-30 05:30:00,-999.0000,9.50,-999.00,-1.9910,-999.0000,-3.1,-999.0000,-999,-2.5,,-999.0000,-999.0000,0.042,12.6370,-999.0000,12.9,0.0,12.6800,0.0000,5.0000,3.0000
2023-11-30 13:45:00,2023-11-30 05:45:00,-999.0000,9.50,-999.00,-1.9550,-999.0000,-3.3,-999.0000,-999,-2.4,,-999.0000,-999.0000,0.041,12.6370,-999.0000,12.9,0.0,12.6900,0.0000,7.0000,6.0000
2023-11-30 14:00:00,2023-11-30 06:00:00,-999.0000,9.50,-999.00,-1.8910,-999.0000,-3.3,-999.0000,-999,-2.3,,-999.0000,-999.0000,0.041,12.6350,-999.0000,13.0,0.0,12.6900,0.0000,3.0000,5.0000
2023-11-30 14:15:00,2023-11-30 06:15:00,-999.0000,9.50,-999.00,-1.8460,-999.0000,-3.3,-999.0000,-999,-2.2,,-999.0000,-999.0000,0.040,12.6350,-999.0000,12.9,0.0,12.6800,0.0000,3.0000,7.0000
2023-11-30 14:30:00,2023-11-30 06:30:00,-999.0000,9.50,-999.00,-1.8010,-999.0000,-3.1,-999.0000,-999,-2.2,,-999.0000,-999.0000,0.040,12.6340,-999.0000,12.9,0.0,12.6800,0.0000,5.0000,6.0000
2023-11-30 14:45:00,2023-11-30 06:45:00,-999.0000,9.50,-999.00,-1.7130,-999.0000,-2.9,-999.0000,-999,-2.1,,-999.0000,-999.0000,0.041,12.6340,-999.0000,12.9,0.1,12.7000,0.0000,6.0000,4.0000
2023-11-30 15:00:00,2023-11-30 07:00:00,-999.0000,9.50,-999.00,-1.6800,-999.0000,-3.1,-999.0000,-999,-2.1,,-999.0000,-999.0000,0.040,12.6330,-999.0000,12.9,1.0,12.6900,0.0000,6.0000,13.0000
2023-11-30 15:15:00,2023-11-30 07:15:00,-999.0000,9.50,-999.00,-1.6470,-999.0000,-2.9,-999.0000,-999,-2.1,,-999.0000,-999.0000,0.040,12.6330,-999.0000,12.9,8.7,12.6800,0.0000,10.0000,7.0000
2023-11-30 15:30:00,2023-11-30 07:30:00,-999.0000,9.50,-999.00,-1.6300,-999.0000,-2.9,-999.0000,-999,-2.1,,-999.0000,-999.0000,0.040,12.6320,-999.0000,12.9,12.9,12.6800,5.0300,10.0000,6.0000
2023-11-30 15:45:00,2023-11-30 07:45:00,-999.0000,9.50,-999.00,-1.5720,-999.0000,-2.9,-999.0000,-999,-2.0,,-999.0000,-999.0000,0.041,12.6300,-999.0000,12.9,12.9,12.6900,11.6600,3.0000,12.0000
2023-11-30 16:00:00,2023-11-30 08:00:00,-999.0000,9.50,-999.00,-1.5270,-999.0000,-2.9,-999.0000,-999,-2.0,,-999.0000,-999.0000,0.041,12.6280,-999.0000,13.0,13.0,12.6900,11.9900,3.0000,6.0000
2023-11-30 16:15:00,2023-11-30 08:15:00,-999.0000,9.50,-999.00,-1.4810,-999.0000,-2.9,-999.0000,-999,-1.8,,-999.0000,-999.0000,0.043,12.6270,-999.0000,13.0,13.0,12.6800,12.7200,4.0000,4.0000
2023-11-30 16:30:00,2023-11-30 08:30:00,-999.0000,9.50,-999.00,-1.3510,-999.0000,-2.7,-999.0000,-999,-1.6,,-999.0000,-999.0000,0.044,12.6270,-999.0000,13.0,13.0,12.6900,12.7400,4.0000,8.0000
2023-11-30 16:45:00,2023-11-30 08:45:00,-999.0000,9.50,-999.00,-1.2060,-999.0000,-2.7,-999.0000,-999,-1.4,,-999.0000,-999.0000,0.043,12.6260,-999.0000,13.0,13.0,12.7000,12.7400,1.0000,7.0000
2023-11-30 17:00:00,2023-11-30 09:00:00,-999.0000,9.50,-999.00,-1.0660,-999.0000,-2.6,-999.0000,-999,-1.2,,-999.0000,-999.0000,0.044,12.6250,-999.0000,13.0,13.1,12.7100,12.7700,8.0000,9.0000
2023-11-30 17:15:00,2023-11-30 09:15:00,-999.0000,9.50,-999.00,-0.8740,-999.0000,-2.4,-999.0000,-999,-0.8,,-999.0000,-999.0000,0.045,12.6240,-999.0000,13.1,13.1,12.7300,12.8100,6.0000,6.0000
2023-11-30 17:30:00,2023-11-30 09:30:00,-999.0000,9.50,-999.00,-0.5520,-999.0000,-2.1,-999.0000,-999,-0.4,,-999.0000,-999.0000,0.043,12.6260,-999.0000,13.2,13.2,12.7500,12.8300,3.0000,6.0000
2023-11-30 17:45:00,2023-11-30 09:45:00,-999.0000,9.50,-999.00,-0.2510,-999.0000,-1.7,-999.0000,-999,-0.1,,-999.0000,-999.0000,0.043,12.6260,-999.0000,13.3,13.3,12.7700,12.8500,2.0000,12.0000
2023-11-30 18:00:00,2023-11-30 10:00:00,-999.0000,9.50,-999.00,0.0720,-999.0000,-1.4,-999.0000,-999,0.0,,-999.0000,-999.0000,0.040,12.6260,-999.0000,13.4,13.4,12.7800,12.8500,2.0000,3.0000
2023-11-30 18:15:00,2023-11-30 10:15:00,-999.0000,9.50,-999.00,0.3460,-999.0000,-0.8,-999.0000,-999,0.0,,-999.0000,-999.0000,0.039,12.6260,-999.0000,13.3,13.4,12.8000,12.8700,3.0000,6.0000
2023-11-30 18:30:00,2023-11-30 10:30:00,-999.0000,9.50,-999.00,0.6100,-999.0000,-0.5,-999.0000,-999,0.1,,-999.0000,-999.0000,0.037,12.6250,-999.0000,13.5,13.5,12.8100,12.9000,2.0000,2.0000
2023-11-30 18:45:00,2023-11-30 10:45:00,-999.0000,9.50,-999.00,0.8050,-999.0000,-0.3,-999.0000,-999,0.1,,-999.0000,-999.0000,0.035,12.6230,-999.0000,13.5,13.5,12.8100,12.8700,8.0000,6.0000
2023-11-30 19:00:00,2023-11-30 11:00:00,-999.0000,9.50,-999.00,0.8750,-999.0000,-0.1,-999.0000,-999,0.1,,-999.0000,-999.0000,0.032,12.6210,-999.0000,13.4,13.5,12.8100,12.8700,5.0000,9.0000
2023-11-30 19:15:00,2023-11-30 11:15:00,-999.0000,9.50,-999.00,0.8560,-999.0000,0.0,-999.0000,-999,0.1,,-999.0000,-999.0000,0.033,12.6180,-999.0000,13.4,13.4,12.7900,12.8500,8.0000,7.0000
2023-11-30 19:30:00,2023-11-30 11:30:00,-999.0000,9.50,-999.00,0.7570,-999.0000,0.0,-999.0000,-999,0.1,,-999.0000,-999.0000,0.035,12.6150,-999.0000,13.4,13.5,12.8000,12.8700,5.0000,6.0000
2023-11-30 19:45:00,2023-11-30 11:45:00,-999.0000,9.50,-999.00,0.6320,-999.0000,0.2,-999.0000,-999,0.1,,-999.0000,-999.0000,0.039,12.6110,-999.0000,13.5,13.5,12.8100,12.8800,5.0000,4.0000
2023-11-30 20:00:00,2023-11-30 12:00:00,-999.0000,9.50,-999.00,0.4650,-999.0000,0.0,-999.0000,-999,0.1,,-999.0000,-999.0000,0.039,12.6090,-999.0000,13.5,13.5,12.8100,12.9000,7.0000,5.0000
2023-11-30 20:15:00,2023-11-30 12:15:00,-999.0000,9.50,-999.00,0.3230,-999.0000,0.2,-999.0000,-999,0.1,,-999.0000,-999.0000,0.038,12.6040,-999.0000,13.5,13.5,12.8300,12.9000,8.0000,4.0000
2023-11-30 20:30:00,2023-11-30 12:30:00,-999.0000,9.50,-999.00,0.3390,-999.0000,0.2,-999.0000,-999,0.1,,-999.0000,-999.0000,0.039,12.6020,-999.0000,13.5,13.6,12.8400,12.9200,7.0000,8.0000
2023-11-30 20:45:00,2023-11-30 12:45:00,-999.0000,9.50,-999.00,0.3390,-999.0000,0.2,-999.0000,-999,0.1,,-999.0000,-999.0000,0.036,12.6000,-999.0000,13.5,13.5,12.8100,12.9000,7.0000,2.0000
2023-11-30 21:00:00,2023-11-30 13:00:00,-999.0000,9.50,-999.00,0.3410,-999.0000,0.0,-999.0000,-999,0.1,,-999.0000,-999.0000,0.036,12.5980,-999.0000,13.5,13.5,12.8200,12.9000,1.0000,5.0000
2023-11-30 21:15:00,2023-11-30 13:15:00,-999.0000,9.50,-999.00,0.3690,-999.0000,0.2,-999.0000,-999,0.1,,-999.0000,-999.0000,0.035,12.5950,-999.0000,13.5,13.5,12.8300,12.9000,8.0000,1.0000
2023-11-30 21:30:00,2023-11-30 13:30:00,-999.0000,9.50,-999.00,0.4250,-999.0000,0.4,-999.0000,-999,0.1,,-999.0000,-999.0000,0.034,12.5940,-999.0000,13.5,13.5,12.8400,12.9000,8.0000,1.0000
2023-11-30 21:45:00,2023-11-30 13:45:00,-999.0000,9.50,-999.00,0.4720,-999.0000,0.2,-999.0000,-999,0.1,,-999.0000,-999.0000,0.035,12.5910,-999.0000,13.5,13.5,12.8200,12.8900,8.0000,4.0000
2023-11-30 22:00:00,2023-11-30 14:00:00,-999.0000,9.50,-999.00,0.4820,-999.0000,0.2,-999.0000,-999,0.1,,-999.0000,-999.0000,0.035,12.5910,-999.0000,13.5,13.5,12.8200,12.8700,8.0000,5.0000
2023-11-30 22:15:00,2023-11-30 14:15:00,-999.0000,9.50,-999.00,0.4800,-999.0000,0.2,-999.0000,-999,0.1,,-999.0000,-999.0000,0.033,12.5900,-999.0000,13.4,13.4,12.8100,12.8700,8.0000,3.0000
2023-11-30 22:30:00,2023-11-30 14:30:00,-999.0000,9.50,-999.00,0.4040,-999.0000,0.2,-999.0000,-999,0.0,,-999.0000,-999.0000,0.033,12.5880,-999.0000,13.4,13.4,12.7900,12.7700,5.0000,5.0000
2023-11-30 22:45:00,2023-11-30 14:45:00,-999.0000,9.50,-999.00,0.3480,-999.0000,-0.1,-999.0000,-999,0.0,,-999.0000,-999.0000,0.034,12.5880,-999.0000,13.4,13.4,12.8000,12.8400,8.0000,7.0000
2023-11-30 23:00:00,2023-11-30 15:00:00,-999.0000,9.50,-999.00,0.3330,-999.0000,-0.1,-999.0000,-999,0.0,,-999.0000,-999.0000,0.033,12.5860,-999.0000,13.4,13.4,12.7900,12.8300,4.0000,11.0000
2023-11-30 23:15:00,2023-11-30 15:15:00,-999.0000,9.51,-999.00,0.2900,-999.0000,-0.1,-999.0000,-999,0.0,,-999.0000,-999.0000,0.029,12.5840,-999.0000,13.3,13.3,12.7800,11.6600,3.0000,7.0000
2023-11-30 23:30:00,2023-11-30 15:30:00,-999.0000,9.51,-999.00,0.2320,-999.0000,-0.1,-999.0000,-999,0.0,,-999.0000,-999.0000,0.030,12.5830,-999.0000,13.3,13.3,12.7600,10.3900,6.0000,6.0000
2023-11-30 23:45:00,2023-11-30 15:45:00,-999.0000,9.51,-999.00,0.0900,-999.0000,-0.5,-999.0000,-999,0.0,,-999.0000,-999.0000,0.024,12.5820,-999.0000,13.3,13.2,12.7600,8.2400,3.0000,10.0000
2023-12-01 00:00:00,2023-11-30 16:00:00,-999.0000,9.51,-999.00,-0.0480,-999.0000,-0.5,-999.0000,-999,0.0,,-999.0000,-999.0000,0.023,12.5820,-999.0000,13.3,11.2,12.7500,0.0000,3.0000,4.0000
2023-12-01 00:15:00,2023-11-30 16:15:00,-999.0000,9.51,-999.00,-0.2320,-999.0000,-0.5,-999.0000,-999,-0.1,,-999.0000,-999.0000,0.029,12.5810,-999.0000,13.2,8.5,12.7500,0.0000,3.0000,3.0000
2023-12-01 00:30:00,2023-11-30 16:30:00,-999.0000,9.51,-999.00,-0.3620,-999.0000,-0.5,-999.0000,-999,-0.1,,-999.0000,-999.0000,0.003,12.5800,-999.0000,13.2,4.8,12.7500,0.0000,6.0000,5.0000
2023-12-01 00:45:00,2023-11-30 16:45:00,-999.0000,9.51,-999.00,-0.4310,-999.0000,-0.7,-999.0000,-999,-0.1,,-999.0000,-999.0000,0.024,12.5810,-999.0000,13.2,0.4,12.7400,0.0000,6.0000,7.0000
2023-12-01 01:00:00,2023-11-30 17:00:00,-999.0000,9.51,-999.00,-0.4810,-999.0000,-0.8,-999.0000,-999,-0.1,,-999.0000,-999.0000,0.032,12.5810,-999.0000,13.2,0.1,12.7400,0.0000,4.0000,2.0000
2023-12-01 01:15:00,2023-11-30 17:15:00,-999.0000,9.51,-999.00,-0.5280,-999.0000,-0.8,-999.0000,-999,-0.2,,-999.0000,-999.0000,0.043,12.5820,-999.0000,13.1,0.0,12.7300,0.0000,4.0000,8.0000
2023-12-01 01:30:00,2023-11-30 17:30:00,-999.0000,9.51,-999.00,-0.5600,-999.0000,-0.8,-999.0000,-999,-0.2,,-999.0000,-999.0000,0.027,12.5820,-999.0000,13.1,0.0,12.7400,0.0000,4.0000,7.0000
2023-12-01 01:45:00,2023-11-30 17:45:00,-999.0000,9.51,-999.00,-0.6020,-999.0000,-0.8,-999.0000,-999,-0.2,,-999.0000,-999.0000,0.031,12.5820,-999.0000,13.1,0.0,12.7300,0.0000,5.0000,9.0000
2023-12-01 02:00:00,2023-11-30 18:00:00,-999.0000,9.51,-999.00,-0.6380,-999.0000,-1.0,-999.0000,-999,-0.2,,-999.0000,-999.0000,0.030,12.5830,-999.0000,13.1,0.0,12.7300,0.0000,5.0000,10.0000
2023-12-01 02:15:00,2023-11-30 18:15:00,-999.0000,9.51,-999.00,-0.6720,-999.0000,-1.2,-999.0000,-999,-0.3,,-999.0000,-999.0000,0.053,12.5840,-999.0000,13.1,0.0,12.7100,0.0000,8.0000,4.0000
2023-12-01 02:30:00,2023-11-30 18:30:00,-999.0000,9.51,-999.00,-0.7010,-999.0000,-1.2,-999.0000,-999,-0.3,,-999.0000,-999.0000,0.049,12.5850,-999.0000,13.1,0.0,12.7200,0.0000,8.0000,10.0000
2023-12-01 02:45:00,2023-11-30 18:45:00,-999.0000,9.51,-999.00,-0.7300,-999.0000,-1.2,-999.0000,-999,-0.4,,-999.0000,-999.0000,0.049,12.5870,-999.0000,13.1,0.0,12.7100,0.0000,6.0000,5.0000
2023-12-01 03:00:00,2023-11-30 19:00:00,-999.0000,9.51,-999.00,-0.8030,-999.0000,-1.4,-999.0000,-999,-0.4,,-999.0000,-999.0000,0.043,12.5880,-999.0000,13.1,0.1,12.7200,0.0000,6.0000,5.0000
2023-12-01 03:15:00,2023-11-30 19:15:00,-999.0000,9.51,-999.00,-0.8970,-999.0000,-1.4,-999.0000,-999,-0.6,,-999.0000,-999.0000,0.043,12.5890,-999.0000,13.0,0.0,12.7300,0.0000,9.0000,11.0000
2023-12-01 03:30:00,2023-11-30 19:30:00,-999.0000,9.51,-999.00,-1.0410,-999.0000,-1.4,-999.0000,-999,-1.0,,-999.0000,-999.0000,0.043,12.5900,-999.0000,13.0,0.0,12.7100,0.0000,9.0000,5.0000
2023-12-01 03:45:00,2023-11-30 19:45:00,-999.0000,9.51,-999.00,-1.1890,-999.0000,-1.5,-999.0000,-999,-1.3,,-999.0000,-999.0000,0.029,12.5900,-999.0000,13.0,0.0,12.7100,0.0000,4.0000,10.0000
2023-12-01 04:00:00,2023-11-30 20:00:00,-999.0000,9.51,-999.00,-1.2720,-999.0000,-1.7,-999.0000,-999,-1.5,,-999.0000,-999.0000,0.033,12.5910,-999.0000,13.0,0.0,12.7100,0.0000,8.0000,7.0000
2023-12-01 04:15:00,2023-11-30 20:15:00,-999.0000,9.51,-999.00,-1.3500,-999.0000,-1.7,-999.0000,-999,-1.5,,-999.0000,-999.0000,0.035,12.5910,-999.0000,13.0,0.0,12.7000,0.0000,8.0000,10.0000
2023-12-01 04:30:00,2023-11-30 20:30:00,-999.0000,9.51,-999.00,-1.4050,-999.0000,-1.7,-999.0000,-999,-1.6,,-999.0000,-999.0000,0.040,12.5930,-999.0000,13.0,0.0,12.7100,0.0000,8.0000,5.0000
2023-12-01 04:45:00,2023-11-30 20:45:00,-999.0000,9.51,-999.00,-1.4610,-999.0000,-1.7,-999.0000,-999,-1.7,,-999.0000,-999.0000,0.047,12.5920,-999.0000,13.0,0.0,12.7100,0.0000,6.0000,8.0000
2023-12-01 05:00:00,2023-11-30 21:00:00,-999.0000,9.51,-999.00,-1.5210,-999.0000,-1.9,-999.0000,-999,-1.8,,-999.0000,-999.0000,0.043,12.5930,-999.0000,13.0,0.0,12.7000,0.0000,3.0000,5.0000
2023-12-01 05:15:00,2023-11-30 21:15:00,-999.0000,9.51,-999.00,-1.5840,-999.0000,-2.1,-999.0000,-999,-1.9,,-999.0000,-999.0000,0.043,12.5920,-999.0000,13.0,0.0,12.7000,0.0000,7.0000,7.0000
2023-12-01 05:30:00,2023-11-30 21:30:00,-999.0000,9.51,-999.00,-1.6790,-999.0000,-2.2,-999.0000,-999,-2.0,,-999.0000,-999.0000,0.041,12.5910,-999.0000,13.0,0.0,12.6900,0.0000,2.0000,8.0000
2023-12-01 05:45:00,2023-11-30 21:45:00,-999.0000,9.51,-999.00,-1.7830,-999.0000,-2.4,-999.0000,-999,-2.2,,-999.0000,-999.0000,0.045,12.5930,-999.0000,13.0,0.0,12.6900,0.0000,2.0000,5.0000
2023-12-01 06:00:00,2023-11-30 22:00:00,-999.0000,9.51,-999.00,-1.9460,-999.0000,-2.6,-999.0000,-999,-2.5,,-999.0000,-999.0000,0.047,12.5920,-999.0000,13.0,0.0,12.6900,0.0000,4.0000,10.0000
2023-12-01 06:15:00,2023-11-30 22:15:00,-999.0000,9.51,-999.00,-2.1390,-999.0000,-2.6,-999.0000,-999,-2.9,,-999.0000,-999.0000,0.045,12.5910,-999.0000,13.0,0.0,12.6900,0.0000,7.0000,8.0000
2023-12-01 06:30:00,2023-11-30 22:30:00,-999.0000,9.51,-999.00,-2.3910,-999.0000,-2.7,-999.0000,-999,-3.2,,-999.0000,-999.0000,0.046,12.5910,-999.0000,13.0,0.0,12.6900,0.0000,5.0000,5.0000
2023-12-01 06:45:00,2023-11-30 22:45:00,-999.0000,9.51,-999.00,-2.5640,-999.0000,-3.1,-999.0000,-999,-3.3,,-999.0000,-999.0000,0.051,12.5910,-999.0000,13.0,0.0,12.6900,0.0000,5.0000,10.0000
2023-12-01 07:00:00,2023-11-30 23:00:00,-999.0000,9.51,-999.00,-2.6770,-999.0000,-3.3,-999.0000,-999,-3.4,,-999.0000,-999.0000,0.047,12.5910,-999.0000,13.0,0.0,12.6900,0.0000,8.0000,8.0000
2023-12-01 07:15:00,2023-11-30 23:15:00,-999.0000,9.51,-999.00,-2.7300,-999.0000,-3.4,-999.0000,-999,-3.4,,-999.0000,-999.0000,0.051,12.5890,-999.0000,13.0,0.0,12.6900,0.0000,5.0000,10.0000
2023-12-01 07:30:00,2023-11-30 23:30:00,-999.0000,9.51,-999.00,-2.7710,-999.0000,-3.4,-999.0000,-999,-3.4,,-999.0000,-999.0000,0.052,12.5880,-999.0000,13.0,0.0,12.6900,0.0000,5.0000,0.0000
2023-12-01 07:45:00,2023-11-30 23:45:00,-999.0000,9.51,-999.00,-2.7630,-999.0000,-3.6,-999.0000,-999,-3.3,,-999.0000,-999.0000,0.052,12.5860,-999.0000,13.0,0.0,12.6800,0.0000,9.0000,12.0000
2023-12-01 08:00:00,2023-12-01 00:00:00,-999.0000,9.51,-999.00,-2.7090,-999.0000,-3.6,-999.0000,-999,-3.3,,-999.0000,-999.0000,0.050,12.5850,-999.0000,13.0,0.0,12.7000,0.0000,9.0000,7.0000
2023-12-01 08:15:00,2023-12-01 00:15:00,-999.0000,9.51,-999.00,-2.7300,-999.0000,-3.8,-999.0000,-999,-3.2,,-999.0000,-999.0000,0.049,12.5840,-999.0000,12.9,0.0,12.6900,0.0000,8.0000,6.0000
2023-12-01 08:30:00,2023-12-01 00:30:00,-999.0000,9.51,-999.00,-2.7260,-999.0000,-3.8,-999.0000,-999,-3.2,,-999.0000,-999.0000,0.051,12.5800,-999.0000,13.0,0.1,12.6900,0.0000,8.0000,2.0000
2023-12-01 08:45:00,2023-12-01 00:45:00,-999.0000,9.51,-999.00,-2.6630,-999.0000,-4.0,-999.0000,-999,-3.1,,-999.0000,-999.0000,0.051,12.5780,-999.0000,13.0,0.0,12.6900,0.0000,3.0000,7.0000
2023-12-01 09:00:00,2023-12-01 01:00:00,-999.0000,9.51,-999.00,-2.7110,-999.0000,-3.8,-999.0000,-999,-3.2,,-999.0000,-999.0000,0.048,12.5760,-999.0000,13.0,0.0,12.6800,0.0000,3.0000,6.0000
2023-12-01 09:15:00,2023-12-01 01:15:00,-999.0000,9.51,-999.00,-2.8090,-999.0000,-3.8,-999.0000,-999,-3.4,,-999.0000,-999.0000,0.047,12.5740,-999.0000,12.9,0.0,12.6900,0.0000,6.0000,8.0000
2023-12-01 09:30:00,2023-12-01 01:30:00,-999.0000,9.51,-999.00,-2.8340,-999.0000,-3.8,-999.0000,-999,-3.3,,-999.0000,-999.0000,0.049,12.5740,-999.0000,12.9,0.0,12.6800,0.0000,6.0000,5.0000
2023-12-01 09:45:00,2023-12-01 01:45:00,-999.0000,9.51,-999.00,-2.8220,-999.0000,-4.0,-999.0000,-999,-3.3,,-999.0000,-999.0000,0.049,12.5700,-999.0000,13.0,0.0,12.6800,0.0000,3.0000,7.0000
2023-12-01 10:00:00,2023-12-01 02:00:00,-999.0000,9.51,-999.00,-2.8310,-999.0000,-4.0,-999.0000,-999,-3.3,,-999.0000,-999.0000,0.050,12.5680,-999.0000,13.0,0.0,12.6800,0.0000,5.0000,10.0000
2023-12-01 10:15:00,2023-12-01 02:15:00,-999.0000,9.51,-999.00,-2.8380,-999.0000,-4.0,-999.0000,-999,-3.2,,-999.0000,-999.0000,0.053,12.5640,-999.0000,12.9,0.0,12.6800,0.0000,6.0000,8.0000
2023-12-01 10:30:00,2023-12-01 02:30:00,-999.0000,9.51,-999.00,-2.7860,-999.0000,-4.0,-999.0000,-999,-3.0,,-999.0000,-999.0000,0.063,12.5620,-999.0000,12.9,0.0,12.6800,0.0000,5.0000,8.0000
2023-12-01 10:45:00,2023-12-01 02:45:00,-999.0000,9.51,-999.00,-2.7090,-999.0000,-4.0,-999.0000,-999,-2.9,,-999.0000,-999.0000,0.071,12.5570,-999.0000,12.9,0.0,12.6900,0.0000,8.0000,3.0000
2023-12-01 11:00:00,2023-12-01 03:00:00,-999.0000,9.51,-999.00,-2.6780,-999.0000,-4.0,-999.0000,-999,-2.8,,-999.0000,-999.0000,0.062,12.5500,-999.0000,12.9,0.0,12.6800,0.0000,8.0000,8.0000
2023-12-01 11:15:00,2023-12-01 03:15:00,-999.0000,9.51,-999.00,-2.6430,-999.0000,-4.0,-999.0000,-999,-2.8,,-999.0000,-999.0000,0.061,12.5450,-999.0000,12.9,0.0,12.6800,0.0000,3.0000,12.0000
2023-12-01 11:30:00,2023-12-01 03:30:00,-999.0000,9.51,-999.00,-2.6080,-999.0000,-3.8,-999.0000,-999,-2.7,,-999.0000,-999.0000,0.065,12.5400,-999.0000,12.9,0.0,12.6800,0.0000,3.0000,5.0000
2023-12-01 11:45:00,2023-12-01 03:45:00,-999.0000,9.51,-999.00,-2.5760,-999.0000,-3.8,-999.0000,-999,-2.7,,-999.0000,-999.0000,0.063,12.5350,-999.0000,13.0,0.0,12.6800,0.0000,3.0000,8.0000
2023-12-01 12:00:00,2023-12-01 04:00:00,-999.0000,9.51,-999.00,-2.5400,-999.0000,-3.8,-999.0000,-999,-2.6,,-999.0000,-999.0000,0.071,12.5310,-999.0000,13.0,0.0,12.6700,0.0000,5.0000,6.0000
2023-12-01 12:15:00,2023-12-01 04:15:00,-999.0000,9.51,-999.00,-2.4950,-999.0000,-3.8,-999.0000,-999,-2.6,,-999.0000,-999.0000,0.070,12.5300,-999.0000,12.9,0.0,12.6800,0.0000,8.0000,9.0000
2023-12-01 12:30:00,2023-12-01 04:30:00,-999.0000,9.51,-999.00,-2.4800,-999.0000,-3.6,-999.0000,-999,-2.6,,-999.0000,-999.0000,0.067,12.5250,-999.0000,12.9,0.0,12.6500,0.0000,6.0000,4.0000
2023-12-01 12:45:00,2023-12-01 04:45:00,-999.0000,9.51,-999.00,-2.4300,-999.0000,-3.6,-999.0000,-999,-2.6,,-999.0000,-999.0000,0.060,12.5290,-999.0000,12.9,0.0,12.6800,0.0000,8.0000,5.0000
2023-12-01 13:00:00,2023-12-01 05:00:00,-999.0000,9.51,-999.00,-2.4030,-999.0000,-3.6,-999.0000,-999,-2.5,,-999.0000,-999.0000,0.052,12.5270,-999.0000,12.9,0.0,12.6600,0.0000,5.0000,7.0000
2023-12-01 13:15:00,2023-12-01 05:15:00,-999.0000,9.51,-999.00,-2.3960,-999.0000,-3.4,-999.0000,-999,-2.5,,-999.0000,-999.0000,0.054,12.5270,-999.0000,12.9,0.0,12.6700,0.0000,7.0000,5.0000
2023-12-01 13:30:00,2023-12-01 05:30:00,-999.0000,9.51,-999.00,-2.3350,-999.0000,-3.4,-999.0000,-999,-2.4,,-999.0000,-999.0000,0.092,12.5190,-999.0000,12.9,0.0,12.6700,0.0000,6.0000,5.0000
2023-12-01 13:45:00,2023-12-01 05:45:00,-999.0000,9.51,-999.00,-2.2720,-999.0000,-3.4,-999.0000,-999,-2.4,,-999.0000,-999.0000,0.047,12.5200,-999.0000,12.9,0.0,12.6700,0.0000,6.0000,4.0000
2023-12-01 14:00:00,2023-12-01 06:00:00,-999.0000,9.51,-999.00,-2.2030,-999.0000,-3.4,-999.0000,-999,-2.3,,-999.0000,-999.0000,0.076,12.5160,-999.0000,12.9,0.0,12.6700,0.0000,5.0000,5.0000
2023-12-01 14:15:00,2023-12-01 06:15:00,-999.0000,9.51,-999.00,-2.1760,-999.0000,-3.3,-999.0000,-999,-2.3,,-999.0000,-999.0000,0.121,12.5130,-999.0000,12.9,0.0,12.6700,0.0000,4.0000,1.0000
2023-12-01 14:30:00,2023-12-01 06:30:00,-999.0000,9.51,-999.00,-2.0760,-999.0000,-3.3,-999.0000,-999,-2.2,,-999.0000,-999.0000,0.103,12.5150,-999.0000,12.9,0.0,12.6600,0.0000,5.0000,2.0000
2023-12-01 14:45:00,2023-12-01 06:45:00,-999.0000,9.51,-999.00,-1.9590,-999.0000,-3.3,-999.0000,-999,-2.1,,-999.0000,-999.0000,0.105,12.5180,-999.0000,12.9,0.0,12.6700,0.0000,5.0000,11.0000
2023-12-01 15:00:00,2023-12-01 07:00:00,-999.0000,9.51,-999.00,-1.8860,-999.0000,-3.3,-999.0000,-999,-2.0,,-999.0000,-999.0000,0.105,12.5220,-999.0000,12.9,0.0,12.6600,0.0000,3.0000,4.0000
2023-12-01 15:15:00,2023-12-01 07:15:00,-999.0000,9.51,-999.00,-1.8110,-999.0000,-3.1,-999.0000,-999,-2.0,,-999.0000,-999.0000,0.072,12.5230,-999.0000,12.9,0.6,12.6600,0.0000,3.0000,1.0000
2023-12-01 15:30:00,2023-12-01 07:30:00,-999.0000,9.51,-999.00,-1.7050,-999.0000,-3.1,-999.0000,-999,-1.9,,-999.0000,-999.0000,3.417,12.5230,-999.0000,12.9,4.9,12.6700,0.0000,3.0000,8.0000
2023-12-01 15:45:00,2023-12-01 07:45:00,-999.0000,9.51,-999.00,-1.7890,-999.0000,-3.1,-999.0000,-999,-2.2,,-999.0000,-999.0000,3.417,12.5210,-999.0000,12.9,10.8,12.6700,0.0000,5.0000,8.0000
2023-12-01 16:00:00,2023-12-01 08:00:00,-999.0000,9.51,-999.00,-1.9310,-999.0000,-2.9,-999.0000,-999,-2.4,,-999.0000,-999.0000,0.100,12.5200,-999.0000,13.0,12.8,12.6700,6.3000,5.0000,8.0000
2023-12-01 16:15:00,2023-12-01 08:15:00,-999.0000,9.51,-999.00,-1.9160,-999.0000,-2.9,-999.0000,-999,-2.3,,-999.0000,-999.0000,0.111,12.5230,-999.0000,12.9,12.9,12.6700,9.7600,8.0000,7.0000
2023-12-01 16:30:00,2023-12-01 08:30:00,-999.0000,9.51,-999.00,-1.7650,-999.0000,-2.9,-999.0000,-999,-2.0,,-999.0000,-999.0000,0.110,12.5240,-999.0000,13.0,12.9,12.6600,8.3200,8.0000,6.0000
2023-12-01 16:45:00,2023-12-01 08:45:00,-999.0000,9.51,-999.00,-1.6130,-999.0000,-2.9,-999.0000,-999,-1.8,,-999.0000,-999.0000,0.129,12.5260,-999.0000,13.0,12.8,12.6600,6.2200,4.0000,9.0000
2023-12-01 17:00:00,2023-12-01 09:00:00,-999.0000,9.51,-999.00,-1.4820,-999.0000,-2.9,-999.0000,-999,-1.5,,-999.0000,-999.0000,0.107,12.5270,-999.0000,13.0,12.9,12.6600,11.1200,4.0000,3.0000
2023-12-01 17:15:00,2023-12-01 09:15:00,-999.0000,9.51,-999.00,-1.3250,-999.0000,-2.6,-999.0000,-999,-1.3,,-999.0000,-999.0000,3.417,12.5270,-999.0000,12.9,12.8,12.6600,2.1000,6.0000,3.0000
2023-12-01 17:30:00,2023-12-01 09:30:00,-999.0000,9.51,-999.00,-1.1860,-999.0000,-2.4,-999.0000,-999,-1.2,,-999.0000,-999.0000,0.083,12.5320,-999.0000,12.9,12.9,12.6600,5.7200,4.0000,5.0000
2023-12-01 17:45:00,2023-12-01 09:45:00,-999.0000,9.51,-999.00,-1.0480,-999.0000,-2.4,-999.0000,-999,-1.0,,-999.0000,-999.0000,0.145,12.5320,-999.0000,12.9,12.8,12.6700,4.5300,3.0000,4.0000
2023-12-01 18:00:00,2023-12-01 10:00:00,-999.0000,9.51,-999.00,-0.9920,-999.0000,-2.2,-999.0000,-999,-1.0,,-999.0000,-999.0000,0.129,12.5380,-999.0000,12.9,9.0,12.6800,0.0000,3.0000,7.0000
2023-12-01 18:15:00,2023-12-01 10:15:00,-999.0000,9.51,-999.00,-1.0180,-999.0000,-2.1,-999.0000,-999,-1.0,,-999.0000,-999.0000,0.121,12.5380,-999.0000,12.9,12.2,12.6700,0.0700,3.0000,7.0000
2023-12-01 18:30:00,2023-12-01 10:30:00,-999.0000,9.51,-999.00,-1.0810,-999.0000,-1.9,-999.0000,-999,-1.0,,-999.0000,-999.0000,0.126,12.5390,-999.0000,12.9,11.7,12.6800,0.0000,3.0000,6.0000
2023-12-01 18:45:00,2023-12-01 10:45:00,-999.0000,9.51,-999.00,-1.1020,-999.0000,-1.9,-999.0000,-999,-1.0,,-999.0000,-999.0000,0.140,12.5390,-999.0000,13.0,12.8,12.6600,5.0500,3.0000,6.0000
2023-12-01 19:00:00,2023-12-01 11:00:00,-999.0000,9.51,-999.00,-1.0760,-999.0000,-2.1,-999.0000,-999,-1.0,,-999.0000,-999.0000,0.142,12.5400,-999.0000,12.9,12.3,12.6700,0.2500,5.0000,8.0000
2023-12-01 19:15:00,2023-12-01 11:15:00,-999.0000,9.51,-999.00,-1.0870,-999.0000,-1.7,-999.0000,-999,-1.0,,-999.0000,-999.0000,0.138,12.5440,-999.0000,12.9,11.7,12.6600,0.0000,5.0000,4.0000
2023-12-01 19:30:00,2023-12-01 11:30:00,-999.0000,9.51,-999.00,-1.0790,-999.0000,-1.7,-999.0000,-999,-1.0,,-999.0000,-999.0000,0.147,12.5450,-999.0000,12.9,12.9,12.6600,9.5500,4.0000,5.0000
2023-12-01 19:45:00,2023-12-01 11:45:00,-999.0000,9.51,-999.00,-1.0690,-999.0000,-1.7,-999.0000,-999,-0.8,,-999.0000,-999.0000,0.136,12.5430,-999.0000,12.9,12.1,12.6600,0.1100,5.0000,8.0000
2023-12-01 20:00:00,2023-12-01 12:00:00,-999.0000,9.51,-999.00,-1.1120,-999.0000,-1.7,-999.0000,-999,-1.0,,-999.0000,-999.0000,0.126,12.5500,-999.0000,12.9,7.2,12.6600,0.0000,5.0000,4.0000
2023-12-01 20:15:00,2023-12-01 12:15:00,-999.0000,9.51,-999.00,-1.1750,-999.0000,-1.7,-999.0000,-999,-1.1,,-999.0000,-999.0000,0.164,12.5480,-999.0000,12.9,12.9,12.6600,9.8000,4.0000,6.0000
2023-12-01 20:30:00,2023-12-01 12:30:00,-999.0000,9.51,-999.00,-1.1400,-999.0000,-1.5,-999.0000,-999,-1.0,,-999.0000,-999.0000,0.159,12.5520,-999.0000,12.9,12.8,12.6600,5.0900,5.0000,7.0000
2023-12-01 20:45:00,2023-12-01 12:45:00,-999.0000,9.51,-999.00,-0.9800,-999.0000,-1.7,-999.0000,-999,-0.8,,-999.0000,-999.0000,0.132,12.5540,-999.0000,12.9,12.9,12.6600,8.2100,2.0000,6.0000
2023-12-01 21:00:00,2023-12-01 13:00:00,-999.0000,9.51,-999.00,-0.8220,-999.0000,-1.5,-999.0000,-999,-0.6,,-999.0000,-999.0000,0.138,12.5600,-999.0000,12.9,12.9,12.6600,5.7900,8.0000,10.0000
2023-12-01 21:15:00,2023-12-01 13:15:00,-999.0000,9.51,-999.00,-0.8370,-999.0000,-1.5,-999.0000,-999,-0.6,,-999.0000,-999.0000,0.159,12.5610,-999.0000,12.9,12.9,12.6600,9.0300,6.0000,0.0000
2023-12-01 21:30:00,2023-12-01 13:30:00,-999.0000,9.51,-999.00,-0.7780,-999.0000,-1.4,-999.0000,-999,-0.6,,-999.0000,-999.0000,0.170,12.5620,-999.0000,12.9,10.5,12.6600,0.0000,3.0000,10.0000
2023-12-01 21:45:00,2023-12-01 13:45:00,-999.0000,9.51,-999.00,-0.7530,-999.0000,-1.4,-999.0000,-999,-0.6,,-999.0000,-999.0000,0.159,12.5670,-999.0000,12.9,10.8,12.6600,0.0000,5.0000,-1.0000
2023-12-01 22:00:00,2023-12-01 14:00:00,-999.0000,9.51,-999.00,-0.7260,-999.0000,-1.4,-999.0000,-999,-0.6,,-999.0000,-999.0000,0.145,12.5700,-999.0000,12.9,12.9,12.6600,8.4500,8.0000,3.0000
2023-12-01 22:15:00,2023-12-01 14:15:00,-999.0000,9.51,-999.00,-0.6490,-999.0000,-1.4,-999.0000,-999,-0.5,,-999.0000,-999.0000,0.148,12.5700,-999.0000,12.9,12.6,12.6500,3.3800,7.0000,3.0000
2023-12-01 22:30:00,2023-12-01 14:30:00,-999.0000,9.51,-999.00,-0.5980,-999.0000,-1.2,-999.0000,-999,-0.5,,-999.0000,-999.0000,0.168,12.5730,-999.0000,12.9,12.8,12.6500,7.7900,3.0000,6.0000
2023-12-01 22:45:00,2023-12-01 14:45:00,-999.0000,9.51,-999.00,-0.5390,-999.0000,-1.2,-999.0000,-999,-0.4,,-999.0000,-999.0000,0.178,12.5750,-999.0000,12.9,12.7,12.6700,3.8400,3.0000,4.0000
2023-12-01 23:00:00,2023-12-01 15:00:00,-999.0000,9.51,-999.00,-0.5810,-999.0000,-1.2,-999.0000,-999,-0.5,,-999.0000,-999.0000,0.174,12.5750,-999.0000,13.0,10.9,12.6600,0.0000,8.0000,3.0000
2023-12-01 23:15:00,2023-12-01 15:15:00,-999.0000,9.51,-999.00,-0.7290,-999.0000,-1.2,-999.0000,-999,-0.7,,-999.0000,-999.0000,0.175,12.5810,-999.0000,12.9,12.6,12.6500,3.7900,6.0000,11.0000
2023-12-01 23:30:00,2023-12-01 15:30:00,-999.0000,9.51,-999.00,-0.8820,-999.0000,-1.0,-999.0000,-999,-0.9,,-999.0000,-999.0000,0.170,12.5810,-999.0000,12.9,10.8,12.6600,0.0000,7.0000,6.0000
2023-12-01 23:45:00,2023-12-01 15:45:00,-999.0000,9.51,-999.00,-0.9800,-999.0000,-1.4,-999.0000,-999,-1.0,,-999.0000,-999.0000,0.166,12.5870,-999.0000,13.0,7.6,12.6400,0.0000,7.0000,9.0000
2023-12-02 00:00:00,2023-12-01 16:00:00,-999.0000,9.51,-999.00,-1.0350,-999.0000,-1.4,-999.0000,-999,-1.1,,-999.0000,-999.0000,0.160,12.5870,-999.0000,12.9,4.0,12.6500,0.0000,1.0000,11.0000
2023-12-02 00:15:00,2023-12-01 16:15:00,-999.0000,9.51,-999.00,-1.0720,-999.0000,-1.4,-999.0000,-999,-1.2,,-999.0000,-999.0000,0.113,12.5900,-999.0000,12.9,2.0,12.6500,0.0000,5.0000,5.0000
2023-12-02 00:30:00,2023-12-01 16:30:00,-999.0000,9.51,-999.00,-1.0860,-999.0000,-1.4,-999.0000,-999,-1.2,,-999.0000,-999.0000,0.120,12.5920,-999.0000,12.9,0.8,12.6600,0.0000,5.0000,4.0000
2023-12-02 00:45:00,2023-12-01 16:45:00,-999.0000,9.51,-999.00,-1.1000,-999.0000,-1.7,-999.0000,-999,-1.3,,-999.0000,-999.0000,0.143,12.5940,-999.0000,12.9,0.1,12.6600,0.0000,8.0000,2.0000
2023-12-02 01:00:00,2023-12-01 17:00:00,-999.0000,9.51,-999.00,-1.1200,-999.0000,-1.7,-999.0000,-999,-1.3,,-999.0000,-999.0000,0.130,12.5980,-999.0000,12.9,0.1,12.6500,0.0000,7.0000,11.0000
2023-12-02 01:15:00,2023-12-01 17:15:00,-999.0000,9.51,-999.00,-1.1380,-999.0000,-1.7,-999.0000,-999,-1.3,,-999.0000,-999.0000,0.141,12.5970,-999.0000,12.9,0.0,12.6600,0.0000,8.0000,8.0000
2023-12-02 01:30:00,2023-12-01 17:30:00,-999.0000,9.51,-999.00,-1.1530,-999.0000,-1.7,-999.0000,-999,-1.3,,-999.0000,-999.0000,0.139,12.6000,-999.0000,12.9,0.0,12.6500,0.0000,2.0000,1.0000
2023-12-02 01:45:00,2023-12-01 17:45:00,-999.0000,9.51,-999.00,-1.1560,-999.0000,-1.9,-999.0000,-999,-1.3,,-999.0000,-999.0000,0.128,12.6000,-999.0000,12.9,0.0,12.6500,0.0000,3.0000,8.0000
2023-12-02 02:00:00,2023-12-01 18:00:00,-999.0000,9.51,-999.00,-1.1690,-999.0000,-1.9,-999.0000,-999,-1.4,,-999.0000,-999.0000,0.163,12.6020,-999.0000,12.9,0.0,12.6300,0.0000,3.0000,4.0000
2023-12-02 02:15:00,2023-12-01 18:15:00,-999.0000,9.51,-999.00,-1.1810,-999.0000,-1.9,-999.0000,-999,-1.4,,-999.0000,-999.0000,0.159,12.5990,-999.0000,12.9,0.0,12.6400,0.0000,3.0000,4.0000
2023-12-02 02:30:00,2023-12-01 18:30:00,-999.0000,9.51,-999.00,-1.2140,-999.0000,-1.9,-999.0000,-999,-1.4,,-999.0000,-999.0000,0.168,12.5940,-999.0000,12.9,0.0,12.6600,0.0000,2.0000,11.0000
2023-12-02 02:45:00,2023-12-01 18:45:00,-999.0000,9.51,-999.00,-1.2600,-999.0000,-1.9,-999.0000,-999,-1.5,,-999.0000,-999.0000,0.178,12.5910,-999.0000,12.9,0.0,12.6600,0.0000,8.0000,7.0000
2023-12-02 03:00:00,2023-12-01 19:00:00,-999.0000,9.51,-999.00,-1.3010,-999.0000,-2.2,-999.0000,-999,-1.6,,-999.0000,-999.0000,0.182,12.5910,-999.0000,12.9,0.0,12.6500,0.0000,10.0000,8.0000
2023-12-02 03:15:00,2023-12-01 19:15:00,-999.0000,9.51,-999.00,-1.3380,-999.0000,-2.1,-999.0000,-999,-1.6,,-999.0000,-999.0000,0.087,12.5910,-999.0000,12.9,0.0,12.6500,0.0000,5.0000,13.0000
2023-12-02 03:30:00,2023-12-01 19:30:00,-999.0000,9.51,-999.00,-1.3260,-999.0000,-2.1,-999.0000,-999,-1.6,,-999.0000,-999.0000,0.158,12.5930,-999.0000,12.9,0.0,12.6400,0.0000,5.0000,3.0000
2023-12-02 03:45:00,2023-12-01 19:45:00,-999.0000,9.51,-999.00,-1.3200,-999.0000,-2.1,-999.0000,-999,-1.6,,-999.0000,-999.0000,0.159,12.5940,-999.0000,12.9,0.0,12.6500,0.0000,10.0000,11.0000
2023-12-02 04:00:00,2023-12-01 20:00:00,-999.0000,9.51,-999.00,-1.3160,-999.0000,-2.1,-999.0000,-999,-1.5,,-999.0000,-999.0000,0.174,12.5890,-999.0000,12.9,0.0,12.6400,0.0000,7.0000,5.0000
2023-12-02 04:15:00,2023-12-01 20:15:00,-999.0000,9.51,-999.00,-1.3070,-999.0000,-2.1,-999.0000,-999,-1.5,,-999.0000,-999.0000,0.181,12.5900,-999.0000,12.8,0.0,12.6400,0.0000,10.0000,6.0000
2023-12-02 04:30:00,2023-12-01 20:30:00,-999.0000,9.51,-999.00,-1.2770,-999.0000,-2.1,-999.0000,-999,-1.5,,-999.0000,-999.0000,0.179,12.5900,-999.0000,13.0,0.0,12.6600,0.0000,1.0000,13.0000
2023-12-02 04:45:00,2023-12-01 20:45:00,-999.0000,9.51,-999.00,-1.2720,-999.0000,-2.2,-999.0000,-999,-1.5,,-999.0000,-999.0000,0.119,12.5930,-999.0000,12.9,0.1,12.6500,0.0000,1.0000,4.0000
2023-12-02 05:00:00,2023-12-01 21:00:00,-999.0000,9.51,-999.00,-1.2510,-999.0000,-2.2,-999.0000,-999,-1.5,,-999.0000,-999.0000,0.187,12.5950,-999.0000,13.0,0.0,12.6400,0.0000,2.0000,8.0000
2023-12-02 05:15:00,2023-12-01 21:15:00,-999.0000,9.51,-999.00,-1.2360,-999.0000,-2.2,-999.0000,-999,-1.4,,-999.0000,-999.0000,0.185,12.5940,-999.0000,12.9,0.0,12.6400,0.0000,6.0000,12.0000
2023-12-02 05:30:00,2023-12-01 21:30:00,-999.0000,9.51,-999.00,-1.2410,-999.0000,-2.1,-999.0000,-999,-1.4,,-999.0000,-999.0000,0.213,12.5930,-999.0000,12.9,0.0,12.6500,0.0000,8.0000,4.0000
2023-12-02 05:45:00,2023-12-01 21:45:00,-999.0000,9.51,-999.00,-1.2430,-999.0000,-2.2,-999.0000,-999,-1.4,,-999.0000,-999.0000,0.216,12.5920,-999.0000,13.0,0.0,12.6400,0.0000,8.0000,11.0000
2023-12-02 06:00:00,2023-12-01 22:00:00,-999.0000,9.51,-999.00,-1.2390,-999.0000,-2.2,-999.0000,-999,-1.4,,-999.0000,-999.0000,0.220,12.5920,-999.0000,12.9,0.0,12.6600,0.0000,8.0000,4.0000
2023-12-02 06:15:00,2023-12-01 22:15:00,-999.0000,9.51,-999.00,-1.2470,-999.0000,-2.1,-999.0000,-999,-1.4,,-999.0000,-999.0000,0.228,12.5940,-999.0000,12.9,0.0,12.6400,0.0000,7.0000,7.0000
2023-12-02 06:30:00,2023-12-01 22:30:00,-999.0000,9.51,-999.00,-1.2350,-999.0000,-2.1,-999.0000,-999,-1.4,,-999.0000,-999.0000,0.203,12.5890,-999.0000,12.9,0.0,12.6400,0.0000,7.0000,5.0000
2023-12-02 06:45:00,2023-12-01 22:45:00,-999.0000,9.51,-999.00,-1.2420,-999.0000,-2.2,-999.0000,-999,-1.4,,-999.0000,-999.0000,0.168,12.5860,-999.0000,12.9,0.0,12.6400,0.0000,7.0000,5.0000
2023-12-02 07:00:00,2023-12-01 23:00:00,-999.0000,9.51,-999.00,-1.2550,-999.0000,-2.4,-999.0000,-999,-1.5,,-999.0000,-999.0000,0.173,12.5860,-999.0000,13.0,0.0,12.6500,0.0000,6.0000,7.0000
2023-12-02 07:15:00,2023-12-01 23:15:00,-999.0000,9.51,-999.00,-1.2680,-999.0000,-2.2,-999.0000,-999,-1.5,,-999.0000,-999.0000,0.164,12.5840,-999.0000,12.9,0.0,12.6400,0.0000,2.0000,2.0000
2023-12-02 07:30:00,2023-12-01 23:30:00,-999.0000,9.51,-999.00,-1.2420,-999.0000,-2.2,-999.0000,-999,-1.5,,-999.0000,-999.0000,0.159,12.5830,-999.0000,12.9,0.0,12.6400,0.0000,5.0000,8.0000
2023-12-02 07:45:00,2023-12-01 23:45:00,-999.0000,9.51,-999.00,-1.2390,-999.0000,-2.2,-999.0000,-999,-1.4,,-999.0000,-999.0000,0.205,12.5760,-999.0000,12.9,0.0,12.6400,0.0000,5.0000,-1.0000
2023-12-02 08:00:00,2023-12-02 00:00:00,-999.0000,9.51,-999.00,-1.2210,-999.0000,-2.2,-999.0000,-999,-1.4,,-999.0000,-999.0000,0.224,12.5770,-999.0000,12.9,0.0,12.6400,0.0000,2.0000,4.0000
2023-12-02 08:15:00,2023-12-02 00:15:00,-999.0000,9.51,-999.00,-1.1940,-999.0000,-2.1,-999.0000,-999,-1.4,,-999.0000,-999.0000,3.417,12.5730,-999.0000,12.9,0.0,12.6400,0.0000,5.0000,7.0000
2023-12-02 08:30:00,2023-12-02 00:30:00,-999.0000,9.51,-999.00,-1.1890,-999.0000,-2.1,-999.0000,-999,-1.4,,-999.0000,-999.0000,0.241,12.5660,-999.0000,12.9,0.0,12.6400,0.0000,5.0000,4.0000
2023-12-02 08:45:00,2023-12-02 00:45:00,-999.0000,9.51,-999.00,-1.2070,-999.0000,-2.2,-999.0000,-999,-1.4,,-999.0000,-999.0000,0.246,12.5570,-999.0000,12.9,0.0,12.6400,0.0000,2.0000,4.0000
2023-12-02 09:00:00,2023-12-02 01:00:00,-999.0000,9.51,-999.00,-1.1910,-999.0000,-2.4,-999.0000,-999,-1.3,,-999.0000,-999.0000,0.230,12.5450,-999.0000,12.9,0.0,12.6500,0.0000,2.0000,7.0000
2023-12-02 09:15:00,2023-12-02 01:15:00,-999.0000,9.51,-999.00,-0.9400,-999.0000,-2.2,-999.0000,-999,-1.2,,-999.0000,-999.0000,0.250,12.5490,-999.0000,12.9,0.0,-999.0000,-999.0000,3.0000,-999.0000
2023-12-02 09:30:00,2023-12-02 01:30:00,-999.0000,9.51,-999.00,-0.8090,-999.0000,-2.1,-999.0000,-999,-1.1,,-999.0000,-999.0000,0.199,12.5470,-999.0000,12.9,0.0,-999.0000,-999.0000,3.0000,-999.0000
2023-12-02 09:45:00,2023-12-02 01:45:00,-999.0000,9.51,-999.00,-0.7630,-999.0000,-2.1,-999.0000,-999,-1.0,,-999.0000,-999.0000,0.233,12.5420,-999.0000,12.9,0.0,-999.0000,-999.0000,3.0000,-999.0000
2023-12-02 10:00:00,2023-12-02 02:00:00,-999.0000,9.51,-999.00,-0.7140,-999.0000,-2.1,-999.0000,-999,-0.9,,-999.0000,-999.0000,0.235,12.5340,-999.0000,12.9,0.0,-999.0000,-999.0000,3.0000,-999.0000
2023-12-02 10:15:00,2023-12-02 02:15:00,-999.0000,9.51,-999.00,-0.6260,-999.0000,-2.1,-999.0000,-999,-0.9,,-999.0000,-999.0000,3.417,12.5320,-999.0000,12.9,0.0,-999.0000,-999.0000,3.0000,-999.0000
2023-12-02 10:30:00,2023-12-02 02:30:00,-999.0000,9.51,-999.00,-0.5050,-999.0000,-1.7,-999.0000,-999,-0.7,,-999.0000,-999.0000,0.280,12.5310,-999.0000,12.9,0.0,-999.0000,-999.0000,3.0000,-999.0000
2023-12-02 10:45:00,2023-12-02 02:45:00,-999.0000,9.51,-999.00,-0.2230,-999.0000,-1.7,-999.0000,-999,-0.5,,-999.0000,-999.0000,0.272,12.5270,-999.0000,12.9,0.0,12.6500,0.0000,1.0000,5.0000
2023-12-02 11:00:00,2023-12-02 03:00:00,-999.0000,9.51,-999.00,0.0190,-999.0000,-1.5,-999.0000,-999,-0.3,,-999.0000,-999.0000,0.276,12.5180,-999.0000,13.0,0.0,12.6400,0.0000,3.0000,1.0000
2023-12-02 11:15:00,2023-12-02 03:15:00,-999.0000,9.51,-999.00,0.1080,-999.0000,-1.5,-999.0000,-999,-0.1,,-999.0000,-999.0000,0.277,12.5150,-999.0000,12.9,0.0,12.6400,0.0000,6.0000,5.0000
2023-12-02 11:30:00,2023-12-02 03:30:00,-999.0000,9.51,-999.00,0.1300,-999.0000,-1.2,-999.0000,-999,-0.1,,-999.0000,-999.0000,0.264,12.5110,-999.0000,12.9,0.0,12.6400,0.0000,2.0000,9.0000
2023-12-02 11:45:00,2023-12-02 03:45:00,-999.0000,9.51,-999.00,0.1370,-999.0000,-1.2,-999.0000,-999,-0.1,,-999.0000,-999.0000,0.291,12.5020,-999.0000,12.9,0.0,12.6400,0.0000,2.0000,3.0000
2023-12-02 12:00:00,2023-12-02 04:00:00,-999.0000,9.51,-999.00,0.1590,-999.0000,-1.2,-999.0000,-999,-0.1,,-999.0000,-999.0000,0.296,12.5060,-999.0000,12.9,0.0,12.6400,0.0000,3.0000,3.0000
2023-12-02 12:15:00,2023-12-02 04:15:00,-999.0000,9.51,-999.00,0.1320,-999.0000,-1.0,-999.0000,-999,0.0,,-999.0000,-999.0000,0.285,12.4990,-999.0000,12.9,0.0,-999.0000,-999.0000,1.0000,-999.0000
2023-12-02 12:30:00,2023-12-02 04:30:00,-999.0000,9.51,-999.00,0.1400,-999.0000,-1.0,-999.0000,-999,0.0,,-999.0000,-999.0000,0.283,12.4980,-999.0000,12.9,0.0,-999.0000,-999.0000,1.0000,-999.0000
2023-12-02 12:45:00,2023-12-02 04:45:00,-999.0000,9.51,-999.00,0.1290,-999.0000,-0.8,-999.0000,-999,0.0,,-999.0000,-999.0000,0.296,12.4990,-999.0000,12.9,0.0,-999.0000,-999.0000,1.0000,-999.0000
2023-12-02 13:00:00,2023-12-02 05:00:00,-999.0000,9.51,-999.00,0.1210,-999.0000,-1.0,-999.0000,-999,0.0,,-999.0000,-999.0000,0.276,12.4920,-999.0000,12.9,0.0,-999.0000,-999.0000,1.0000,-999.0000
2023-12-02 13:15:00,2023-12-02 05:15:00,-999.0000,9.51,-999.00,0.1220,-999.0000,-0.8,-999.0000,-999,0.0,,-999.0000,-999.0000,0.291,12.4850,-999.0000,12.9,0.0,-999.0000,-999.0000,1.0000,-999.0000
2023-12-02 13:30:00,2023-12-02 05:30:00,-999.0000,9.51,-999.00,0.1290,-999.0000,-0.8,-999.0000,-999,0.0,,-999.0000,-999.0000,0.298,12.4840,-999.0000,12.9,0.0,-999.0000,-999.0000,1.0000,-999.0000
2023-12-02 13:45:00,2023-12-02 05:45:00,-999.0000,9.51,-999.00,0.1460,-999.0000,-0.8,-999.0000,-999,0.0,,-999.0000,-999.0000,0.285,12.4790,-999.0000,12.9,0.0,-999.0000,-999.0000,1.0000,-999.0000
2023-12-02 14:00:00,2023-12-02 06:00:00,-999.0000,9.51,-999.00,0.1490,-999.0000,-0.8,-999.0000,-999,0.0,,-999.0000,-999.0000,0.286,12.4840,-999.0000,12.9,0.0,-999.0000,-999.0000,1.0000,-999.0000
2023-12-02 14:15:00,2023-12-02 06:15:00,-999.0000,9.51,-999.00,0.1310,-999.0000,-0.7,-999.0000,-999,0.0,,-999.0000,-999.0000,0.279,12.4920,-999.0000,12.9,0.0,-999.0000,-999.0000,1.0000,-999.0000
2023-12-02 14:30:00,2023-12-02 06:30:00,-999.0000,9.51,-999.00,0.1190,-999.0000,-0.8,-999.0000,-999,0.0,,-999.0000,-999.0000,0.255,12.5030,-999.0000,12.9,0.0,-999.0000,-999.0000,1.0000,-999.0000
2023-12-02 14:45:00,2023-12-02 06:45:00,-999.0000,9.51,-999.00,0.0570,-999.0000,-0.8,-999.0000,-999,0.0,,-999.0000,-999.0000,0.229,12.5030,-999.0000,12.9,0.0,-999.0000,-999.0000,1.0000,-999.0000
2023-12-02 15:00:00,2023-12-02 07:00:00,-999.0000,9.51,-999.00,-0.0450,-999.0000,-0.8,-999.0000,-999,0.0,,-999.0000,-999.0000,0.285,12.5150,-999.0000,12.9,0.1,12.6400,0.0000,1.0000,6.0000
2023-12-02 15:15:00,2023-12-02 07:15:00,-999.0000,9.51,-999.00,-0.2100,-999.0000,-0.8,-999.0000,-999,0.0,,-999.0000,-999.0000,0.280,12.5140,-999.0000,12.9,0.6,12.6400,0.0000,3.0000,7.0000
2023-12-02 15:30:00,2023-12-02 07:30:00,-999.0000,9.51,-999.00,-0.2940,-999.0000,-0.8,-999.0000,-999,-0.1,,-999.0000,-999.0000,0.285,12.5130,-999.0000,12.9,2.4,12.6400,0.0000,4.0000,9.0000
2023-12-02 15:45:00,2023-12-02 07:45:00,-999.0000,9.51,-999.00,-0.3420,-999.0000,-0.8,-999.0000,-999,-0.1,,-999.0000,-999.0000,0.281,12.5170,-999.0000,12.9,1.8,12.6300,0.0000,4.0000,6.0000
2023-12-02 16:00:00,2023-12-02 08:00:00,-999.0000,9.51,-999.00,-0.4240,-999.0000,-1.0,-999.0000,-999,-0.1,,-999.0000,-999.0000,0.271,12.5250,-999.0000,12.9,7.4,12.6400,0.0000,4.0000,4.0000
2023-12-02 16:15:00,2023-12-02 08:15:00,-999.0000,9.51,-999.00,-0.6300,-999.0000,-0.8,-999.0000,-999,-0.1,,-999.0000,-999.0000,0.260,12.5290,-999.0000,12.9,8.8,12.6400,0.0000,4.0000,4.0000
2023-12-02 16:30:00,2023-12-02 08:30:00,-999.0000,9.51,-999.00,-0.8100,-999.0000,-1.0,-999.0000,-999,-0.2,,-999.0000,-999.0000,0.250,12.5310,-999.0000,12.9,12.1,12.6400,9.4000,4.0000,4.0000
2023-12-02 16:45:00,2023-12-02 08:45:00,-999.0000,9.51,-999.00,-0.8560,-999.0000,-1.2,-999.0000,-999,-0.2,,-999.0000,-999.0000,0.279,12.5350,-999.0000,12.9,12.9,12.6400,12.0900,5.0000,7.0000
2023-12-02 17:00:00,2023-12-02 09:00:00,-999.0000,9.51,-999.00,-0.9290,-999.0000,-1.2,-999.0000,-999,-0.1,,-999.0000,-999.0000,0.280,12.5370,-999.0000,13.0,12.9,12.6400,11.7200,2.0000,3.0000
2023-12-02 17:15:00,2023-12-02 09:15:00,-999.0000,9.51,-999.00,-0.7870,-999.0000,-1.0,-999.0000,-999,-0.1,,-999.0000,-999.0000,0.286,12.5380,-999.0000,12.9,12.9,12.6400,11.6300,3.0000,3.0000
2023-12-02 17:30:00,2023-12-02 09:30:00,-999.0000,9.51,-999.00,-0.6960,-999.0000,-0.8,-999.0000,-999,0.0,,-999.0000,-999.0000,0.281,12.5410,-999.0000,12.9,12.9,12.6400,11.8600,2.0000,1.0000
2023-12-02 17:45:00,2023-12-02 09:45:00,-999.0000,9.51,-999.00,-0.8180,-999.0000,-0.8,-999.0000,-999,0.0,,-999.0000,-999.0000,0.276,12.5440,-999.0000,12.9,12.9,12.6400,11.7700,2.0000,3.0000
2023-12-02 18:00:00,2023-12-02 10:00:00,-999.0000,9.51,-999.00,-0.6290,-999.0000,-1.0,-999.0000,-999,0.0,,-999.0000,-999.0000,0.274,12.5470,-999.0000,13.0,12.9,12.6400,11.9900,3.0000,1.0000
2023-12-02 18:15:00,2023-12-02 10:15:00,-999.0000,9.51,-999.00,-0.4140,-999.0000,-0.7,-999.0000,-999,0.0,,-999.0000,-999.0000,0.274,12.5470,-999.0000,12.9,12.9,12.6500,12.7000,4.0000,2.0000
2023-12-02 18:30:00,2023-12-02 10:30:00,-999.0000,9.51,-999.00,-0.2630,-999.0000,-0.8,-999.0000,-999,0.0,,-999.0000,-999.0000,0.269,12.5530,-999.0000,12.9,12.9,12.6800,12.7400,2.0000,5.0000
2023-12-02 18:45:00,2023-12-02 10:45:00,-999.0000,9.51,-999.00,-0.2890,-999.0000,-0.7,-999.0000,-999,0.0,,-999.0000,-999.0000,0.263,12.5560,-999.0000,12.9,12.9,12.6900,12.7400,3.0000,5.0000
2023-12-02 19:00:00,2023-12-02 11:00:00,-999.0000,9.51,-999.00,-0.1190,-999.0000,-0.5,-999.0000,-999,0.1,,-999.0000,-999.0000,0.271,12.5580,-999.0000,13.0,12.9,12.6800,12.7200,5.0000,1.0000
2023-12-02 19:15:00,2023-12-02 11:15:00,-999.0000,9.51,-999.00,-0.0860,-999.0000,-0.3,-999.0000,-999,0.1,,-999.0000,-999.0000,0.267,12.5630,-999.0000,12.9,13.0,12.6700,12.6400,3.0000,4.0000
2023-12-02 19:30:00,2023-12-02 11:30:00,-999.0000,9.51,-999.00,-0.0220,-999.0000,0.0,-999.0000,-999,0.2,,-999.0000,-999.0000,0.260,12.5620,-999.0000,13.0,13.1,12.6800,12.7700,2.0000,6.0000
2023-12-02 19:45:00,2023-12-02 11:45:00,-999.0000,9.51,-999.00,0.0050,-999.0000,0.2,-999.0000,-999,0.2,,-999.0000,-999.0000,0.256,12.5620,-999.0000,13.1,13.1,12.7100,12.7700,2.0000,5.0000
2023-12-02 20:00:00,2023-12-02 12:00:00,-999.0000,9.51,-999.00,-0.0130,-999.0000,0.2,-999.0000,-999,0.2,,-999.0000,-999.0000,0.252,12.5640,-999.0000,13.1,13.1,12.7000,12.7700,4.0000,5.0000
2023-12-02 20:15:00,2023-12-02 12:15:00,-999.0000,9.51,-999.00,-0.1230,-999.0000,0.4,-999.0000,-999,0.2,,-999.0000,-999.0000,0.244,12.5680,-999.0000,13.1,13.1,12.7100,12.7900,3.0000,5.0000
2023-12-02 20:30:00,2023-12-02 12:30:00,-999.0000,9.51,-999.00,-0.4860,-999.0000,0.4,-999.0000,-999,0.1,,-999.0000,-999.0000,0.259,12.5720,-999.0000,13.1,13.1,12.7200,12.7400,3.0000,7.0000
2023-12-02 20:45:00,2023-12-02 12:45:00,-999.0000,9.51,-999.00,-0.4730,-999.0000,0.2,-999.0000,-999,0.1,,-999.0000,-999.0000,0.258,12.5730,-999.0000,13.1,13.1,12.7000,12.7500,4.0000,9.0000
2023-12-02 21:00:00,2023-12-02 13:00:00,-999.0000,9.51,-999.00,-0.4450,-999.0000,0.0,-999.0000,-999,0.1,,-999.0000,-999.0000,0.251,12.5740,-999.0000,13.1,13.0,12.7000,12.7400,4.0000,4.0000
2023-12-02 21:15:00,2023-12-02 13:15:00,-999.0000,9.51,-999.00,-0.3810,-999.0000,0.0,-999.0000,-999,0.1,,-999.0000,-999.0000,0.243,12.5800,-999.0000,13.1,13.1,12.6900,12.7400,5.0000,3.0000
2023-12-02 21:30:00,2023-12-02 13:30:00,-999.0000,9.51,-999.00,-0.2770,-999.0000,-0.1,-999.0000,-999,0.1,,-999.0000,-999.0000,0.192,12.5810,-999.0000,13.1,13.1,12.7100,12.7400,5.0000,7.0000
2023-12-02 21:45:00,2023-12-02 13:45:00,-999.0000,9.51,-999.00,-0.4180,-999.0000,-0.1,-999.0000,-999,0.1,,-999.0000,-999.0000,0.224,12.5850,-999.0000,13.1,13.1,12.7100,12.7400,5.0000,1.0000
2023-12-02 22:00:00,2023-12-02 14:00:00,-999.0000,9.51,-999.00,-0.5490,-999.0000,-0.1,-999.0000,-999,0.1,,-999.0000,-999.0000,0.245,12.5830,-999.0000,13.1,13.1,12.6900,12.7400,4.0000,2.0000
2023-12-02 22:15:00,2023-12-02 14:15:00,-999.0000,9.51,-999.00,-0.5590,-999.0000,-0.3,-999.0000,-999,0.0,,-999.0000,-999.0000,0.250,12.5860,-999.0000,13.0,13.1,12.6900,12.7400,4.0000,5.0000
2023-12-02 22:30:00,2023-12-02 14:30:00,-999.0000,9.51,-999.00,-0.4770,-999.0000,-0.3,-999.0000,-999,0.1,,-999.0000,-999.0000,0.253,12.5930,-999.0000,13.1,13.1,12.7000,12.7400,1.0000,4.0000
2023-12-02 22:45:00,2023-12-02 14:45:00,-999.0000,9.51,-999.00,-0.5140,-999.0000,-0.3,-999.0000,-999,0.0,,-999.0000,-999.0000,0.251,12.5920,-999.0000,13.1,13.1,12.6900,12.7400,6.0000,3.0000
2023-12-02 23:00:00,2023-12-02 15:00:00,-999.0000,9.51,-999.00,-0.5590,-999.0000,-0.5,-999.0000,-999,0.0,,-999.0000,-999.0000,0.251,12.5980,-999.0000,13.1,13.1,12.6900,12.4600,3.0000,4.0000
2023-12-02 23:15:00,2023-12-02 15:15:00,-999.0000,9.51,-999.00,-0.5390,-999.0000,-0.5,-999.0000,-999,0.0,,-999.0000,-999.0000,0.247,12.6060,-999.0000,13.0,13.0,12.6900,12.4400,4.0000,7.0000
2023-12-02 23:30:00,2023-12-02 15:30:00,-999.0000,9.51,-999.00,-0.5980,-999.0000,-0.5,-999.0000,-999,0.0,,-999.0000,-999.0000,0.248,12.6070,-999.0000,13.0,13.0,12.6800,12.0500,5.0000,5.0000
2023-12-02 23:45:00,2023-12-02 15:45:00,-999.0000,9.51,-999.00,-0.7100,-999.0000,-0.7,-999.0000,-999,-0.1,,-999.0000,-999.0000,0.242,12.6080,-999.0000,13.0,13.0,12.6800,10.7500,6.0000,7.0000
2023-12-03 00:00:00,2023-12-02 16:00:00,-999.0000,9.51,-999.00,-0.9660,-999.0000,-0.7,-999.0000,-999,-0.1,,-999.0000,-999.0000,0.236,12.6100,-999.0000,13.0,13.0,12.6800,7.0400,4.0000,6.0000
2023-12-03 00:15:00,2023-12-02 16:15:00,-999.0000,9.51,-999.00,-1.1470,-999.0000,-0.8,-999.0000,-999,-0.1,,-999.0000,-999.0000,0.231,12.6130,-999.0000,13.0,12.8,12.6700,0.0000,5.0000,6.0000
2023-12-03 00:30:00,2023-12-02 16:30:00,-999.0000,9.51,-999.00,-1.3510,-999.0000,-0.8,-999.0000,-999,-0.1,,-999.0000,-999.0000,0.228,12.6160,-999.0000,13.0,8.7,12.6600,0.0000,5.0000,2.0000
2023-12-03 00:45:00,2023-12-02 16:45:00,-999.0000,9.51,-999.00,-1.5040,-999.0000,-1.2,-999.0000,-999,-0.1,,-999.0000,-999.0000,0.225,12.6190,-999.0000,12.9,1.1,12.6700,0.0000,5.0000,6.0000
2023-12-03 01:00:00,2023-12-02 17:00:00,-999.0000,9.51,-999.00,-1.6830,-999.0000,-1.2,-999.0000,-999,-0.1,,-999.0000,-999.0000,0.223,12.6180,-999.0000,13.0,0.1,12.6600,0.0000,5.0000,4.0000
2023-12-03 01:15:00,2023-12-02 17:15:00,-999.0000,9.51,-999.00,-1.7990,-999.0000,-1.5,-999.0000,-999,-0.2,,-999.0000,-999.0000,0.223,12.6200,-999.0000,12.9,0.0,12.6600,0.0000,1.0000,6.0000
2023-12-03 01:30:00,2023-12-02 17:30:00,-999.0000,9.51,-999.00,-1.9240,-999.0000,-1.5,-999.0000,-999,-0.3,,-999.0000,-999.0000,0.219,12.6210,-999.0000,12.9,0.0,12.6600,0.0000,2.0000,1.0000
2023-12-03 01:45:00,2023-12-02 17:45:00,-999.0000,9.51,-999.00,-1.9440,-999.0000,-1.7,-999.0000,-999,-0.4,,-999.0000,-999.0000,0.219,12.6220,-999.0000,12.9,0.0,12.6500,0.0000,3.0000,6.0000
2023-12-03 02:00:00,2023-12-02 18:00:00,-999.0000,9.51,-999.00,-1.9560,-999.0000,-1.9,-999.0000,-999,-0.6,,-999.0000,-999.0000,0.220,12.6220,-999.0000,13.0,0.1,12.6500,0.0000,5.0000,0.0000
2023-12-03 02:15:00,2023-12-02 18:15:00,-999.0000,9.51,-999.00,-1.9560,-999.0000,-1.9,-999.0000,-999,-0.8,,-999.0000,-999.0000,0.221,12.6230,-999.0000,12.9,0.0,12.6400,0.0000,6.0000,6.0000
2023-12-03 02:30:00,2023-12-02 18:30:00,-999.0000,9.51,-999.00,-1.8800,-999.0000,-1.9,-999.0000,-999,-1.0,,-999.0000,-999.0000,0.219,12.6260,-999.0000,12.9,0.0,12.6600,0.0000,6.0000,8.0000
2023-12-03 02:45:00,2023-12-02 18:45:00,-999.0000,9.51,-999.00,-1.8850,-999.0000,-1.9,-999.0000,-999,-1.1,,-999.0000,-999.0000,0.219,12.6280,-999.0000,12.9,0.0,12.6400,0.0000,3.0000,4.0000
2023-12-03 03:00:00,2023-12-02 19:00:00,-999.0000,9.51,-999.00,-1.8910,-999.0000,-1.9,-999.0000,-999,-1.3,,-999.0000,-999.0000,0.218,12.6240,-999.0000,12.9,0.0,12.6400,0.0000,3.0000,8.0000
2023-12-03 03:15:00,2023-12-02 19:15:00,-999.0000,9.51,-999.00,-1.9470,-999.0000,-1.9,-999.0000,-999,-1.4,,-999.0000,-999.0000,0.218,12.6210,-999.0000,12.9,0.0,12.6400,0.0000,2.0000,5.0000
2023-12-03 03:30:00,2023-12-02 19:30:00,-999.0000,9.51,-999.00,-1.9830,-999.0000,-2.1,-999.0000,-999,-1.6,,-999.0000,-999.0000,0.214,12.6210,-999.0000,12.9,0.0,12.6600,0.0000,4.0000,5.0000
2023-12-03 03:45:00,2023-12-02 19:45:00,-999.0000,9.51,-999.00,-2.1040,-999.0000,-2.2,-999.0000,-999,-1.8,,-999.0000,-999.0000,0.213,12.6210,-999.0000,12.9,0.0,12.6300,0.0000,4.0000,3.0000
2023-12-03 04:00:00,2023-12-02 20:00:00,-999.0000,9.51,-999.00,-2.2550,-999.0000,-2.2,-999.0000,-999,-2.0,,-999.0000,-999.0000,0.214,12.6220,-999.0000,12.9,0.0,12.6400,0.0000,1.0000,7.0000
2023-12-03 04:15:00,2023-12-02 20:15:00,-999.0000,9.51,-999.00,-2.3630,-999.0000,-2.2,-999.0000,-999,-2.2,,-999.0000,-999.0000,0.220,12.6220,-999.0000,12.9,0.0,12.6400,0.0000,5.0000,1.0000
2023-12-03 04:30:00,2023-12-02 20:30:00,-999.0000,9.51,-999.00,-2.4620,-999.0000,-2.2,-999.0000,-999,-2.4,,-999.0000,-999.0000,0.218,12.6220,-999.0000,12.9,0.0,12.6400,0.0000,5.0000,6.0000
2023-12-03 04:45:00,2023-12-02 20:45:00,-999.0000,9.51,-999.00,-2.5310,-999.0000,-2.6,-999.0000,-999,-2.5,,-999.0000,-999.0000,0.219,12.6230,-999.0000,12.9,0.0,12.6400,0.0000,5.0000,8.0000
2023-12-03 05:00:00,2023-12-02 21:00:00,-999.0000,9.51,-999.00,-2.5310,-999.0000,-2.7,-999.0000,-999,-2.5,,-999.0000,-999.0000,0.219,12.6230,-999.0000,12.9,0.0,12.6300,0.0000,3.0000,8.0000
2023-12-03 05:15:00,2023-12-02 21:15:00,-999.0000,9.51,-999.00,-2.4920,-999.0000,-2.7,-999.0000,-999,-2.5,,-999.0000,-999.0000,0.226,12.6240,-999.0000,12.9,0.0,12.6400,0.0000,4.0000,5.0000
2023-12-03 05:30:00,2023-12-02 21:30:00,-999.0000,9.51,-999.00,-2.5310,-999.0000,-2.7,-999.0000,-999,-2.6,,-999.0000,-999.0000,0.224,12.6220,-999.0000,12.9,0.0,12.6400,0.0000,5.0000,8.0000
2023-12-03 05:45:00,2023-12-02 21:45:00,-999.0000,9.51,-999.00,-2.6090,-999.0000,-2.9,-999.0000,-999,-2.6,,-999.0000,-999.0000,0.221,12.6260,-999.0000,13.0,0.0,12.6400,0.0000,4.0000,2.0000
2023-12-03 06:00:00,2023-12-02 22:00:00,-999.0000,9.51,-999.00,-2.6340,-999.0000,-2.9,-999.0000,-999,-2.7,,-999.0000,-999.0000,0.226,12.6240,-999.0000,12.9,0.0,12.6300,0.0000,6.0000,7.0000
2023-12-03 06:15:00,2023-12-02 22:15:00,-999.0000,9.51,-999.00,-2.6170,-999.0000,-2.9,-999.0000,-999,-2.7,,-999.0000,-999.0000,0.224,12.6250,-999.0000,12.9,0.0,12.6400,0.0000,4.0000,0.0000
2023-12-03 06:30:00,2023-12-02 22:30:00,-999.0000,9.51,-999.00,-2.6310,-999.0000,-3.1,-999.0000,-999,-2.7,,-999.0000,-999.0000,0.227,12.6270,-999.0000,12.9,0.0,12.6300,0.0000,3.0000,7.0000
2023-12-03 06:45:00,2023-12-02 22:45:00,-999.0000,9.51,-999.00,-2.6110,-999.0000,-3.3,-999.0000,-999,-2.8,,-999.0000,-999.0000,0.230,12.6290,-999.0000,12.9,0.0,12.6400,0.0000,3.0000,1.0000
2023-12-03 07:00:00,2023-12-02 23:00:00,-999.0000,9.51,-999.00,-2.6340,-999.0000,-3.3,-999.0000,-999,-2.8,,-999.0000,-999.0000,0.225,12.6300,-999.0000,12.9,0.0,12.6400,0.0000,4.0000,7.0000
2023-12-03 07:15:00,2023-12-02 23:15:00,-999.0000,9.51,-999.00,-2.7170,-999.0000,-3.3,-999.0000,-999,-3.0,,-999.0000,-999.0000,0.226,12.6280,-999.0000,12.9,0.0,12.6300,0.0000,5.0000,2.0000
2023-12-03 07:30:00,2023-12-02 23:30:00,-999.0000,9.51,-999.00,-2.8080,-999.0000,-3.4,-999.0000,-999,-3.1,,-999.0000,-999.0000,0.226,12.6280,-999.0000,12.9,0.0,12.6400,0.0000,1.0000,8.0000
2023-12-03 07:45:00,2023-12-02 23:45:00,-999.0000,9.51,-999.00,-2.8860,-999.0000,-3.6,-999.0000,-999,-3.2,,-999.0000,-999.0000,0.225,12.6280,-999.0000,12.9,0.0,12.6300,0.0000,7.0000,4.0000
2023-12-03 08:00:00,2023-12-03 00:00:00,-999.0000,9.51,-999.00,-2.8390,-999.0000,-3.6,-999.0000,-999,-3.1,,-999.0000,-999.0000,0.226,12.6280,-999.0000,12.9,0.0,12.6300,0.0000,5.0000,8.0000
2023-12-03 08:15:00,2023-12-03 00:15:00,-999.0000,9.51,-999.00,-2.7770,-999.0000,-3.6,-999.0000,-999,-2.9,,-999.0000,-999.0000,0.224,12.6320,-999.0000,12.9,0.0,12.6300,0.0000,3.0000,9.0000
2023-12-03 08:30:00,2023-12-03 00:30:00,-999.0000,9.51,-999.00,-2.7010,-999.0000,-3.6,-999.0000,-999,-2.8,,-999.0000,-999.0000,0.224,12.6310,-999.0000,12.9,0.0,12.6300,0.0000,3.0000,7.0000
2023-12-03 08:45:00,2023-12-03 00:45:00,-999.0000,9.51,-999.00,-2.6940,-999.0000,-3.8,-999.0000,-999,-2.8,,-999.0000,-999.0000,0.222,12.6330,-999.0000,12.9,0.0,12.6300,0.0000,6.0000,6.0000
2023-12-03 09:00:00,2023-12-03 01:00:00,-999.0000,9.51,-999.00,-2.7010,-999.0000,-3.6,-999.0000,-999,-2.9,,-999.0000,-999.0000,0.224,12.6310,-999.0000,12.9,0.0,12.6300,0.0000,5.0000,7.0000
2023-12-03 09:15:00,2023-12-03 01:15:00,-999.0000,9.51,-999.00,-2.7920,-999.0000,-3.6,-999.0000,-999,-3.0,,-999.0000,-999.0000,0.222,12.6280,-999.0000,12.9,0.0,12.6300,0.0000,6.0000,1.0000
2023-12-03 09:30:00,2023-12-03 01:30:00,-999.0000,9.51,-999.00,-2.8890,-999.0000,-3.6,-999.0000,-999,-3.1,,-999.0000,-999.0000,0.223,12.6280,-999.0000,12.9,0.0,12.6300,0.0000,4.0000,6.0000
2023-12-03 09:45:00,2023-12-03 01:45:00,-999.0000,9.51,-999.00,-3.0020,-999.0000,-3.8,-999.0000,-999,-3.3,,-999.0000,-999.0000,0.222,12.6270,-999.0000,12.9,0.1,12.6300,0.0000,5.0000,7.0000
2023-12-03 10:00:00,2023-12-03 02:00:00,-999.0000,9.51,-999.00,-3.1560,-999.0000,-4.0,-999.0000,-999,-3.5,,-999.0000,-999.0000,0.222,12.6280,-999.0000,12.9,0.0,12.6300,0.0000,5.0000,4.0000
2023-12-03 10:15:00,2023-12-03 02:15:00,-999.0000,9.51,-999.00,-3.1580,-999.0000,-4.0,-999.0000,-999,-3.5,,-999.0000,-999.0000,0.225,12.6270,-999.0000,12.9,0.0,12.6200,0.0000,6.0000,6.0000
2023-12-03 10:30:00,2023-12-03 02:30:00,-999.0000,9.51,-999.00,-3.0740,-999.0000,-4.0,-999.0000,-999,-3.4,,-999.0000,-999.0000,0.222,12.6280,-999.0000,12.9,0.0,12.6400,0.0000,6.0000,5.0000
2023-12-03 10:45:00,2023-12-03 02:45:00,-999.0000,9.51,-999.00,-2.9740,-999.0000,-4.0,-999.0000,-999,-3.3,,-999.0000,-999.0000,0.222,12.6270,-999.0000,12.9,0.0,12.6400,0.0000,5.0000,8.0000
2023-12-03 11:00:00,2023-12-03 03:00:00,-999.0000,9.51,-999.00,-2.8770,-999.0000,-4.1,-999.0000,-999,-3.3,,-999.0000,-999.0000,0.221,12.6280,-999.0000,12.9,0.0,12.6300,0.0000,6.0000,5.0000
2023-12-03 11:15:00,2023-12-03 03:15:00,-999.0000,9.51,-999.00,-2.8040,-999.0000,-4.0,-999.0000,-999,-3.2,,-999.0000,-999.0000,0.222,12.6270,-999.0000,12.9,0.0,12.6300,0.0000,5.0000,3.0000
2023-12-03 11:30:00,2023-12-03 03:30:00,-999.0000,9.51,-999.00,-2.7410,-999.0000,-3.8,-999.0000,-999,-3.1,,-999.0000,-999.0000,0.219,12.6240,-999.0000,12.9,0.0,12.6300,0.0000,5.0000,5.0000
2023-12-03 11:45:00,2023-12-03 03:45:00,-999.0000,9.51,-999.00,-2.6430,-999.0000,-4.0,-999.0000,-999,-3.0,,-999.0000,-999.0000,0.219,12.6230,-999.0000,12.9,0.0,12.6300,0.0000,6.0000,9.0000
2023-12-03 12:00:00,2023-12-03 04:00:00,-999.0000,9.51,-999.00,-2.5580,-999.0000,-4.0,-999.0000,-999,-2.9,,-999.0000,-999.0000,0.219,12.6210,-999.0000,12.9,0.0,12.6400,0.0000,2.0000,7.0000
2023-12-03 12:15:00,2023-12-03 04:15:00,-999.0000,9.51,-999.00,-2.4890,-999.0000,-3.8,-999.0000,-999,-2.8,,-999.0000,-999.0000,0.219,12.6170,-999.0000,12.9,0.0,12.6300,0.0000,2.0000,4.0000
2023-12-03 12:30:00,2023-12-03 04:30:00,-999.0000,9.51,-999.00,-2.3930,-999.0000,-3.6,-999.0000,-999,-2.7,,-999.0000,-999.0000,0.218,12.6150,-999.0000,12.9,0.0,12.6200,0.0000,5.0000,7.0000
2023-12-03 12:45:00,2023-12-03 04:45:00,-999.0000,9.51,-999.00,-2.2950,-999.0000,-3.8,-999.0000,-999,-2.6,,-999.0000,-999.0000,0.218,12.6120,-999.0000,12.9,0.0,12.6200,0.0000,6.0000,9.0000
2023-12-03 13:00:00,2023-12-03 05:00:00,-999.0000,9.51,-999.00,-2.2090,-999.0000,-3.6,-999.0000,-999,-2.5,,-999.0000,-999.0000,0.218,12.6110,-999.0000,12.9,0.0,12.6300,0.0000,3.0000,8.0000
2023-12-03 13:15:00,2023-12-03 05:15:00,-999.0000,9.51,-999.00,-2.1190,-999.0000,-3.6,-999.0000,-999,-2.4,,-999.0000,-999.0000,0.218,12.6080,-999.0000,12.9,0.1,12.6300,0.0000,5.0000,8.0000
2023-12-03 13:30:00,2023-12-03 05:30:00,-999.0000,9.51,-999.00,-2.0460,-999.0000,-3.4,-999.0000,-999,-2.3,,-999.0000,-999.0000,0.218,12.6090,-999.0000,12.9,0.0,12.6300,0.0000,4.0000,3.0000
2023-12-03 13:45:00,2023-12-03 05:45:00,-999.0000,9.51,-999.00,-1.9610,-999.0000,-3.4,-999.0000,-999,-2.2,,-999.0000,-999.0000,0.219,12.6080,-999.0000,12.9,0.0,12.6300,0.0000,7.0000,9.0000
2023-12-03 14:00:00,2023-12-03 06:00:00,-999.0000,9.51,-999.00,-1.8670,-999.0000,-3.4,-999.0000,-999,-2.1,,-999.0000,-999.0000,0.217,12.6080,-999.0000,12.9,0.0,12.6300,0.0000,4.0000,6.0000
2023-12-03 14:15:00,2023-12-03 06:15:00,-999.0000,9.51,-999.00,-1.7720,-999.0000,-3.3,-999.0000,-999,-2.0,,-999.0000,-999.0000,0.216,12.6060,-999.0000,12.9,0.0,12.6300,0.0000,4.0000,7.0000
2023-12-03 14:30:00,2023-12-03 06:30:00,-999.0000,9.51,-999.00,-1.6200,-999.0000,-3.1,-999.0000,-999,-1.9,,-999.0000,-999.0000,0.210,12.6060,-999.0000,12.9,0.0,12.6400,0.0000,6.0000,6.0000
2023-12-03 14:45:00,2023-12-03 06:45:00,-999.0000,9.51,-999.00,-1.4860,-999.0000,-3.1,-999.0000,-999,-1.8,,-999.0000,-999.0000,0.201,12.6040,-999.0000,12.9,0.0,12.6200,0.0000,6.0000,9.0000
2023-12-03 15:00:00,2023-12-03 07:00:00,-999.0000,9.51,-999.00,-1.3650,-999.0000,-3.1,-999.0000,-999,-1.7,,-999.0000,-999.0000,0.196,12.6040,-999.0000,12.9,0.1,12.6300,0.0000,6.0000,6.0000
2023-12-03 15:15:00,2023-12-03 07:15:00,-999.0000,9.51,-999.00,-1.2220,-999.0000,-2.7,-999.0000,-999,-1.5,,-999.0000,-999.0000,0.234,12.6040,-999.0000,12.9,1.0,12.6200,0.0000,6.0000,5.0000
2023-12-03 15:30:00,2023-12-03 07:30:00,-999.0000,9.51,-999.00,-1.1180,-999.0000,-2.7,-999.0000,-999,-1.4,,-999.0000,-999.0000,0.229,12.6070,-999.0000,12.9,4.8,12.6300,0.0000,4.0000,6.0000
2023-12-03 15:45:00,2023-12-03 07:45:00,-999.0000,9.51,-999.00,-0.9630,-999.0000,-2.7,-999.0000,-999,-1.3,,-999.0000,-999.0000,0.247,12.6060,-999.0000,12.9,9.6,12.6300,0.0000,4.0000,7.0000
2023-12-03 16:00:00,2023-12-03 08:00:00,-999.0000,9.51,-999.00,-0.8500,-999.0000,-2.4,-999.0000,-999,-1.2,,-999.0000,-999.0000,0.240,12.6070,-999.0000,12.9,12.4,12.6300,0.0000,4.0000,6.0000
2023-12-03 16:15:00,2023-12-03 08:15:00,-999.0000,9.51,-999.00,-0.6200,-999.0000,-2.4,-999.0000,-999,-0.9,,-999.0000,-999.0000,0.248,12.6130,-999.0000,12.9,12.7,12.6300,0.0000,4.0000,5.0000
2023-12-03 16:30:00,2023-12-03 08:30:00,-999.0000,9.51,-999.00,-0.2930,-999.0000,-2.1,-999.0000,-999,-0.7,,-999.0000,-999.0000,0.261,12.6160,-999.0000,12.9,12.4,12.6200,0.0000,2.0000,7.0000
2023-12-03 16:45:00,2023-12-03 08:45:00,-999.0000,9.51,-999.00,-0.1160,-999.0000,-2.1,-999.0000,-999,-0.5,,-999.0000,-999.0000,0.262,12.6190,-999.0000,12.9,12.9,12.6200,0.0200,3.0000,7.0000
2023-12-03 17:00:00,2023-12-03 09:00:00,-999.0000,9.51,-999.00,0.0050,-999.0000,-1.9,-999.0000,-999,-0.3,,-999.0000,-999.0000,0.255,12.6200,-999.0000,12.9,12.9,12.6300,5.0300,2.0000,7.0000
2023-12-03 17:15:00,2023-12-03 09:15:00,-999.0000,9.51,-999.00,0.0650,-999.0000,-1.7,-999.0000,-999,-0.2,,-999.0000,-999.0000,0.262,12.6240,-999.0000,12.9,12.9,12.6300,9.6000,2.0000,5.0000
2023-12-03 17:30:00,2023-12-03 09:30:00,-999.0000,9.51,-999.00,0.0950,-999.0000,-1.4,-999.0000,-999,-0.1,,-999.0000,-999.0000,0.296,12.6310,-999.0000,12.9,12.9,12.6200,11.5200,2.0000,5.0000
2023-12-03 17:45:00,2023-12-03 09:45:00,-999.0000,9.51,-999.00,0.1140,-999.0000,-1.2,-999.0000,-999,-0.1,,-999.0000,-999.0000,0.295,12.6230,-999.0000,13.0,13.0,12.6200,11.5200,3.0000,5.0000
2023-12-03 18:00:00,2023-12-03 10:00:00,-999.0000,9.51,-999.00,0.1720,-999.0000,-1.2,-999.0000,-999,0.0,,-999.0000,-999.0000,0.296,12.6150,-999.0000,12.9,13.0,-999.0000,-999.0000,4.0000,-999.0000
2023-12-03 18:15:00,2023-12-03 10:15:00,-999.0000,9.51,-999.00,0.2210,-999.0000,-0.8,-999.0000,-999,0.0,,-999.0000,-999.0000,0.299,12.6200,-999.0000,13.0,13.0,12.6400,12.6800,4.0000,1.0000
2023-12-03 18:30:00,2023-12-03 10:30:00,-999.0000,9.51,-999.00,0.2980,-999.0000,-0.7,-999.0000,-999,0.0,,-999.0000,-999.0000,0.303,12.6190,-999.0000,13.0,13.0,-999.0000,-999.0000,1.0000,-999.0000
2023-12-03 18:45:00,2023-12-03 10:45:00,-999.0000,9.51,-999.00,0.4220,-999.0000,-0.5,-999.0000,-999,0.1,,-999.0000,-999.0000,0.308,12.6170,-999.0000,13.0,13.0,12.6700,12.7200,1.0000,4.0000
2023-12-03 19:00:00,2023-12-03 11:00:00,-999.0000,9.51,-999.00,0.4780,-999.0000,-0.1,-999.0000,-999,0.1,,-999.0000,-999.0000,0.298,12.6140,-999.0000,13.0,13.1,12.6600,12.7200,1.0000,3.0000
2023-12-03 19:15:00,2023-12-03 11:15:00,-999.0000,9.51,-999.00,0.4910,-999.0000,0.0,-999.0000,-999,0.1,,-999.0000,-999.0000,0.300,12.6190,-999.0000,13.0,13.0,12.6600,12.7200,2.0000,3.0000
2023-12-03 19:30:00,2023-12-03 11:30:00,-999.0000,9.51,-999.00,0.4910,-999.0000,0.2,-999.0000,-999,0.1,,-999.0000,-999.0000,0.303,12.6200,-999.0000,13.0,13.0,-999.0000,-999.0000,2.0000,-999.0000
2023-12-03 19:45:00,2023-12-03 11:45:00,-999.0000,9.51,-999.00,0.3940,-999.0000,0.4,-999.0000,-999,0.1,,-999.0000,-999.0000,0.307,12.6200,-999.0000,13.0,13.0,-999.0000,-999.0000,2.0000,-999.0000
2023-12-03 20:00:00,2023-12-03 12:00:00,-999.0000,9.51,-999.00,0.3770,-999.0000,0.0,-999.0000,-999,0.1,,-999.0000,-999.0000,0.304,12.6120,-999.0000,13.0,13.1,-999.0000,-999.0000,2.0000,-999.0000
2023-12-03 20:15:00,2023-12-03 12:15:00,-999.0000,9.51,-999.00,0.3500,-999.0000,0.2,-999.0000,-999,0.0,,-999.0000,-999.0000,0.292,12.6150,-999.0000,13.0,13.1,12.6800,12.7200,2.0000,4.0000
2023-12-03 20:30:00,2023-12-03 12:30:00,-999.0000,9.51,-999.00,0.3860,-999.0000,0.2,-999.0000,-999,0.1,,-999.0000,-999.0000,0.291,12.6150,-999.0000,13.1,13.2,12.6900,12.7700,3.0000,4.0000
2023-12-03 20:45:00,2023-12-03 12:45:00,-999.0000,9.51,-999.00,0.5060,-999.0000,0.0,-999.0000,-999,0.2,,-999.0000,-999.0000,0.288,12.6200,-999.0000,13.3,13.3,12.7200,12.7900,3.0000,7.0000
2023-12-03 21:00:00,2023-12-03 13:00:00,-999.0000,9.51,-999.00,0.5150,-999.0000,0.2,-999.0000,-999,0.2,,-999.0000,-999.0000,0.279,12.6210,-999.0000,13.4,13.4,12.7300,12.8300,5.0000,5.0000
2023-12-03 21:15:00,2023-12-03 13:15:00,-999.0000,9.51,-999.00,0.4530,-999.0000,0.2,-999.0000,-999,0.1,,-999.0000,-999.0000,0.273,12.6250,-999.0000,13.3,13.3,12.7100,12.7700,1.0000,4.0000
2023-12-03 21:30:00,2023-12-03 13:30:00,-999.0000,9.51,-999.00,0.3540,-999.0000,0.2,-999.0000,-999,0.0,,-999.0000,-999.0000,0.270,12.6250,-999.0000,13.2,13.3,12.7000,12.7400,1.0000,5.0000
2023-12-03 21:45:00,2023-12-03 13:45:00,-999.0000,9.51,-999.00,0.3270,-999.0000,0.0,-999.0000,-999,0.1,,-999.0000,-999.0000,0.266,12.6310,-999.0000,13.3,13.3,12.7100,12.7700,4.0000,4.0000
2023-12-03 22:00:00,2023-12-03 14:00:00,-999.0000,9.51,-999.00,0.3240,-999.0000,-0.1,-999.0000,-999,0.1,,-999.0000,-999.0000,0.268,12.6340,-999.0000,13.3,13.3,12.6900,12.7700,4.0000,5.0000
2023-12-03 22:15:00,2023-12-03 14:15:00,-999.0000,9.51,-999.00,0.4380,-999.0000,0.0,-999.0000,-999,0.2,,-999.0000,-999.0000,0.275,12.6360,-999.0000,13.3,13.4,12.7300,12.8100,1.0000,4.0000
2023-12-03 22:30:00,2023-12-03 14:30:00,-999.0000,9.51,-999.00,0.4570,-999.0000,0.0,-999.0000,-999,0.2,,-999.0000,-999.0000,0.286,12.6450,-999.0000,13.4,13.4,12.7400,12.8100,2.0000,2.0000
2023-12-03 22:45:00,2023-12-03 14:45:00,-999.0000,9.51,-999.00,0.4070,-999.0000,0.0,-999.0000,-999,0.1,,-999.0000,-999.0000,0.277,12.6460,-999.0000,13.4,13.4,12.7400,12.8100,1.0000,2.0000
2023-12-03 23:00:00,2023-12-03 15:00:00,-999.0000,9.51,-999.00,0.3760,-999.0000,-0.1,-999.0000,-999,0.1,,-999.0000,-999.0000,0.285,12.6500,-999.0000,13.3,13.4,-999.0000,-999.0000,1.0000,-999.0000
2023-12-03 23:15:00,2023-12-03 15:15:00,-999.0000,9.51,-999.00,0.3290,-999.0000,-0.1,-999.0000,-999,0.0,,-999.0000,-999.0000,0.270,12.6560,-999.0000,13.3,13.3,12.7200,12.7800,1.0000,4.0000
2023-12-03 23:30:00,2023-12-03 15:30:00,-999.0000,9.51,-999.00,0.3180,-999.0000,-0.1,-999.0000,-999,0.0,,-999.0000,-999.0000,0.264,12.6580,-999.0000,13.3,13.3,-999.0000,-999.0000,2.0000,-999.0000
2023-12-03 23:45:00,2023-12-03 15:45:00,-999.0000,9.51,-999.00,0.2960,-999.0000,-0.3,-999.0000,-999,0.0,,-999.0000,-999.0000,0.275,12.6610,-999.0000,13.3,13.3,-999.0000,-999.0000,2.0000,-999.0000
2023-12-04 00:00:00,2023-12-03 16:00:00,-999.0000,9.51,-999.00,0.2850,-999.0000,-0.3,-999.0000,-999,0.0,,-999.0000,-999.0000,0.282,12.6660,-999.0000,13.2,13.2,-999.0000,-999.0000,2.0000,-999.0000
2023-12-04 00:15:00,2023-12-03 16:15:00,-999.0000,9.51,-999.00,0.2880,-999.0000,-0.5,-999.0000,-999,0.0,,-999.0000,-999.0000,0.294,12.6700,-999.0000,13.2,13.1,-999.0000,-999.0000,0.0000,-999.0000
2023-12-04 00:30:00,2023-12-03 16:30:00,-999.0000,9.51,-999.00,0.2110,-999.0000,-0.3,-999.0000,-999,0.0,,-999.0000,-999.0000,0.290,12.6750,-999.0000,13.1,9.4,-999.0000,-999.0000,2.0000,-999.0000
2023-12-04 00:45:00,2023-12-03 16:45:00,-999.0000,9.51,-999.00,0.1710,-999.0000,-0.5,-999.0000,-999,0.0,,-999.0000,-999.0000,0.295,12.6770,-999.0000,13.1,1.6,-999.0000,-999.0000,2.0000,-999.0000
2023-12-04 01:00:00,2023-12-03 17:00:00,-999.0000,9.51,-999.00,0.1510,-999.0000,-0.7,-999.0000,-999,0.0,,-999.0000,-999.0000,0.289,12.6840,-999.0000,13.1,0.1,12.6900,0.0000,2.0000,3.0000
2023-12-04 01:15:00,2023-12-03 17:15:00,-999.0000,9.51,-999.00,0.1500,-999.0000,-0.7,-999.0000,-999,0.0,,-999.0000,-999.0000,0.294,12.6880,-999.0000,13.1,0.0,-999.0000,-999.0000,-1.0000,-999.0000
2023-12-04 01:30:00,2023-12-03 17:30:00,-999.0000,9.51,-999.00,0.1600,-999.0000,-0.7,-999.0000,-999,0.0,,-999.0000,-999.0000,0.286,12.6860,-999.0000,13.1,0.0,-999.0000,-999.0000,-1.0000,-999.0000
2023-12-04 01:45:00,2023-12-03 17:45:00,-999.0000,9.51,-999.00,0.1730,-999.0000,-0.7,-999.0000,-999,0.0,,-999.0000,-999.0000,0.287,12.6900,-999.0000,13.1,0.0,-999.0000,-999.0000,-1.0000,-999.0000
2023-12-04 02:00:00,2023-12-03 18:00:00,-999.0000,9.51,-999.00,0.1450,-999.0000,-0.8,-999.0000,-999,0.0,,-999.0000,-999.0000,0.284,12.6890,-999.0000,13.0,0.0,-999.0000,-999.0000,-1.0000,-999.0000
2023-12-04 02:15:00,2023-12-03 18:15:00,-999.0000,9.51,-999.00,0.1570,-999.0000,-0.7,-999.0000,-999,0.0,,-999.0000,-999.0000,0.284,12.6930,-999.0000,13.0,0.0,-999.0000,-999.0000,-1.0000,-999.0000
2023-12-04 02:30:00,2023-12-03 18:30:00,-999.0000,9.51,-999.00,0.1720,-999.0000,-0.7,-999.0000,-999,0.0,,-999.0000,-999.0000,0.281,12.6930,-999.0000,13.0,0.0,-999.0000,-999.0000,-1.0000,-999.0000
2023-12-04 02:45:00,2023-12-03 18:45:00,-999.0000,9.51,-999.00,0.1790,-999.0000,-0.8,-999.0000,-999,0.0,,-999.0000,-999.0000,0.281,12.6990,-999.0000,13.0,0.0,-999.0000,-999.0000,-1.0000,-999.0000
2023-12-04 03:00:00,2023-12-03 19:00:00,-999.0000,9.51,-999.00,0.1840,-999.0000,-0.8,-999.0000,-999,0.0,,-999.0000,-999.0000,0.283,12.7020,-999.0000,13.0,0.0,-999.0000,-999.0000,-1.0000,-999.0000
2023-12-04 03:15:00,2023-12-03 19:15:00,-999.0000,9.51,-999.00,0.1680,-999.0000,-0.8,-999.0000,-999,0.0,,-999.0000,-999.0000,0.280,12.7030,-999.0000,13.0,0.0,-999.0000,-999.0000,-1.0000,-999.0000
2023-12-04 03:30:00,2023-12-03 19:30:00,-999.0000,9.51,-999.00,0.1730,-999.0000,-0.8,-999.0000,-999,0.0,,-999.0000,-999.0000,0.277,12.7000,-999.0000,13.0,0.0,-999.0000,-999.0000,-1.0000,-999.0000
2023-12-04 03:45:00,2023-12-03 19:45:00,-999.0000,9.51,-999.00,0.1530,-999.0000,-0.8,-999.0000,-999,0.0,,-999.0000,-999.0000,0.281,12.7030,-999.0000,13.0,0.0,-999.0000,-999.0000,-1.0000,-999.0000
2023-12-04 04:00:00,2023-12-03 20:00:00,-999.0000,9.51,-999.00,0.1790,-999.0000,-1.0,-999.0000,-999,0.0,,-999.0000,-999.0000,0.278,12.7080,-999.0000,13.0,0.0,-999.0000,-999.0000,1.0000,-999.0000
2023-12-04 04:15:00,2023-12-03 20:15:00,-999.0000,9.51,-999.00,0.1340,-999.0000,-0.8,-999.0000,-999,0.0,,-999.0000,-999.0000,0.277,12.7060,-999.0000,12.9,0.0,-999.0000,-999.0000,1.0000,-999.0000
2023-12-04 04:30:00,2023-12-03 20:30:00,-999.0000,9.51,-999.00,0.0920,-999.0000,-0.8,-999.0000,-999,-0.1,,-999.0000,-999.0000,0.276,12.7080,-999.0000,13.0,0.0,-999.0000,-999.0000,1.0000,-999.0000
2023-12-04 04:45:00,2023-12-03 20:45:00,-999.0000,9.51,-999.00,0.0960,-999.0000,-0.8,-999.0000,-999,0.0,,-999.0000,-999.0000,0.275,12.7060,-999.0000,13.0,0.0,-999.0000,-999.0000,1.0000,-999.0000
2023-12-04 05:00:00,2023-12-03 21:00:00,-999.0000,9.51,-999.00,0.1730,-999.0000,-0.8,-999.0000,-999,0.0,,-999.0000,-999.0000,0.275,12.7080,-999.0000,13.0,0.0,-999.0000,-999.0000,1.0000,-999.0000
2023-12-04 05:15:00,2023-12-03 21:15:00,-999.0000,9.51,-999.00,0.1810,-999.0000,-0.8,-999.0000,-999,0.0,,-999.0000,-999.0000,0.276,12.6960,-999.0000,12.9,0.0,-999.0000,-999.0000,1.0000,-999.0000
2023-12-04 05:30:00,2023-12-03 21:30:00,-999.0000,9.51,-999.00,0.3120,-999.0000,-0.7,-999.0000,-999,0.0,,-999.0000,-999.0000,0.272,12.6870,-999.0000,13.0,0.0,-999.0000,-999.0000,1.0000,-999.0000
2023-12-04 05:45:00,2023-12-03 21:45:00,-999.0000,9.51,-999.00,0.2710,-999.0000,-0.8,-999.0000,-999,0.0,,-999.0000,-999.0000,0.272,12.6930,-999.0000,13.0,0.0,-999.0000,-999.0000,1.0000,-999.0000
2023-12-04 06:00:00,2023-12-03 22:00:00,-999.0000,9.51,-999.00,0.1540,-999.0000,-0.8,-999.0000,-999,-0.1,,-999.0000,-999.0000,0.269,12.6920,-999.0000,13.0,0.0,-999.0000,-999.0000,1.0000,-999.0000
2023-12-04 06:15:00,2023-12-03 22:15:00,-999.0000,9.51,-999.00,0.0540,-999.0000,-0.8,-999.0000,-999,-0.1,,-999.0000,-999.0000,0.272,12.6950,-999.0000,12.9,0.0,-999.0000,-999.0000,1.0000,-999.0000
2023-12-04 06:30:00,2023-12-03 22:30:00,-999.0000,9.51,-999.00,0.0520,-999.0000,-0.8,-999.0000,-999,-0.1,,-999.0000,-999.0000,0.268,12.7020,-999.0000,12.9,0.0,-999.0000,-999.0000,1.0000,-999.0000
2023-12-04 06:45:00,2023-12-03 22:45:00,-999.0000,9.51,-999.00,0.0390,-999.0000,-1.0,-999.0000,-999,-0.1,,-999.0000,-999.0000,0.269,12.7010,-999.0000,12.9,0.0,-999.0000,-999.0000,1.0000,-999.0000
2023-12-04 07:00:00,2023-12-03 23:00:00,-999.0000,9.51,-999.00,-0.0170,-999.0000,-0.8,-999.0000,-999,-0.1,,-999.0000,-999.0000,0.268,12.7020,-999.0000,13.0,0.0,-999.0000,-999.0000,1.0000,-999.0000
2023-12-04 07:15:00,2023-12-03 23:15:00,-999.0000,9.51,-999.00,-0.0210,-999.0000,-1.0,-999.0000,-999,-0.1,,-999.0000,-999.0000,0.266,12.7020,-999.0000,12.9,0.0,-999.0000,-999.0000,0.0000,-999.0000
2023-12-04 07:30:00,2023-12-03 23:30:00,-999.0000,9.51,-999.00,-0.0910,-999.0000,-1.0,-999.0000,-999,-0.1,,-999.0000,-999.0000,0.264,12.7020,-999.0000,12.9,0.0,-999.0000,-999.0000,0.0000,-999.0000
2023-12-04 07:45:00,2023-12-03 23:45:00,-999.0000,9.51,-999.00,-0.0900,-999.0000,-1.0,-999.0000,-999,-0.1,,-999.0000,-999.0000,0.267,12.7090,-999.0000,13.0,0.0,-999.0000,-999.0000,1.0000,-999.0000
2023-12-04 08:00:00,2023-12-04 00:00:00,-999.0000,9.51,-999.00,-0.1210,-999.0000,-1.2,-999.0000,-999,-0.2,,-999.0000,-999.0000,0.267,12.7080,-999.0000,12.9,0.0,-999.0000,-999.0000,1.0000,-999.0000
2023-12-04 08:15:00,2023-12-04 00:15:00,-999.0000,9.51,-999.00,-0.0910,-999.0000,-1.2,-999.0000,-999,-0.2,,-999.0000,-999.0000,0.266,12.7120,-999.0000,12.9,0.0,-999.0000,-999.0000,1.0000,-999.0000
2023-12-04 08:30:00,2023-12-04 00:30:00,-999.0000,9.51,-999.00,-0.1200,-999.0000,-1.0,-999.0000,-999,-0.3,,-999.0000,-999.0000,0.262,12.7120,-999.0000,12.9,0.0,-999.0000,-999.0000,2.0000,-999.0000
2023-12-04 08:45:00,2023-12-04 00:45:00,-999.0000,9.51,-999.00,-0.1560,-999.0000,-1.2,-999.0000,-999,-0.4,,-999.0000,-999.0000,0.264,12.7150,-999.0000,12.9,0.0,-999.0000,-999.0000,2.0000,-999.0000
2023-12-04 09:00:00,2023-12-04 01:00:00,-999.0000,9.51,-999.00,-0.2040,-999.0000,-1.2,-999.0000,-999,-0.7,,-999.0000,-999.0000,0.263,12.7170,-999.0000,12.9,0.0,12.6300,0.0000,2.0000,5.0000
2023-12-04 09:15:00,2023-12-04 01:15:00,-999.0000,9.51,-999.00,-0.3090,-999.0000,-1.2,-999.0000,-999,-1.0,,-999.0000,-999.0000,0.260,12.7190,-999.0000,12.9,0.0,12.6300,0.0000,2.0000,2.0000
2023-12-04 09:30:00,2023-12-04 01:30:00,-999.0000,9.51,-999.00,-0.3070,-999.0000,-1.2,-999.0000,-999,-1.3,,-999.0000,-999.0000,0.263,12.7210,-999.0000,12.9,0.0,12.6300,0.0000,3.0000,2.0000
2023-12-04 09:45:00,2023-12-04 01:45:00,-999.0000,9.51,-999.00,-0.2620,-999.0000,-1.2,-999.0000,-999,-1.4,,-999.0000,-999.0000,0.262,12.7280,-999.0000,12.9,0.0,12.6300,0.0000,2.0000,2.0000
2023-12-04 10:00:00,2023-12-04 02:00:00,-999.0000,9.51,-999.00,-0.2890,-999.0000,-1.4,-999.0000,-999,-1.4,,-999.0000,-999.0000,0.263,12.7340,-999.0000,12.9,0.0,12.6300,0.0000,3.0000,4.0000
2023-12-04 10:15:00,2023-12-04 02:15:00,-999.0000,9.51,-999.00,-0.3360,-999.0000,-1.2,-999.0000,-999,-1.4,,-999.0000,-999.0000,0.262,12.7380,-999.0000,12.9,0.0,12.6300,0.0000,4.0000,5.0000
2023-12-04 10:30:00,2023-12-04 02:30:00,-999.0000,9.51,-999.00,-0.3910,-999.0000,-1.2,-999.0000,-999,-1.5,,-999.0000,-999.0000,0.259,12.7400,-999.0000,12.9,0.0,12.6300,0.0000,5.0000,3.0000
2023-12-04 10:45:00,2023-12-04 02:45:00,-999.0000,9.51,-999.00,-0.5240,-999.0000,-1.4,-999.0000,-999,-1.5,,-999.0000,-999.0000,0.259,12.7420,-999.0000,12.9,0.1,12.6400,0.0000,1.0000,4.0000
2023-12-04 11:00:00,2023-12-04 03:00:00,-999.0000,9.51,-999.00,-0.7390,-999.0000,-1.4,-999.0000,-999,-1.6,,-999.0000,-999.0000,0.259,12.7430,-999.0000,12.9,0.1,12.6300,0.0000,3.0000,1.0000
2023-12-04 11:15:00,2023-12-04 03:15:00,-999.0000,9.51,-999.00,-0.7980,-999.0000,-1.4,-999.0000,-999,-1.7,,-999.0000,-999.0000,0.258,12.7440,-999.0000,12.9,0.1,12.6400,0.0000,2.0000,3.0000
2023-12-04 11:30:00,2023-12-04 03:30:00,-999.0000,9.51,-999.00,-0.8840,-999.0000,-1.5,-999.0000,-999,-1.8,,-999.0000,-999.0000,0.257,12.7470,-999.0000,12.9,0.1,12.6400,0.0000,4.0000,7.0000
2023-12-04 11:45:00,2023-12-04 03:45:00,-999.0000,9.51,-999.00,-0.9550,-999.0000,-1.5,-999.0000,-999,-1.8,,-999.0000,-999.0000,0.257,12.7470,-999.0000,12.9,0.1,12.6400,0.0000,6.0000,7.0000
2023-12-04 12:00:00,2023-12-04 04:00:00,-999.0000,9.51,-999.00,-1.0760,-999.0000,-1.7,-999.0000,-999,-1.9,,-999.0000,-999.0000,0.257,12.7440,-999.0000,12.9,0.1,12.6100,0.0000,3.0000,6.0000
2023-12-04 12:15:00,2023-12-04 04:15:00,-999.0000,9.51,-999.00,-1.0470,-999.0000,-1.7,-999.0000,-999,-1.9,,-999.0000,-999.0000,0.255,12.7450,-999.0000,12.9,0.1,12.6400,0.0000,4.0000,8.0000
2023-12-04 12:30:00,2023-12-04 04:30:00,-999.0000,9.51,-999.00,-1.1340,-999.0000,-1.7,-999.0000,-999,-2.0,,-999.0000,-999.0000,0.255,12.7400,-999.0000,12.9,0.1,12.6300,0.0000,1.0000,4.0000
2023-12-04 12:45:00,2023-12-04 04:45:00,-999.0000,9.51,-999.00,-1.2370,-999.0000,-1.7,-999.0000,-999,-2.0,,-999.0000,-999.0000,0.253,12.7410,-999.0000,12.9,0.0,12.6300,0.0000,6.0000,5.0000
2023-12-04 13:00:00,2023-12-04 05:00:00,-999.0000,9.51,-999.00,-1.2900,-999.0000,-1.9,-999.0000,-999,-2.1,,-999.0000,-999.0000,0.254,12.7410,-999.0000,12.9,0.0,12.6300,0.0000,6.0000,5.0000
2023-12-04 13:15:00,2023-12-04 05:15:00,-999.0000,9.51,-999.00,-1.3060,-999.0000,-1.9,-999.0000,-999,-2.2,,-999.0000,-999.0000,0.254,12.7400,-999.0000,12.9,0.0,12.6300,0.0000,4.0000,6.0000
2023-12-04 13:30:00,2023-12-04 05:30:00,-999.0000,9.51,-999.00,-1.2960,-999.0000,-2.1,-999.0000,-999,-2.1,,-999.0000,-999.0000,0.254,12.7370,-999.0000,12.9,0.1,12.6400,0.0000,3.0000,4.0000
2023-12-04 13:45:00,2023-12-04 05:45:00,-999.0000,9.51,-999.00,-1.2250,-999.0000,-2.1,-999.0000,-999,-2.1,,-999.0000,-999.0000,0.251,12.7330,-999.0000,12.9,0.0,12.6300,0.0000,6.0000,3.0000
2023-12-04 14:00:00,2023-12-04 06:00:00,-999.0000,9.51,-999.00,-1.2450,-999.0000,-2.1,-999.0000,-999,-2.0,,-999.0000,-999.0000,0.252,12.7310,-999.0000,12.9,0.0,12.6300,0.0000,6.0000,3.0000
2023-12-04 14:15:00,2023-12-04 06:15:00,-999.0000,9.51,-999.00,-1.1800,-999.0000,-2.1,-999.0000,-999,-1.9,,-999.0000,-999.0000,0.252,12.7280,-999.0000,12.9,0.0,12.6200,0.0000,3.0000,9.0000
2023-12-04 14:30:00,2023-12-04 06:30:00,-999.0000,9.51,-999.00,-0.9940,-999.0000,-2.1,-999.0000,-999,-1.7,,-999.0000,-999.0000,0.251,12.7250,-999.0000,12.9,0.0,12.6300,0.0000,4.0000,-1.0000
2023-12-04 14:45:00,2023-12-04 06:45:00,-999.0000,9.51,-999.00,-0.7200,-999.0000,-2.1,-999.0000,-999,-1.4,,-999.0000,-999.0000,0.253,12.7240,-999.0000,12.9,0.0,12.6300,0.0000,3.0000,3.0000
2023-12-04 15:00:00,2023-12-04 07:00:00,-999.0000,9.51,-999.00,-0.2830,-999.0000,-2.1,-999.0000,-999,-1.0,,-999.0000,-999.0000,0.251,12.7310,-999.0000,12.9,0.1,12.6200,0.0000,5.0000,2.0000
2023-12-04 15:15:00,2023-12-04 07:15:00,-999.0000,9.51,-999.00,0.0340,-999.0000,-1.9,-999.0000,-999,-0.5,,-999.0000,-999.0000,0.253,12.7380,-999.0000,12.9,0.8,12.6300,0.0000,1.0000,5.0000
2023-12-04 15:30:00,2023-12-04 07:30:00,-999.0000,9.51,-999.00,0.1040,-999.0000,-1.5,-999.0000,-999,-0.2,,-999.0000,-999.0000,0.251,12.7370,-999.0000,12.9,5.3,12.6300,0.0000,4.0000,4.0000
2023-12-04 15:45:00,2023-12-04 07:45:00,-999.0000,9.51,-999.00,0.1270,-999.0000,-1.5,-999.0000,-999,-0.1,,-999.0000,-999.0000,0.251,12.7370,-999.0000,12.9,12.9,12.6300,0.2600,5.0000,1.0000
2023-12-04 16:00:00,2023-12-04 08:00:00,-999.0000,9.51,-999.00,0.1430,-999.0000,-1.4,-999.0000,-999,-0.1,,-999.0000,-999.0000,0.254,12.7330,-999.0000,12.9,13.0,12.6200,11.4700,0.0000,5.0000
2023-12-04 16:15:00,2023-12-04 08:15:00,-999.0000,9.51,-999.00,0.1730,-999.0000,-1.2,-999.0000,-999,0.0,,-999.0000,-999.0000,0.255,12.7340,-999.0000,12.9,12.9,12.6200,11.4700,0.0000,5.0000
2023-12-04 16:30:00,2023-12-04 08:30:00,-999.0000,9.51,-999.00,0.2000,-999.0000,-1.0,-999.0000,-999,0.0,,-999.0000,-999.0000,0.251,12.7340,-999.0000,13.0,13.0,12.6300,12.1600,1.0000,4.0000
2023-12-04 16:45:00,2023-12-04 08:45:00,-999.0000,9.51,-999.00,0.2370,-999.0000,-1.0,-999.0000,-999,0.0,,-999.0000,-999.0000,0.252,12.7330,-999.0000,13.0,13.0,12.6300,12.1600,0.0000,4.0000
2023-12-04 17:00:00,2023-12-04 09:00:00,-999.0000,9.51,-999.00,0.2710,-999.0000,-1.0,-999.0000,-999,0.0,,-999.0000,-999.0000,0.253,12.7330,-999.0000,13.0,13.0,12.6300,11.7700,1.0000,0.0000
2023-12-04 17:15:00,2023-12-04 09:15:00,-999.0000,9.51,-999.00,0.3340,-999.0000,-1.0,-999.0000,-999,0.0,,-999.0000,-999.0000,0.233,12.7300,-999.0000,12.9,13.0,-999.0000,-999.0000,1.0000,-999.0000
2023-12-04 17:30:00,2023-12-04 09:30:00,-999.0000,9.51,-999.00,0.4240,-999.0000,-0.8,-999.0000,-999,0.0,,-999.0000,-999.0000,0.253,12.7280,-999.0000,13.0,13.0,-999.0000,-999.0000,1.0000,-999.0000
2023-12-04 17:45:00,2023-12-04 09:45:00,-999.0000,9.51,-999.00,0.4860,-999.0000,-0.8,-999.0000,-999,0.0,,-999.0000,-999.0000,0.249,12.7290,-999.0000,13.0,13.0,-999.0000,-999.0000,2.0000,-999.0000
2023-12-04 18:00:00,2023-12-04 10:00:00,-999.0000,9.51,-999.00,0.5670,-999.0000,-0.8,-999.0000,-999,0.0,,-999.0000,-999.0000,0.250,12.7290,-999.0000,13.0,13.1,-999.0000,-999.0000,2.0000,-999.0000
2023-12-04 18:15:00,2023-12-04 10:15:00,-999.0000,9.51,-999.00,0.6640,-999.0000,-0.7,-999.0000,-999,0.0,,-999.0000,-999.0000,0.244,12.7270,-999.0000,13.0,13.1,-999.0000,-999.0000,2.0000,-999.0000
2023-12-04 18:30:00,2023-12-04 10:30:00,-999.0000,9.51,-999.00,0.7620,-999.0000,-0.5,-999.0000,-999,0.0,,-999.0000,-999.0000,0.257,12.7300,-999.0000,13.1,13.1,-999.0000,-999.0000,2.0000,-999.0000
2023-12-04 18:45:00,2023-12-04 10:45:00,-999.0000,9.51,-999.00,0.8510,-999.0000,-0.5,-999.0000,-999,0.0,,-999.0000,-999.0000,0.261,12.7270,-999.0000,13.1,13.1,-999.0000,-999.0000,2.0000,-999.0000
2023-12-04 19:00:00,2023-12-04 11:00:00,-999.0000,9.51,-999.00,1.0050,-999.0000,-0.3,-999.0000,-999,0.0,,-999.0000,-999.0000,0.232,12.7230,-999.0000,13.1,13.2,-999.0000,-999.0000,2.0000,-999.0000
2023-12-04 19:15:00,2023-12-04 11:15:00,-999.0000,9.51,-999.00,1.1140,-999.0000,-0.1,-999.0000,-999,0.0,,-999.0000,-999.0000,0.236,12.7240,-999.0000,13.1,13.2,-999.0000,-999.0000,2.0000,-999.0000
2023-12-04 19:30:00,2023-12-04 11:30:00,-999.0000,9.52,-999.00,1.2190,-999.0000,-0.1,-999.0000,-999,0.1,,-999.0000,-999.0000,0.237,12.7240,-999.0000,13.1,13.2,12.6800,12.7600,2.0000,3.0000
2023-12-04 19:45:00,2023-12-04 11:45:00,-999.0000,9.55,-999.00,1.2620,-999.0000,-0.1,-999.0000,-999,0.1,,-999.0000,-999.0000,0.228,12.7210,-999.0000,13.2,13.2,12.6900,12.7700,2.0000,4.0000
2023-12-04 20:00:00,2023-12-04 12:00:00,-999.0000,9.64,-999.00,1.3730,-999.0000,-0.1,-999.0000,-999,0.1,,-999.0000,-999.0000,0.223,12.7230,-999.0000,13.2,13.2,-999.0000,-999.0000,0.0000,-999.0000
2023-12-04 20:15:00,2023-12-04 12:15:00,-999.0000,9.72,-999.00,1.3770,-999.0000,0.0,-999.0000,-999,0.1,,-999.0000,-999.0000,0.207,12.7170,-999.0000,13.2,13.2,-999.0000,-999.0000,0.0000,-999.0000
2023-12-04 20:30:00,2023-12-04 12:30:00,-999.0000,9.74,-999.00,1.5480,-999.0000,0.0,-999.0000,-999,0.1,,-999.0000,-999.0000,0.233,12.7180,-999.0000,13.2,13.3,12.7100,12.7700,1.0000,3.0000
2023-12-04 20:45:00,2023-12-04 12:45:00,-999.0000,9.77,-999.00,1.6420,-999.0000,0.0,-999.0000,-999,0.1,,-999.0000,-999.0000,0.233,12.7190,-999.0000,13.2,13.2,-999.0000,-999.0000,-1.0000,-999.0000
2023-12-04 21:00:00,2023-12-04 13:00:00,-999.0000,9.79,-999.00,1.6810,-999.0000,0.2,-999.0000,-999,0.2,,-999.0000,-999.0000,0.234,12.7180,-999.0000,13.3,13.3,-999.0000,-999.0000,-1.0000,-999.0000
2023-12-04 21:15:00,2023-12-04 13:15:00,-999.0000,9.82,-999.00,1.8860,-999.0000,0.2,-999.0000,-999,0.2,,-999.0000,-999.0000,0.243,12.7200,-999.0000,13.3,13.3,-999.0000,-999.0000,1.0000,-999.0000
2023-12-04 21:30:00,2023-12-04 13:30:00,-999.0000,9.84,-999.00,2.0410,-999.0000,0.4,-999.0000,-999,0.3,,-999.0000,-999.0000,0.232,12.7210,-999.0000,13.4,13.4,-999.0000,-999.0000,1.0000,-999.0000
2023-12-04 21:45:00,2023-12-04 13:45:00,-999.0000,9.86,-999.00,2.2110,-999.0000,0.4,-999.0000,-999,0.5,,-999.0000,-999.0000,0.229,12.7200,-999.0000,13.5,13.6,-999.0000,-999.0000,1.0000,-999.0000
2023-12-04 22:00:00,2023-12-04 14:00:00,-999.0000,9.88,-999.00,2.3300,-999.0000,0.4,-999.0000,-999,0.4,,-999.0000,-999.0000,0.226,12.7210,-999.0000,13.5,13.5,-999.0000,-999.0000,1.0000,-999.0000
2023-12-04 22:15:00,2023-12-04 14:15:00,-999.0000,9.90,-999.00,2.2010,-999.0000,0.6,-999.0000,-999,0.4,,-999.0000,-999.0000,0.221,12.7210,-999.0000,13.4,13.4,-999.0000,-999.0000,1.0000,-999.0000
2023-12-04 22:30:00,2023-12-04 14:30:00,-999.0000,9.92,-999.00,2.2210,-999.0000,0.7,-999.0000,-999,0.4,,-999.0000,-999.0000,0.227,12.7150,-999.0000,13.4,13.4,-999.0000,-999.0000,1.0000,-999.0000
2023-12-04 22:45:00,2023-12-04 14:45:00,-999.0000,9.94,-999.00,2.0690,-999.0000,0.7,-999.0000,-999,0.5,,-999.0000,-999.0000,0.208,12.7140,-999.0000,13.4,13.4,12.7500,12.8100,2.0000,7.0000
2023-12-04 23:00:00,2023-12-04 15:00:00,-999.0000,9.96,-999.00,2.0200,-999.0000,0.6,-999.0000,-999,0.6,,-999.0000,-999.0000,0.220,12.7150,-999.0000,13.4,13.4,12.7500,12.8100,2.0000,7.0000
2023-12-04 23:15:00,2023-12-04 15:15:00,-999.0000,9.98,-999.00,2.0280,-999.0000,0.6,-999.0000,-999,0.6,,-999.0000,-999.0000,0.216,12.7150,-999.0000,13.3,13.3,-999.0000,-999.0000,5.0000,-999.0000
2023-12-04 23:30:00,2023-12-04 15:30:00,-999.0000,10.00,-999.00,1.8820,-999.0000,0.6,-999.0000,-999,0.5,,-999.0000,-999.0000,0.217,12.7170,-999.0000,13.3,13.3,-999.0000,-999.0000,5.0000,-999.0000
2023-12-04 23:45:00,2023-12-04 15:45:00,-999.0000,10.02,-999.00,1.9000,-999.0000,0.4,-999.0000,-999,0.6,,-999.0000,-999.0000,0.219,12.7160,-999.0000,13.3,13.2,-999.0000,-999.0000,2.0000,-999.0000
2023-12-05 00:00:00,2023-12-04 16:00:00,-999.0000,10.04,-999.00,1.9700,-999.0000,0.4,-999.0000,-999,0.6,,-999.0000,-999.0000,0.221,12.7170,-999.0000,13.2,13.0,-999.0000,-999.0000,2.0000,-999.0000
2023-12-05 00:15:00,2023-12-04 16:15:00,-999.0000,10.07,-999.00,1.8360,-999.0000,0.2,-999.0000,-999,0.6,,-999.0000,-999.0000,0.228,12.7170,-999.0000,13.2,9.6,-999.0000,-999.0000,2.0000,-999.0000
2023-12-05 00:30:00,2023-12-04 16:30:00,-999.0000,10.09,-999.00,1.6860,-999.0000,0.2,-999.0000,-999,0.5,,-999.0000,-999.0000,0.227,12.7150,-999.0000,13.2,4.9,-999.0000,-999.0000,2.0000,-999.0000
2023-12-05 00:45:00,2023-12-04 16:45:00,-999.0000,10.10,-999.00,1.7230,-999.0000,0.2,-999.0000,-999,0.5,,-999.0000,-999.0000,0.228,12.7150,-999.0000,13.1,0.5,-999.0000,-999.0000,2.0000,-999.0000
2023-12-05 01:00:00,2023-12-04 17:00:00,-999.0000,10.12,-999.00,1.8510,-999.0000,0.2,-999.0000,-999,0.6,,-999.0000,-999.0000,0.219,12.7150,-999.0000,13.1,0.1,-999.0000,-999.0000,2.0000,-999.0000
2023-12-05 01:15:00,2023-12-04 17:15:00,-999.0000,10.14,-999.00,1.8130,-999.0000,0.2,-999.0000,-999,0.6,,-999.0000,-999.0000,0.210,12.7110,-999.0000,13.1,0.0,-999.0000,-999.0000,2.0000,-999.0000
2023-12-05 01:30:00,2023-12-04 17:30:00,-999.0000,10.16,-999.00,1.8370,-999.0000,0.2,-999.0000,-999,0.6,,-999.0000,-999.0000,0.208,12.7120,-999.0000,13.1,0.0,-999.0000,-999.0000,2.0000,-999.0000
2023-12-05 01:45:00,2023-12-04 17:45:00,-999.0000,10.19,-999.00,2.0150,-999.0000,0.2,-999.0000,-999,0.7,,-999.0000,-999.0000,0.209,12.7090,-999.0000,13.1,0.0,-999.0000,-999.0000,0.0000,-999.0000
2023-12-05 02:00:00,2023-12-04 18:00:00,-999.0000,10.21,-999.00,2.0750,-999.0000,0.2,-999.0000,-999,0.8,,-999.0000,-999.0000,0.207,12.7080,-999.0000,13.0,0.0,-999.0000,-999.0000,0.0000,-999.0000
2023-12-05 02:15:00,2023-12-04 18:15:00,-999.0000,10.23,-999.00,1.9880,-999.0000,0.0,-999.0000,-999,0.8,,-999.0000,-999.0000,0.210,12.7090,-999.0000,13.0,0.0,-999.0000,-999.0000,0.0000,-999.0000
2023-12-05 02:30:00,2023-12-04 18:30:00,-999.0000,10.26,-999.00,1.8500,-999.0000,0.2,-999.0000,-999,0.8,,-999.0000,-999.0000,0.206,12.7070,-999.0000,13.1,0.0,-999.0000,-999.0000,0.0000,-999.0000
2023-12-05 02:45:00,2023-12-04 18:45:00,-999.0000,10.28,-999.00,2.0840,-999.0000,0.2,-999.0000,-999,0.9,,-999.0000,-999.0000,0.205,12.7070,-999.0000,13.0,0.0,-999.0000,-999.0000,0.0000,-999.0000
2023-12-05 03:00:00,2023-12-04 19:00:00,-999.0000,10.31,-999.00,2.2470,-999.0000,0.0,-999.0000,-999,1.0,,-999.0000,-999.0000,0.202,12.7080,-999.0000,13.0,0.0,-999.0000,-999.0000,-2.0000,-999.0000
2023-12-05 03:15:00,2023-12-04 19:15:00,-999.0000,10.35,-999.00,2.1570,-999.0000,0.2,-999.0000,-999,1.0,,-999.0000,-999.0000,0.187,12.7070,-999.0000,13.0,0.0,-999.0000,-999.0000,-2.0000,-999.0000
2023-12-05 03:30:00,2023-12-04 19:30:00,-999.0000,10.39,-999.00,2.1880,-999.0000,0.4,-999.0000,-999,1.1,,-999.0000,-999.0000,0.208,12.7060,-999.0000,13.0,0.0,-999.0000,-999.0000,-2.0000,-999.0000
2023-12-05 03:45:00,2023-12-04 19:45:00,-999.0000,10.43,-999.00,2.3200,-999.0000,0.4,-999.0000,-999,1.1,,-999.0000,-999.0000,0.196,12.7040,-999.0000,13.0,0.0,-999.0000,-999.0000,-2.0000,-999.0000
2023-12-05 04:00:00,2023-12-04 20:00:00,-999.0000,10.46,-999.00,2.9760,-999.0000,0.2,-999.0000,-999,1.3,,-999.0000,-999.0000,0.186,12.7060,-999.0000,13.0,0.0,-999.0000,-999.0000,-2.0000,-999.0000
2023-12-05 04:15:00,2023-12-04 20:15:00,-999.0000,10.50,-999.00,3.5910,-999.0000,0.4,-999.0000,-999,1.6,,-999.0000,-999.0000,0.180,12.7040,-999.0000,13.0,0.0,-999.0000,-999.0000,-2.0000,-999.0000
2023-12-05 04:30:00,2023-12-04 20:30:00,-999.0000,10.54,-999.00,4.1230,-999.0000,0.6,-999.0000,-999,1.9,,-999.0000,-999.0000,0.185,12.7060,-999.0000,13.0,0.0,-999.0000,-999.0000,-2.0000,-999.0000
2023-12-05 04:45:00,2023-12-04 20:45:00,-999.0000,10.58,-999.00,4.0240,-999.0000,0.7,-999.0000,-999,2.1,,-999.0000,-999.0000,0.182,12.7060,-999.0000,13.0,0.0,-999.0000,-999.0000,-2.0000,-999.0000
2023-12-05 05:00:00,2023-12-04 21:00:00,-999.0000,10.61,-999.00,4.0340,-999.0000,0.9,-999.0000,-999,2.2,,-999.0000,-999.0000,0.215,12.7010,-999.0000,13.0,0.0,-999.0000,-999.0000,-2.0000,-999.0000
2023-12-05 05:15:00,2023-12-04 21:15:00,-999.0000,10.65,-999.00,3.8970,-999.0000,1.1,-999.0000,-999,2.3,,-999.0000,-999.0000,0.190,12.7030,-999.0000,12.9,0.0,-999.0000,-999.0000,-2.0000,-999.0000
2023-12-05 05:30:00,2023-12-04 21:30:00,-999.0000,10.69,-999.00,3.8520,-999.0000,1.1,-999.0000,-999,2.2,,-999.0000,-999.0000,0.187,12.6980,-999.0000,13.0,0.0,-999.0000,-999.0000,-2.0000,-999.0000
2023-12-05 05:45:00,2023-12-04 21:45:00,-999.0000,10.72,-999.00,3.4530,-999.0000,1.2,-999.0000,-999,2.0,,-999.0000,-999.0000,0.184,12.6980,-999.0000,13.0,0.0,-999.0000,-999.0000,-2.0000,-999.0000
2023-12-05 06:00:00,2023-12-04 22:00:00,-999.0000,10.76,-999.00,3.9830,-999.0000,1.2,-999.0000,-999,2.3,,-999.0000,-999.0000,0.168,12.7040,-999.0000,13.0,0.0,-999.0000,-999.0000,-2.0000,-999.0000
2023-12-05 06:15:00,2023-12-04 22:15:00,-999.0000,10.83,-999.00,4.5330,-999.0000,1.2,-999.0000,-999,2.4,,-999.0000,-999.0000,0.170,12.7060,-999.0000,12.9,0.0,-999.0000,-999.0000,-2.0000,-999.0000
2023-12-05 06:30:00,2023-12-04 22:30:00,-999.0000,10.91,-999.00,4.8940,-999.0000,1.2,-999.0000,-999,2.7,,-999.0000,-999.0000,0.171,12.7120,-999.0000,12.9,0.0,-999.0000,-999.0000,-2.0000,-999.0000
2023-12-05 06:45:00,2023-12-04 22:45:00,-999.0000,11.01,-999.00,5.4980,-999.0000,1.4,-999.0000,-999,3.3,,-999.0000,-999.0000,0.157,12.7160,-999.0000,12.9,0.0,-999.0000,-999.0000,-2.0000,-999.0000
2023-12-05 07:00:00,2023-12-04 23:00:00,-999.0000,11.12,-999.00,4.9820,-999.0000,1.6,-999.0000,-999,3.3,,-999.0000,-999.0000,0.190,12.7160,-999.0000,12.9,0.0,-999.0000,-999.0000,-2.0000,-999.0000
2023-12-05 07:15:00,2023-12-04 23:15:00,-999.0000,11.24,-999.00,5.1200,-999.0000,1.8,-999.0000,-999,3.2,,-999.0000,-999.0000,0.152,12.7130,-999.0000,12.9,0.0,-999.0000,-999.0000,-2.0000,-999.0000
2023-12-05 07:30:00,2023-12-04 23:30:00,-999.0000,11.34,-999.00,5.1140,-999.0000,2.1,-999.0000,-999,3.3,,-999.0000,-999.0000,0.181,12.7120,-999.0000,12.9,0.0,-999.0000,-999.0000,-2.0000,-999.0000
2023-12-05 07:45:00,2023-12-04 23:45:00,-999.0000,11.45,-999.00,5.4710,-999.0000,2.1,-999.0000,-999,3.4,,-999.0000,-999.0000,0.149,12.7150,-999.0000,12.9,0.0,-999.0000,-999.0000,-2.0000,-999.0000
2023-12-05 08:00:00,2023-12-05 00:00:00,-999.0000,11.56,-999.00,5.2050,-999.0000,2.1,-999.0000,-999,3.3,,-999.0000,-999.0000,0.154,12.7170,-999.0000,12.9,0.0,12.6300,0.0000,-2.0000,5.0000
2023-12-05 08:15:00,2023-12-05 00:15:00,-999.0000,11.67,-999.00,6.3080,-999.0000,2.1,-999.0000,-999,3.7,,-999.0000,-999.0000,0.143,12.7240,-999.0000,12.9,0.0,12.6400,0.0000,2.0000,3.0000
2023-12-05 08:30:00,2023-12-05 00:30:00,-999.0000,11.77,-999.00,5.4090,-999.0000,2.3,-999.0000,-999,3.5,,-999.0000,-999.0000,0.127,12.7130,-999.0000,12.9,0.0,12.6300,0.0000,3.0000,6.0000
2023-12-05 08:45:00,2023-12-05 00:45:00,-999.0000,11.84,-999.00,4.9130,-999.0000,2.1,-999.0000,-999,3.2,,-999.0000,-999.0000,0.147,12.7100,-999.0000,12.9,0.0,12.6400,0.0000,3.0000,5.0000
2023-12-05 09:00:00,2023-12-05 01:00:00,-999.0000,11.88,-999.00,3.8720,-999.0000,2.1,-999.0000,-999,2.6,,-999.0000,-999.0000,0.155,12.7070,-999.0000,12.9,0.0,12.6300,0.0000,3.0000,4.0000
2023-12-05 09:15:00,2023-12-05 01:15:00,-999.0000,11.92,-999.00,3.4420,-999.0000,2.1,-999.0000,-999,2.3,,-999.0000,-999.0000,0.172,12.7070,-999.0000,12.9,0.0,12.6300,0.0000,3.0000,2.0000
2023-12-05 09:30:00,2023-12-05 01:30:00,-999.0000,11.95,-999.00,3.3140,-999.0000,1.9,-999.0000,-999,2.2,,-999.0000,-999.0000,0.168,12.7100,-999.0000,12.9,0.0,12.6400,0.0000,5.0000,3.0000
2023-12-05 09:45:00,2023-12-05 01:45:00,-999.0000,11.98,-999.00,2.9930,-999.0000,1.6,-999.0000,-999,2.0,,-999.0000,-999.0000,0.129,12.7040,-999.0000,12.9,0.0,12.6300,0.0000,4.0000,7.0000
2023-12-05 10:00:00,2023-12-05 02:00:00,-999.0000,12.02,-999.00,2.9490,-999.0000,1.6,-999.0000,-999,1.9,,-999.0000,-999.0000,0.148,12.7080,-999.0000,12.9,0.1,12.6200,0.0000,0.0000,6.0000
2023-12-05 10:15:00,2023-12-05 02:15:00,-999.0000,12.05,-999.00,2.7650,-999.0000,1.4,-999.0000,-999,1.8,,-999.0000,-999.0000,0.155,12.7080,-999.0000,12.9,0.0,12.6300,0.0000,4.0000,4.0000
2023-12-05 10:30:00,2023-12-05 02:30:00,-999.0000,12.07,-999.00,2.8050,-999.0000,1.4,-999.0000,-999,1.8,,-999.0000,-999.0000,0.141,12.7080,-999.0000,12.9,0.0,12.6300,0.0000,2.0000,7.0000
2023-12-05 10:45:00,2023-12-05 02:45:00,-999.0000,12.09,-999.00,2.7040,-999.0000,1.2,-999.0000,-999,1.8,,-999.0000,-999.0000,0.138,12.7120,-999.0000,12.9,0.0,12.6300,0.0000,2.0000,6.0000
2023-12-05 11:00:00,2023-12-05 03:00:00,-999.0000,12.11,-999.00,2.5450,-999.0000,1.1,-999.0000,-999,1.7,,-999.0000,-999.0000,0.139,12.7100,-999.0000,12.9,0.0,12.6300,0.0000,2.0000,4.0000
2023-12-05 11:15:00,2023-12-05 03:15:00,-999.0000,12.13,-999.00,2.6520,-999.0000,1.2,-999.0000,-999,1.6,,-999.0000,-999.0000,0.139,12.6990,-999.0000,12.9,0.0,12.6300,0.0000,2.0000,4.0000
2023-12-05 11:30:00,2023-12-05 03:30:00,-999.0000,12.14,-999.00,2.6890,-999.0000,1.1,-999.0000,-999,1.5,,-999.0000,-999.0000,0.143,12.7030,-999.0000,12.9,0.0,12.6200,0.0000,3.0000,4.0000
2023-12-05 11:45:00,2023-12-05 03:45:00,-999.0000,12.15,-999.00,2.8010,-999.0000,1.1,-999.0000,-999,1.6,,-999.0000,-999.0000,0.149,12.7000,-999.0000,12.9,0.0,12.6200,0.0000,3.0000,1.0000
2023-12-05 12:00:00,2023-12-05 04:00:00,-999.0000,12.16,-999.00,2.6500,-999.0000,0.9,-999.0000,-999,1.7,,-999.0000,-999.0000,0.146,12.7000,-999.0000,12.9,0.0,12.6300,0.0000,3.0000,4.0000
2023-12-05 12:15:00,2023-12-05 04:15:00,-999.0000,12.18,-999.00,2.6290,-999.0000,1.1,-999.0000,-999,1.7,,-999.0000,-999.0000,0.145,12.7020,-999.0000,12.9,0.0,12.6300,0.0000,3.0000,7.0000
2023-12-05 12:30:00,2023-12-05 04:30:00,-999.0000,12.21,-999.00,2.7290,-999.0000,1.1,-999.0000,-999,1.7,,-999.0000,-999.0000,0.140,12.7030,-999.0000,12.9,0.0,12.6300,0.0000,3.0000,3.0000
2023-12-05 12:45:00,2023-12-05 04:45:00,-999.0000,12.23,-999.00,2.7210,-999.0000,1.1,-999.0000,-999,1.7,,-999.0000,-999.0000,0.129,12.6980,-999.0000,12.9,0.0,12.6200,0.0000,2.0000,5.0000
2023-12-05 13:00:00,2023-12-05 05:00:00,-999.0000,12.25,-999.00,2.7280,-999.0000,1.1,-999.0000,-999,1.8,,-999.0000,-999.0000,0.131,12.7020,-999.0000,12.9,0.0,12.6300,0.0000,2.0000,7.0000
2023-12-05 13:15:00,2023-12-05 05:15:00,-999.0000,12.28,-999.00,2.7180,-999.0000,1.1,-999.0000,-999,1.7,,-999.0000,-999.0000,0.128,12.7050,-999.0000,12.9,0.0,12.6300,0.0000,3.0000,3.0000
2023-12-05 13:30:00,2023-12-05 05:30:00,-999.0000,12.30,-999.00,2.4950,-999.0000,1.1,-999.0000,-999,1.7,,-999.0000,-999.0000,0.146,12.7060,-999.0000,12.9,0.0,12.6300,0.0000,3.0000,4.0000
2023-12-05 13:45:00,2023-12-05 05:45:00,-999.0000,12.33,-999.00,2.5530,-999.0000,1.1,-999.0000,-999,1.7,,-999.0000,-999.0000,0.140,12.7100,-999.0000,12.9,0.0,12.6400,0.0000,3.0000,4.0000
2023-12-05 14:00:00,2023-12-05 06:00:00,-999.0000,12.37,-999.00,2.6190,-999.0000,1.1,-999.0000,-999,1.7,,-999.0000,-999.0000,0.125,12.7120,-999.0000,12.9,0.0,12.6200,0.0000,3.0000,4.0000
2023-12-05 14:15:00,2023-12-05 06:15:00,-999.0000,12.41,-999.00,2.6610,-999.0000,1.1,-999.0000,-999,1.7,,-999.0000,-999.0000,0.139,12.7090,-999.0000,12.9,0.0,12.6300,0.0000,3.0000,0.0000
2023-12-05 14:30:00,2023-12-05 06:30:00,-999.0000,12.45,-999.00,2.6550,-999.0000,1.2,-999.0000,-999,1.7,,-999.0000,-999.0000,0.122,12.7070,-999.0000,12.9,0.0,12.6300,0.0000,3.0000,7.0000
2023-12-05 14:45:00,2023-12-05 06:45:00,-999.0000,12.49,-999.00,2.5580,-999.0000,1.1,-999.0000,-999,1.7,,-999.0000,-999.0000,0.140,12.7060,-999.0000,13.0,0.0,12.6300,0.0000,5.0000,5.0000
2023-12-05 15:00:00,2023-12-05 07:00:00,-999.0000,12.51,-999.00,2.6770,-999.0000,1.1,-999.0000,-999,1.8,,-999.0000,-999.0000,0.114,12.7050,-999.0000,13.0,0.1,12.6300,0.0000,1.0000,4.0000
2023-12-05 15:15:00,2023-12-05 07:15:00,-999.0000,12.53,-999.00,2.6380,-999.0000,1.2,-999.0000,-999,1.7,,-999.0000,-999.0000,0.128,12.7050,-999.0000,12.9,1.2,12.6300,0.0000,1.0000,6.0000
2023-12-05 15:30:00,2023-12-05 07:30:00,-999.0000,12.54,-999.00,2.5580,-999.0000,1.2,-999.0000,-999,1.7,,-999.0000,-999.0000,0.131,12.7090,-999.0000,12.9,6.4,12.6300,0.0000,4.0000,4.0000
2023-12-05 15:45:00,2023-12-05 07:45:00,-999.0000,12.56,-999.00,2.5370,-999.0000,1.2,-999.0000,-999,1.7,,-999.0000,-999.0000,0.126,12.7100,-999.0000,12.9,10.2,12.6200,0.0000,5.0000,2.0000
2023-12-05 16:00:00,2023-12-05 08:00:00,-999.0000,12.59,-999.00,2.5510,-999.0000,1.2,-999.0000,-999,1.7,,-999.0000,-999.0000,0.127,12.7080,-999.0000,12.9,12.9,12.6200,7.8200,5.0000,3.0000
2023-12-05 16:15:00,2023-12-05 08:15:00,-999.0000,12.62,-999.00,2.6280,-999.0000,1.2,-999.0000,-999,1.7,,-999.0000,-999.0000,0.128,12.7090,-999.0000,12.9,12.9,12.6200,10.4900,5.0000,1.0000
2023-12-05 16:30:00,2023-12-05 08:30:00,-999.0000,12.63,-999.00,2.5060,-999.0000,1.2,-999.0000,-999,1.7,,-999.0000,-999.0000,0.119,12.7070,-999.0000,12.9,13.0,12.6200,11.6600,2.0000,5.0000
2023-12-05 16:45:00,2023-12-05 08:45:00,-999.0000,12.64,-999.00,2.5830,-999.0000,1.2,-999.0000,-999,1.8,,-999.0000,-999.0000,0.121,12.7050,-999.0000,13.0,13.0,12.6300,12.2600,2.0000,2.0000
2023-12-05 17:00:00,2023-12-05 09:00:00,-999.0000,12.65,-999.00,2.4950,-999.0000,1.2,-999.0000,-999,1.7,,-999.0000,-999.0000,0.124,12.7070,-999.0000,13.0,13.0,12.6300,12.3300,2.0000,3.0000
2023-12-05 17:15:00,2023-12-05 09:15:00,-999.0000,12.68,-999.00,2.6300,-999.0000,1.4,-999.0000,-999,1.8,,-999.0000,-999.0000,0.129,12.7140,-999.0000,13.0,13.0,12.6300,12.5900,2.0000,3.0000
2023-12-05 17:30:00,2023-12-05 09:30:00,-999.0000,12.70,-999.00,2.8160,-999.0000,1.4,-999.0000,-999,2.0,,-999.0000,-999.0000,0.122,12.7140,-999.0000,13.0,13.0,12.6400,12.6800,2.0000,5.0000
2023-12-05 17:45:00,2023-12-05 09:45:00,-999.0000,12.72,-999.00,2.7340,-999.0000,1.6,-999.0000,-999,1.9,,-999.0000,-999.0000,0.128,12.7170,-999.0000,13.0,13.0,12.6400,12.2700,4.0000,3.0000
2023-12-05 18:00:00,2023-12-05 10:00:00,-999.0000,12.73,-999.00,2.7170,-999.0000,1.6,-999.0000,-999,1.9,,-999.0000,-999.0000,0.126,12.7160,-999.0000,13.0,13.0,12.6400,12.6900,1.0000,6.0000
2023-12-05 18:15:00,2023-12-05 10:15:00,-999.0000,12.76,-999.00,2.7900,-999.0000,1.6,-999.0000,-999,2.1,,-999.0000,-999.0000,0.135,12.7170,-999.0000,13.0,13.0,12.6400,12.7200,1.0000,2.0000
2023-12-05 18:30:00,2023-12-05 10:30:00,-999.0000,12.78,-999.00,2.9180,-999.0000,1.8,-999.0000,-999,2.2,,-999.0000,-999.0000,0.148,12.7180,-999.0000,13.0,13.1,12.6800,12.7200,5.0000,-1.0000
2023-12-05 18:45:00,2023-12-05 10:45:00,-999.0000,12.80,-999.00,3.0320,-999.0000,1.8,-999.0000,-999,2.2,,-999.0000,-999.0000,0.146,12.7180,-999.0000,13.1,13.1,12.6500,12.7200,5.0000,4.0000
2023-12-05 19:00:00,2023-12-05 11:00:00,-999.0000,12.82,-999.00,3.0180,-999.0000,1.8,-999.0000,-999,2.2,,-999.0000,-999.0000,0.149,12.7170,-999.0000,13.1,13.1,12.6600,12.7200,2.0000,1.0000
2023-12-05 19:15:00,2023-12-05 11:15:00,-999.0000,12.83,-999.00,3.0860,-999.0000,1.9,-999.0000,-999,2.3,,-999.0000,-999.0000,0.141,12.7130,-999.0000,13.0,13.1,12.6700,12.7200,4.0000,5.0000
2023-12-05 19:30:00,2023-12-05 11:30:00,-999.0000,12.84,-999.00,3.0960,-999.0000,2.1,-999.0000,-999,2.4,,-999.0000,-999.0000,0.146,12.7110,-999.0000,13.1,13.1,12.6700,12.7200,3.0000,5.0000
2023-12-05 19:45:00,2023-12-05 11:45:00,-999.0000,12.86,-999.00,3.1830,-999.0000,2.1,-999.0000,-999,2.3,,-999.0000,-999.0000,0.138,12.7140,-999.0000,13.1,13.1,12.6800,12.7200,2.0000,6.0000
2023-12-05 20:00:00,2023-12-05 12:00:00,-999.0000,12.87,-999.00,3.2070,-999.0000,2.1,-999.0000,-999,2.3,,-999.0000,-999.0000,0.135,12.7150,-999.0000,13.1,13.1,12.6800,12.7200,6.0000,2.0000
2023-12-05 20:15:00,2023-12-05 12:15:00,-999.0000,12.90,-999.00,3.1260,-999.0000,2.1,-999.0000,-999,2.4,,-999.0000,-999.0000,0.107,12.7130,-999.0000,13.1,13.1,12.6800,12.7400,3.0000,6.0000
2023-12-05 20:30:00,2023-12-05 12:30:00,-999.0000,12.92,-999.00,3.1230,-999.0000,2.3,-999.0000,-999,2.3,,-999.0000,-999.0000,0.123,12.7080,-999.0000,13.1,13.1,12.6900,12.7300,3.0000,5.0000
2023-12-05 20:45:00,2023-12-05 12:45:00,-999.0000,12.93,-999.00,3.0430,-999.0000,2.3,-999.0000,-999,2.3,,-999.0000,-999.0000,0.126,12.7030,-999.0000,13.1,13.1,12.6800,12.7200,1.0000,6.0000
2023-12-05 21:00:00,2023-12-05 13:00:00,-999.0000,12.95,-999.00,3.0400,-999.0000,2.3,-999.0000,-999,2.3,,-999.0000,-999.0000,0.113,12.7060,-999.0000,13.1,13.1,12.6900,12.7200,4.0000,3.0000
2023-12-05 21:15:00,2023-12-05 13:15:00,-999.0000,12.97,-999.00,3.2030,-999.0000,2.3,-999.0000,-999,2.4,,-999.0000,-999.0000,0.122,12.7080,-999.0000,13.1,13.1,12.6900,12.7400,5.0000,4.0000
2023-12-05 21:30:00,2023-12-05 13:30:00,-999.0000,13.00,-999.00,3.2630,-999.0000,2.3,-999.0000,-999,2.4,,-999.0000,-999.0000,0.150,12.7020,-999.0000,13.1,13.2,12.6900,12.7400,3.0000,4.0000
2023-12-05 21:45:00,2023-12-05 13:45:00,-999.0000,13.01,-999.00,3.2550,-999.0000,2.3,-999.0000,-999,2.4,,-999.0000,-999.0000,0.136,12.7060,-999.0000,13.1,13.1,12.6800,12.7300,3.0000,7.0000
2023-12-05 22:00:00,2023-12-05 14:00:00,-999.0000,13.03,-999.00,3.3450,-999.0000,2.3,-999.0000,-999,2.4,,-999.0000,-999.0000,0.125,12.7060,-999.0000,13.1,13.1,12.6700,12.7300,2.0000,4.0000
2023-12-05 22:15:00,2023-12-05 14:15:00,-999.0000,13.05,-999.00,3.2340,-999.0000,2.5,-999.0000,-999,2.3,,-999.0000,-999.0000,0.129,12.7040,-999.0000,13.1,13.1,12.6900,12.0700,2.0000,5.0000
2023-12-05 22:30:00,2023-12-05 14:30:00,-999.0000,13.08,-999.00,3.1820,-999.0000,2.5,-999.0000,-999,2.3,,-999.0000,-999.0000,0.131,12.7030,-999.0000,13.1,13.1,12.6800,12.1400,2.0000,8.0000
2023-12-05 22:45:00,2023-12-05 14:45:00,-999.0000,13.10,-999.00,2.9610,-999.0000,2.3,-999.0000,-999,2.2,,-999.0000,-999.0000,0.122,12.7020,-999.0000,13.1,13.1,12.6700,12.2000,6.0000,3.0000
2023-12-05 23:00:00,2023-12-05 15:00:00,-999.0000,13.11,-999.00,3.0700,-999.0000,2.3,-999.0000,-999,2.1,,-999.0000,-999.0000,0.119,12.7030,-999.0000,13.1,13.1,12.6700,11.6100,6.0000,4.0000
2023-12-05 23:15:00,2023-12-05 15:15:00,-999.0000,13.14,-999.00,3.0910,-999.0000,2.3,-999.0000,-999,2.1,,-999.0000,-999.0000,0.121,12.7000,-999.0000,13.0,13.0,12.6600,11.4900,3.0000,5.0000
2023-12-05 23:30:00,2023-12-05 15:30:00,-999.0000,13.15,-999.00,2.9330,-999.0000,2.3,-999.0000,-999,2.0,,-999.0000,-999.0000,0.110,12.7020,-999.0000,13.0,13.0,12.6600,9.0700,3.0000,2.0000
2023-12-05 23:45:00,2023-12-05 15:45:00,-999.0000,13.17,-999.00,2.9500,-999.0000,2.1,-999.0000,-999,2.0,,-999.0000,-999.0000,0.112,12.7020,-999.0000,13.0,12.9,12.6400,5.5000,4.0000,9.0000
2023-12-06 00:00:00,2023-12-05 16:00:00,-999.0000,13.19,-999.00,2.9020,-999.0000,2.1,-999.0000,-999,2.0,,-999.0000,-999.0000,0.117,12.7010,-999.0000,13.0,12.9,12.6400,2.3200,5.0000,8.0000
2023-12-06 00:15:00,2023-12-05 16:15:00,-999.0000,13.21,-999.00,2.7890,-999.0000,2.1,-999.0000,-999,2.0,,-999.0000,-999.0000,0.118,12.7030,-999.0000,13.0,8.0,12.6400,0.0000,5.0000,2.0000
2023-12-06 00:30:00,2023-12-05 16:30:00,-999.0000,13.23,-999.00,2.8390,-999.0000,2.1,-999.0000,-999,1.9,,-999.0000,-999.0000,0.116,12.7020,-999.0000,13.0,5.7,12.6400,0.0000,1.0000,4.0000
2023-12-06 00:45:00,2023-12-05 16:45:00,-999.0000,13.25,-999.00,2.8320,-999.0000,1.9,-999.0000,-999,1.9,,-999.0000,-999.0000,0.120,12.7030,-999.0000,13.0,0.5,12.6400,0.0000,3.0000,9.0000
2023-12-06 01:00:00,2023-12-05 17:00:00,-999.0000,13.27,-999.00,2.6440,-999.0000,1.9,-999.0000,-999,1.8,,-999.0000,-999.0000,0.117,12.7040,-999.0000,13.0,0.1,12.6400,0.0000,1.0000,3.0000
2023-12-06 01:15:00,2023-12-05 17:15:00,-999.0000,13.29,-999.00,2.5310,-999.0000,1.9,-999.0000,-999,1.7,,-999.0000,-999.0000,0.120,12.7020,-999.0000,12.9,0.0,12.6400,0.0000,1.0000,5.0000
2023-12-06 01:30:00,2023-12-05 17:30:00,-999.0000,13.30,-999.00,2.4700,-999.0000,1.8,-999.0000,-999,1.7,,-999.0000,-999.0000,0.116,12.6980,-999.0000,12.9,0.0,12.6300,0.0000,6.0000,3.0000
2023-12-06 01:45:00,2023-12-05 17:45:00,-999.0000,13.32,-999.00,2.4210,-999.0000,1.6,-999.0000,-999,1.7,,-999.0000,-999.0000,0.116,12.6990,-999.0000,12.9,0.0,12.6400,0.0000,6.0000,5.0000
2023-12-06 02:00:00,2023-12-05 18:00:00,-999.0000,13.33,-999.00,2.4130,-999.0000,1.6,-999.0000,-999,1.6,,-999.0000,-999.0000,0.119,12.6910,-999.0000,12.9,0.1,12.6300,0.0000,7.0000,6.0000
2023-12-06 02:15:00,2023-12-05 18:15:00,-999.0000,13.34,-999.00,2.3320,-999.0000,1.6,-999.0000,-999,1.6,,-999.0000,-999.0000,0.123,12.6890,-999.0000,12.9,0.0,12.6300,0.0000,6.0000,4.0000
2023-12-06 02:30:00,2023-12-05 18:30:00,-999.0000,13.36,-999.00,2.4580,-999.0000,1.6,-999.0000,-999,1.6,,-999.0000,-999.0000,0.125,12.6900,-999.0000,12.9,0.1,12.6200,0.0000,3.0000,5.0000
2023-12-06 02:45:00,2023-12-05 18:45:00,-999.0000,13.38,-999.00,2.4700,-999.0000,1.4,-999.0000,-999,1.6,,-999.0000,-999.0000,0.128,12.6930,-999.0000,12.9,0.0,12.6200,0.0000,3.0000,9.0000
2023-12-06 03:00:00,2023-12-05 19:00:00,-999.0000,13.40,-999.00,2.4890,-999.0000,1.4,-999.0000,-999,1.7,,-999.0000,-999.0000,0.129,12.6920,-999.0000,12.9,0.0,12.6300,0.0000,2.0000,8.0000
2023-12-06 03:15:00,2023-12-05 19:15:00,-999.0000,13.42,-999.00,2.4220,-999.0000,1.4,-999.0000,-999,1.6,,-999.0000,-999.0000,0.140,12.6880,-999.0000,12.9,0.0,12.6200,0.0000,3.0000,9.0000
2023-12-06 03:30:00,2023-12-05 19:30:00,-999.0000,13.45,-999.00,2.3720,-999.0000,1.6,-999.0000,-999,1.6,,-999.0000,-999.0000,0.139,12.6910,-999.0000,12.9,0.0,12.6200,0.0000,3.0000,9.0000
2023-12-06 03:45:00,2023-12-05 19:45:00,-999.0000,13.46,-999.00,2.3370,-999.0000,1.4,-999.0000,-999,1.6,,-999.0000,-999.0000,0.135,12.6910,-999.0000,12.9,0.0,12.6200,0.0000,7.0000,4.0000
2023-12-06 04:00:00,2023-12-05 20:00:00,-999.0000,13.49,-999.00,2.2880,-999.0000,1.2,-999.0000,-999,1.5,,-999.0000,-999.0000,0.146,12.6920,-999.0000,12.9,0.0,12.6300,0.0000,6.0000,6.0000
2023-12-06 04:15:00,2023-12-05 20:15:00,-999.0000,13.52,-999.00,2.2780,-999.0000,1.2,-999.0000,-999,1.6,,-999.0000,-999.0000,0.112,12.6920,-999.0000,12.9,0.0,12.6300,0.0000,3.0000,6.0000
2023-12-06 04:30:00,2023-12-05 20:30:00,-999.0000,13.55,-999.00,2.2420,-999.0000,1.4,-999.0000,-999,1.5,,-999.0000,-999.0000,0.104,12.6890,-999.0000,12.9,0.0,12.6300,0.0000,3.0000,4.0000
2023-12-06 04:45:00,2023-12-05 20:45:00,-999.0000,13.58,-999.00,2.2640,-999.0000,1.2,-999.0000,-999,1.5,,-999.0000,-999.0000,0.119,12.6930,-999.0000,12.9,0.0,12.6200,0.0000,7.0000,4.0000
2023-12-06 05:00:00,2023-12-05 21:00:00,-999.0000,13.61,-999.00,2.2390,-999.0000,1.2,-999.0000,-999,1.5,,-999.0000,-999.0000,0.125,12.6930,-999.0000,12.9,0.0,12.6100,0.0000,3.0000,5.0000
2023-12-06 05:15:00,2023-12-05 21:15:00,-999.0000,13.66,-999.00,2.2150,-999.0000,1.1,-999.0000,-999,1.5,,-999.0000,-999.0000,0.117,12.6870,-999.0000,12.9,0.0,12.6200,0.0000,3.0000,6.0000
2023-12-06 05:30:00,2023-12-05 21:30:00,-999.0000,13.69,-999.00,2.1530,-999.0000,1.2,-999.0000,-999,1.5,,-999.0000,-999.0000,0.121,12.6850,-999.0000,12.9,0.0,12.6300,0.0000,4.0000,5.0000
2023-12-06 05:45:00,2023-12-05 21:45:00,-999.0000,13.72,-999.00,2.2210,-999.0000,1.2,-999.0000,-999,1.5,,-999.0000,-999.0000,0.114,12.6840,-999.0000,12.9,0.0,12.6200,0.0000,4.0000,8.0000
2023-12-06 06:00:00,2023-12-05 22:00:00,-999.0000,13.73,-999.00,2.2840,-999.0000,1.2,-999.0000,-999,1.5,,-999.0000,-999.0000,0.116,12.6880,-999.0000,12.9,0.0,12.6300,0.0000,4.0000,2.0000
2023-12-06 06:15:00,2023-12-05 22:15:00,-999.0000,13.74,-999.00,2.2510,-999.0000,1.1,-999.0000,-999,1.5,,-999.0000,-999.0000,0.111,12.6870,-999.0000,12.9,0.0,12.6200,0.0000,2.0000,4.0000
2023-12-06 06:30:00,2023-12-05 22:30:00,-999.0000,13.76,-999.00,2.1600,-999.0000,1.2,-999.0000,-999,1.5,,-999.0000,-999.0000,0.103,12.6840,-999.0000,12.9,0.0,12.6400,0.0000,4.0000,6.0000
2023-12-06 06:45:00,2023-12-05 22:45:00,-999.0000,13.79,-999.00,2.1450,-999.0000,1.2,-999.0000,-999,1.5,,-999.0000,-999.0000,0.114,12.6850,-999.0000,12.9,0.0,12.6100,0.0000,6.0000,4.0000
2023-12-06 07:00:00,2023-12-05 23:00:00,-999.0000,13.82,-999.00,2.0930,-999.0000,1.1,-999.0000,-999,1.4,,-999.0000,-999.0000,0.102,12.6780,-999.0000,13.0,0.0,12.6200,0.0000,4.0000,9.0000
2023-12-06 07:15:00,2023-12-05 23:15:00,-999.0000,13.84,-999.00,2.3150,-999.0000,1.2,-999.0000,-999,1.5,,-999.0000,-999.0000,0.096,12.6800,-999.0000,12.9,0.0,12.6100,0.0000,3.0000,6.0000
2023-12-06 07:30:00,2023-12-05 23:30:00,-999.0000,13.86,-999.00,2.4530,-999.0000,1.2,-999.0000,-999,1.6,,-999.0000,-999.0000,0.110,12.6780,-999.0000,12.9,0.0,12.6300,0.0000,3.0000,2.0000
2023-12-06 07:45:00,2023-12-05 23:45:00,-999.0000,13.87,-999.00,2.4840,-999.0000,1.2,-999.0000,-999,1.6,,-999.0000,-999.0000,0.089,12.6770,-999.0000,12.9,0.0,12.6200,0.0000,6.0000,5.0000